Aviation Digital Data Service (ADDS)

Output produced by METARs form (1952 UTC 22 December 2014)
found at http://aviationweather.gov/adds/metars/
 
K04V 221926Z AUTO 33008KT 2SM -SN SCT007 OVC014 00/M04 A2968 RMK AO2
K04W 221935Z AUTO 10006KT 1 3/4SM -RA OVC004 02/01 A2964 RMK AO2
K06D 221935Z AUTO 02011KT 1SM UP OVC002 M01/M01 A2957 RMK AO2
K08D 221935Z AUTO 02010KT 350V060 2 1/2SM BR OVC002 M03/M03 A2958 RMK AO2
K0A9 221935Z AUTO 13009KT 10SM BKN085 12/04 A2990 RMK
K0CO 221933Z AUTO M1/4SM +SN OVC003 M14/M17 A2956 RMK AO2
K0E0 221935Z AUTO 28023G32KT 10SM CLR 13/M01 A2976 RMK AO2 T01301015
K0F2 221935Z AUTO 31013G17KT 10SM CLR 14/07 A2960 RMK AO2 T01360070
K0J4 221858Z AUTO 11005KT 10SM OVC003 15/13 A2984 RMK AO2 SLP103 T01500133 $
K0V4 221935Z AUTO 04007KT 2 1/2SM OVC005 03/02 A3011 RMK AO1 T00250023
K0VG 221935Z AUTO 08006KT 10SM CLR 14/05 A2988 RMK AO2
K11R 221935Z AUTO 21011KT 10SM CLR 20/14 A2965 RMK AO2 T02000140
K12N 221854Z AUTO 04004KT 01/00 A3023 RMK AO1 SLP247 T00060000
K14Y 221948Z AUTO 10009KT 7SM UP OVC005 00/00 A2954 RMK AO2
K19A 221935Z AUTO 08003KT 2SM BR OVC004 06/06 A2997 RMK AO2
K1A5 221935Z AUTO 00000KT 10SM 11/06 A2993 RMK AO2 T01080055
K1A6 221935Z AUTO 10005KT 10SM OVC095 14/06 A2985 RMK AO2 T01380058
K1A9 221935Z AUTO 07006KT 5SM RA OVC004 11/10 A2980 RMK AO2 P0007 T01050103
K1F0 221935Z AUTO 35006KT 10SM CLR 14/06 A2958 RMK AO2
K1H2 221935Z AUTO 11012G19KT 3SM -RA OVC005 08/06 A2968 RMK AO2 P0001 T00760061
K1II 221935Z AUTO 10SM OVC036 08/03 A2980 RMK AO2
K1K1 221935Z AUTO 32013G18KT 10SM BKN021 OVC027 09/04 A2953 RMK AO2 T00850043
K1L0 221935Z AUTO 23015KT 10SM SCT028 SCT038 SCT050 25/18 A2971 RMK AO2 T02510180
K1M4 221935Z AUTO 00000KT 2SM BR OVC003 09/09 A2979 RMK AO2 $
K1P1 221935Z AUTO 10003KT 10SM SCT036 OVC043 02/M01 A3033 RMK AO2 T00151011
K1V4 221854Z AUTO 01/M04 A3031 RMK AO1 SLP276 T00061039
K1V6 221935Z AUTO 00000KT 10SM SCT060 BKN075 OVC090 07/M02 A2964 RMK AO2
K1YT 221856Z AUTO 31002KT 10SM CLR 08/M01 A3029 RMK AO2 SLPNO T00761008
K20U 221935Z AUTO 32018G23KT 1 3/4SM -SN SCT004 SCT008 M04/M04 A2962 RMK AO2 P0030
K20V 221935Z AUTO 30013G19KT 3/4SM -SN OVC006 M01/M05 A2975 RMK AO2
K21D 221931Z AUTO 11006KT 2SM -RA OVC008 02/01 A2963 RMK AO2 P0001
K24J 221955Z AUTO 00000KT 1 1/4SM BKN002 BKN013 OVC025 18/18 A2989 RMK AO1
K28J 221935Z AUTO 18008KT 10SM OVC025 23/20 A2990 RMK AO2 LTG DSNT NE
K2C8 221935Z AUTO 05006KT OVC002 01/01 RMK AO2
K2D5 221935Z AUTO 08013KT 10SM 03/03 A2942 RMK AO2
K2DP 221946Z AUTO 33006KT 10SM -RA BKN003 BKN032 14/13 A2996 RMK AO2 CIG 003V034 BKN V SCT
K2G4 221940Z AUTO 14010KT 3SM BR BKN034 OVC044 M02/ A2999 RMK AO1
K2I0 221935Z AUTO 15008KT 10SM OVC019 12/09 A2974 RMK AO2 T01170085
K2J9 221935Z AUTO 15005KT 10SM BKN005 BKN055 19/17 A2987 RMK AO1
K2V5 221955Z AUTO 29012KT 10SM CLR 05/M02 A2963 RMK AO2 T00471024
K2W6 221942Z AUTO 00000KT 2 1/2SM OVC005 02/01 A3016 RMK AO1
K2WX 221856Z AUTO 33022G30KT 00/M02 A2947 RMK AO1 PK WND 31038/1819 SLP998 T00001017
K33V 221935Z AUTO 28015KT 10SM SCT034 BKN044 OVC065 M01/M07 A2969 RMK AO2
K36U 221935Z AUTO 26004KT 10SM UP SCT028 BKN049 OVC060 03/00 A2992 RMK AO2
K3D2 221935Z AUTO 15007G14KT 10SM BKN090 02/M01 A2985 RMK AO2 T00151015
K3I2 221935Z AUTO 07005KT 10SM CLR 14/03 A2993 RMK AO2
K3J7 221935Z AUTO 00000KT 3SM BR BKN006 OVC009 05/05 A2993 RMK AO2
K3K3 221935Z AUTO 33015G19KT 10SM CLR 10/M03 A2965 RMK AO2
K3LF 221935Z AUTO 14009G15KT 4SM -RA OVC004 06/05 A2961 RMK AO2 P0001 T00620053
K3N8 221935Z AUTO 13007KT 10SM OVC008 03/02 A2952 RMK AO2 T00280020
K3R7 221935Z AUTO 23011G19KT 10SM BKN031 BKN037 22/16 A2968 RMK AO2 T02220164
K3T5 221930Z AUTO 21007KT 10SM CLR 20/14 A2963 RMK AO2 T02030144
K40J 221935Z AUTO 04003KT 10SM OVC006 17/16 A2987 RMK AO2 T01650163
K42J 221935Z AUTO 19005KT 8SM BKN019 BKN025 22/22 A2989 RMK AO1 TSNO
K46D 221935Z AUTO 1/4SM FG OVC001 00/00 A2951 RMK AO2
K4A6 221935Z AUTO 00000KT 8SM OVC012 09/09 A2985 RMK AO2 P0001
K4A9 221935Z AUTO 12005KT 7SM OVC006 08/05 A2985 RMK AO2
K4BM 221934Z AUTO 34009G18KT 250V100 1 1/2SM -SN BKN006 OVC012 M07/M10 A2968 RMK AO2 VIS 1V2
K4I3 221936Z AUTO 12005KT 10SM CLR 07/02 A2992 RMK AO2
K4I7 221955Z AUTO 12006KT 7SM BKN020 OVC034 05/01 A2976 RMK AO2
K4M9 221935Z AUTO 18012KT 1SM BR CLR 10/10 A2960 RMK AO2
K4MR 221856Z AUTO 03010KT 10SM CLR 09/M04 A2976 RMK AO2 SLP053 T00881037
K4O4 221935Z AUTO 26005KT 10SM SCT027 BKN035 OVC041 16/11 A2954 RMK AO2
K54J 221935Z AUTO 10006KT 10SM SCT011 BKN030 OVC046 18/16 A2982 RMK AO2 T01750156
K5C1 221935Z AUTO 24010KT 10SM CLR 19/11 A2968 RMK AO1
K5H4 221935Z AUTO 01009KT 2SM BR OVC003 00/00 A2953 RMK AO2
K5M9 221935Z AUTO 14011KT 10SM -DZ OVC017 10/09 A2969 RMK AO2 T00950085
K5R8 221935Z AUTO 22009G16KT 10SM BKN029 OVC036 22/17 A2965 RMK AO2 T02200171
K5SM 221939Z AUTO OVC002 A2977 RMK AO2 PWINO
K5W8 221935Z AUTO 03009KT 3SM BR OVC003 03/02 A3004 RMK AO2 T00250023
K65S 221935Z AUTO 00000KT 10SM CLR 05/M01 A3010 RMK AO2
K66R 221935Z AUTO 21007KT 10SM CLR 20/15 A2966 RMK AO2 T01960148
K6B0 221935Z AUTO 00000KT 10SM OVC042 00/M03 A3028 RMK AO2 T10011035
K6I2 221935Z AUTO 10SM BKN110 13/05 A2980 RMK AO2
K6L4 221935Z AUTO 00000KT 10SM OVC049 12/04 A2991 RMK AO2
K6R3 221935Z AUTO 22008G17KT 10SM CLR 21/15 A2964 RMK AO2 T02060154
K6R6 221853Z AUTO 23021G26KT 25/M02 A2969 RMK AO1 PK WND 24028/1808 SLP031 T02501017 $
K79J 221856Z AUTO 12004KT 10SM OVC004 16/13 A2983 RMK AO2 SLP099 T01610128
K7BM 221934Z AUTO 31005G16KT 5SM -SN SCT001 BKN022 OVC034 M02/M09 A2968 RMK AO2
K7L2 221935Z AUTO 33011KT 5SM BR OVC004 M01/M01 A2947 RMK AO2
K7W4 221935Z AUTO 01003KT 2SM OVC004 01/00 A3012 RMK AO1 T00100004
K82V 221935Z AUTO 31016G20KT 10SM BKN110 01/M03 A2966 RMK AO2
K8A0 221935Z AUTO 10008KT 069V149 5SM BR OVC003 08/08 A2982 RMK AO2
K8D3 221856Z AUTO 14012KT 03/03 A2942 RMK AO1 SLP977 P0001 T00330033
K8S0 221915Z 32008KT
K8W2 221935Z AUTO 02005KT 2SM OVC007 00/M01 A3013 RMK AO1 T00001009
K96D 221935Z AUTO 05005KT 1 3/4SM BR 00/00 A2960 RMK AO2
K9D7 221935Z AUTO 03009KT 5SM BR OVC003 00/00 A2955 RMK AO2
K9L2 221855Z AUTO 11003KT 10SM CLR 11/07 A3014 RMK AO2 SLP213 T01110067 TSNO $
K9MN 221933Z AUTO 11008G17KT 5SM OVC010 02/01 A2960 RMK AO1 T00220012
K9V9 221935Z AUTO 30011KT 10SM OVC013 02/00 A2943 RMK AO2 T00170001
KAAA 221935Z AUTO 15010G16KT 5SM RA OVC006 07/06 A2963 RMK AO2 P0003 T00660060
KAAF 221931Z AUTO 08008KT 2 1/2SM BR OVC002 21/18 A2983 RMK AO2 VIS 1 3/4V3 T02060183 TSNO
KAAO 221934Z AUTO 32015KT 10SM SCT024 OVC030 09/04 A2954 RMK AO2 T00890039
KAAT 221931Z AUTO 32010KT 10SM FEW022 BKN030 OVC038 11/06 A3032 RMK AO2 T01110056
KABE 221851Z VRB03KT 9SM SCT023 OVC100 05/M01 A3022 RMK AO2 SLP235 T00501006
KABI 221852Z 34011KT 10SM CLR 19/03 A2969 RMK AO2 SLP041 T01890028
KABQ 221938Z 29018G27KT 10SM BKN070 BKN140 15/M01 A2977 RMK AO2 PK WND 29027/1929 WSHFT 1923 T01501011
KABR 221853Z AUTO 03004KT 5SM BR BKN005 OVC018 02/01 A2941 RMK AO2 SLP968 T00170006
KABY 221853Z 03004KT 10SM OVC004 12/11 A2993 RMK AO2 SLP135 T01220106
KACB 221935Z AUTO 15004KT 10SM CLR 03/M04 A2993 RMK AO2 T00281039
KACJ 221935Z AUTO 09006KT 3/4SM BR OVC003 10/10 A2991 RMK AO2
KACK 221853Z 10013KT 10SM FEW018 BKN035 09/03 A3030 RMK AO2 SLP259 T00890033
KACP 221935Z AUTO 21009G14KT 10SM OVC012 21/17 A2966 RMK AO2 T02130170
KACQ 221935Z AUTO 13014G19KT 4SM DZ OVC008 02/02 A2957 RMK AO2
KACT 221851Z 25016KT 10SM CLR 22/06 A2960 RMK AO2 SLP017 T02220056
KACV 221946Z AUTO 00000KT 1/4SM R32/2000V5000FT FG VV002 14/14 A3035 RMK AO2 T01390139
KACY 221854Z 08010KT 10SM FEW010 BKN047 OVC060 07/04 A3020 RMK AO2 SLP227 T00670039
KADC 221934Z AUTO 11010KT 7SM DZ OVC008 02/01 A2953 RMK AO2
KADF 221911Z AUTO 18007KT 6SM BR OVC010 13/13 A2960 RMK AO2
KADG 221853Z AUTO 12009KT 10SM FEW043 OVC100 03/M01 A2994 RMK AO2 SLP149 T00281011
KADH 221935Z AUTO 30009KT 260V320 10SM SCT020 SCT090 SCT120 13/09 A2956 RMK AO2
KADM 221855Z 34011G15KT 10SM SCT022 BKN120 15/09 A2957
KADS 221847Z 27010G18KT 13SM FEW250 18/06 A2958
KADU 221935Z AUTO 15007KT 7SM RA SCT007 05/02 A2944 RMK AO2 P0001
KADW 221925Z 02008KT 6SM -RA BR SCT007 OVC030 01/00 A3017 RMK AO2A RAB1908DZB1905E1908 SLP220
KAEG 221947Z 27020G27KT 10SM SCT060 BKN200 14/M02 A2977 RMK PRSFR
KAEJ 221935Z AUTO 33013KT 10SM SCT029 BKN050 OVC065 M01/M06 A2969 RMK AO2 T10101056
KAEL 221931Z AUTO 13012KT 1 1/4SM -SN OVC004 01/01 A2954 RMK AO2
KAEX 221937Z 19011KT 10SM BKN016 OVC020 19/16 A2963 RMK AO2 T01940161
KAFF 221858Z AUTO 16007KT 10SM FEW055 02/M06 A2966 RMK AO2 SLP051 T00231056
KAFK 221935Z AUTO 18003KT 7SM DZ SCT004 BKN009 OVC015 06/06 A2941 RMK AO2 P0002 T00630063
KAFN 221925Z AUTO 02004KT 10SM BKN012 OVC042 02/M02 A3029 RMK AO2 T00221017
KAFO 221935Z AUTO 31016KT 10SM SCT037 SCT047 OVC090 00/M05 A2990 RMK AO2
KAFP 221935Z AUTO 36004KT 3SM BR OVC004 05/04 A3005 RMK AO2 T00460040
KAFW 221853Z 29010KT 10SM FEW030 SCT250 15/07 A2960 RMK AO2 SLP022 T01500067 $
KAGC 221853Z 10005KT 9SM CLR 08/M02 A3001 RMK AO2 SLP178 T00831017
KAGS 221853Z 08004KT 3SM -RA BR OVC007 08/07 A2998 RMK AO2 CIG 004V012 SLP152 P0002 T00830072
KAHN 221927Z 08008KT 3SM BR OVC005 06/06 A2996 RMK AO2 T00610056
KAHQ 221935Z AUTO 31010KT 10SM OVC017 06/04 A2941 RMK AO2 T00610038
KAIA 221853Z AUTO 31020G26KT 10SM CLR 04/M04 A2957 RMK AO2 PK WND 31028/1811 SLP023 T00441044
KAIB 221935Z AUTO 36004KT 10SM SCT007 SCT015 OVC021 05/02 A2986 RMK AO2
KAID 221759Z 11010KT 10SM OVC012 04/00 A2988
KAIG 221935Z AUTO 12010KT 1SM BR OVC003 00/00 A2975 RMK AO2 T00000000
KAIK 221935Z AUTO 03006KT 2 1/2SM +RA OVC005 07/07 A3002 RMK AO2 LTG DSNT SE PNO
KAIO 221935Z AUTO 14007KT 5SM -UP BKN007 BKN010 OVC014 05/05 A2943 RMK AO2
KAIT 221934Z AUTO 11006KT 4SM UP OVC008 03/00 A2959 RMK AO2
KAIZ 221935Z AUTO 16008KT 10SM BKN009 OVC015 09/07 A2951 RMK AO1 P0001
KAJG 221935Z AUTO 13013KT 10SM -RA OVC018 10/07 A2971 RMK AO2
KAJO 221856Z AUTO 00000KT 10SM CLR 18/12 A3004 RMK AO2 T01830116 SLP170 $
KAJZ 221935Z AUTO 28013KT 4SM HZ SCT019 BKN034 OVC070 06/03 A2978 RMK AO2 T00550028
KAKH 221913Z AUTO 02008KT 1 1/2SM BR OVC003 04/02 A3003 RMK AO2 T00390022
KAKO 221853Z AUTO 29010KT 10SM BKN110 02/M04 A2966 RMK AO2 SLP055 T00171039
KAKQ 221933Z AUTO 36006KT 5SM BR OVC004 06/04 A3009 RMK AO2 T00560039 TSNO $
KAKR 221854Z AUTO 13005KT 9SM CLR 07/00 A2998 RMK AO2 SLP160 T00670000
KALB 221851Z 00000KT 10SM -SN SCT019 BKN037 OVC042 01/M03 A3028 RMK AO2 SNB08E13B40 SLP257 PCPN VRY LGT P0000 T00111033
KALI 221853Z AUTO 21008KT 10SM CLR 22/14 A2971 RMK AO2 SLP057 T02170144
KALK 221856Z AUTO 28011KT 10SM CLR 16/01 A3005 RMK AO2 SLP119 T01610006 TSNO
KALM 221935Z AUTO 13007KT 10SM CLR 16/02 A2982 RMK AO2
KALN 221850Z 13008KT 5SM DZ OVC004 07/07 A2961
KALO 221854Z AUTO 12012KT 3SM -RA BR OVC007 03/02 A2958 RMK AO2 SLP024 P0002 T00280022
KALS 221949Z AUTO 02009KT 2SM -SN BR SCT007 BKN014 OVC040 00/M02 A2966 RMK AO2 SNB19 P0001
KALW 221853Z 20005KT 10SM CLR 10/03 A3029 RMK AO2 SLP261 T01000033
KALX 221935Z AUTO 00000KT 3SM +RA OVC003 12/10 A2987 RMK AO2 LTG DSNT SW AND W P0005 T01230101
KAMA 221853Z 36011KT 10SM OVC075 10/M03 A2973 RMK AO2 SLP049 T01001033
KAMG 221945Z AUTO 11004KT 10SM BKN005 OVC009 12/11 A2990 RMK AO2 T01170111
KAMN 221933Z AUTO 11006KT 10SM OVC100 03/M02 A2994 RMK AO2 T00251021
KAMW 221915Z AUTO 13010KT 3SM -RA BR OVC006 04/02 A2951 RMK AO2 P0000 T00390022
KANB 221853Z AUTO 10009KT 10SM OVC007 11/08 A2987 RMK AO2 SLP118 T01110083
KAND 221856Z AUTO 07010KT 10SM OVC007 06/04 A3000 RMK AO2 RAB06E21 SLP159 P0000 T00560044
KANE 221845Z 11009KT 2 1/2SM -RA OVC009 03/03 A2960
KANJ 221934Z AUTO 13012KT 9SM BKN017 01/M02 A2997 RMK AO2 PRESFR T00111022
KANK 221935Z AUTO 31004KT 10SM BKN055 BKN065 OVC085 01/M02 A2976 RMK AO1 T00071016
KANQ 221955Z AUTO 12008KT 10SM CLR 02/M01 A2986 RMK
KANW 221935Z AUTO 31018G22KT 10SM OVC043 03/00 A2948 RMK AO2 T00261005
KAOH 221853Z AUTO 11006KT 7SM BKN100 BKN120 07/01 A2990 RMK AO2 SLP131 T00670011
KAOO 221853Z AUTO 17006KT 7SM OVC023 00/M04 A3014 RMK AO2 SLP226 T00001044
KAPA 221853Z 00000KT 10SM SCT050 BKN065 OVC090 01/M02 A2967 RMK AO2 SLP063 VIRGA VC S-W SHSN DSNT SW-NW T00061022
KAPC 221946Z 00000KT 10SM FEW004 OVC010 14/13 A3026 RMK AO2 T01440133
KAPF 221853Z 18010G18KT 10SM FEW024 SCT100 27/21 A2994 RMK AO2 SLP138 T02670206
KAPG 221850Z 04005KT 7SM OVC040 04/M03 A3021
KAPN 221854Z AUTO 14011KT 10SM OVC021 01/M03 A3002 RMK AO2 SLP174 T00111028
KAPY 221935Z AUTO 00000KT 10SM CLR 22/12 A2969 RMK AO2 T02200130
KAQO 221935Z AUTO 31009G18KT 10SM CLR 23/06 A2966 RMK AO2
KAQP 221934Z AUTO 12012KT 7SM DZ OVC006 04/03 A2946 RMK AO2 P0001
KAQR 221935Z AUTO 34006KT 10SM BKN025 BKN120 14/07 A2956 RMK AO2
KAQV 221933Z AUTO VRB06KT 10SM OVC015 19/16 A2961 RMK AO2 T01940161
KAQW 221852Z AUTO 09010KT 10SM OVC041 03/M01 A3027 RMK AO2 SLP257 T00281011
KAQX 221935Z AUTO 00000KT 10SM OVC005 08/08 A2996 RMK AO2 LTG DSNT E AND SE
KARA 221853Z 23014G21KT 10SM FEW018 24/18 A2971 RMK AO2 SLP061 T02390183
KARB 221853Z 13008KT 10SM CLR 03/M01 A2997 RMK AO2 SLP156 T00331011
KARG 221935Z AUTO 18013KT 5SM OVC004 11/09 A2959 RMK AO1 P0001
KARM 221935Z AUTO 22014G17KT 10SM SCT019 23/18 A2967 RMK AO2 T02300176
KARR 221939Z 10011KT 1 3/4SM -RA BR BKN010 OVC017 03/01 A2971 RMK AO2 P0002 T00280006
KART 221856Z AUTO 36006KT 10SM BKN027 03/M03 A3019 RMK AO2 SLP230 T00331033
KARV 221935Z AUTO 14008KT 1 3/4SM BR OVC003 01/00 A2974 RMK AO2 T00110003
KARW 221955Z AUTO 04005KT 7SM -RA OVC004 09/09 A2996 RMK AO2 LTG DSNT NE THRU SW
KASD 221853Z AUTO 19007KT 10SM FEW012 SCT020 BKN028 22/18 A2974 RMK AO2 SLP071 T02220183
KASE 221936Z 35010G16KT 5SM HZ BKN024 BKN029 M01/M06 A2975 RMK AO2 T10111061
KASG 221948Z 23005KT 1 SM OVC005 09/09 A2953
KASH 221851Z 00000KT 10SM -RA OVC018 03/00 A3035 RMK AO2 T00330000 RAB46 P0000 SLP536
KASJ 221935Z AUTO 34005KT 3SM +DZ OVC003 06/06 A3006 RMK AO2 P0001 T00610055
KASL 221935Z AUTO 20009G14KT 10SM SCT021 SCT029 BKN035 20/15 A2957 RMK AO1 T02020151
KASN 221935Z AUTO 07005KT 10SM OVC013 13/10 A2984 RMK AO2 LTG DSNT S T01330098
KAST 221855Z AUTO 13004KT 9SM FEW030 BKN120 09/08 A3037 RMK AO2 SLP283 T00940083
KASW 221935Z AUTO 12008KT 5SM DZ OVC009 02/00 A2984 RMK AO2
KASX 221853Z AUTO VRB04KT 8SM OVC011 03/01 A2971 RMK AO2 SLP071 T00280006
KATL 221852Z 10009KT 1/2SM -DZ BR OVC003 08/07 A2993 RMK AO2 SFC VIS 1 1/2 SLP139 P0000 T00780067
KATP 221935Z AUTO VRB03G12KT 10SM SCT019 SCT032 BKN039 25/21 A2981 RMK A01
KATS 221935Z AUTO 24012KT 10SM CLR 18/M00 A2972 RMK AO2
KATT 221851Z AUTO VRB06KT 10SM CLR 23/10 A2965 RMK AO2 SLP034 T02330100
KATW 221845Z 13010KT 4SM BR BKN010 OVC025 02/01 A2981
KATY 221934Z AUTO 16008KT 10SM UP OVC005 03/02 A2938 RMK AO2 RAE1854B20E33UPB33 CIG 004V008 P0001 T00280022
KAUG 221853Z AUTO 00000KT 10SM SCT050 02/M03 A3038 RMK AO2 SLP292 T00171028
KAUH 221935Z AUTO 33020G24KT 10SM BKN030 BKN034 OVC040 08/01 A2945 RMK AO2 T00750011
KAUM 221936Z AUTO 13012G16KT 2SM -RA OVC007 02/01 A2956 RMK AO2 P0001
KAUN 221935Z AUTO 30006KT 10SM CLR 16/11 A3024 RMK AO1
KAUO 221935Z AUTO 07008KT 1 1/4SM OVC002 09/07 A2988 RMK AO1 LTG DSNT SW
KAUS 221853Z 20013KT 10SM SCT100 BKN250 19/12 A2965 RMK AO2 SLP035 T01890122
KAUW 221854Z AUTO 13007KT 4SM BR OVC008 02/00 A2974 RMK AO2 SLP086 T00170000
KAVC 221936Z AUTO 02006KT 4SM OVC004 03/02 A3013 RMK AO2 T00260020
KAVK 221935Z AUTO 33018G26KT 10SM SCT042 SCT050 12/02 A2959 RMK AO2
KAVL 221945Z 18008KT 2SM BR OVC010 06/04 A2997 RMK AO2 T00610044
KAVP 221854Z AUTO 16008KT 120V200 10SM SCT024 04/M02 A3017 RMK AO2 SLP225 T00441022
KAVX 221851Z AUTO 32007KT 10SM CLR 19/06 A3007 RMK AO2 SLP169 T01890061
KAWG 221935Z AUTO 13011KT 3SM BR OVC005 04/04 A2956 RMK AO2
KAWM 221933Z AUTO 17014KT 10SM SCT016 BKN055 OVC075 15/12 A2962 RMK AO2 T01500122
KAWO 221935Z AUTO 00000KT 10SM OVC040 07/05 A3038 RMK AO1
KAXA 221935Z AUTO 13012KT 2 1/2SM BR OVC004 03/03 A2949 RMK AO2
KAXH 221935Z AUTO 22008G15KT 10SM CLR 18/11 A2967 RMK AO2 T01750112
KAXN 221918Z AUTO 13012KT 7SM OVC005 02/01 A2951 RMK AO2 T00170006
KAXS 221935Z AUTO 35012KT 10SM CLR 15/00 A2966 RMK AO2 T01480002
KAXV 221933Z AUTO 13007KT 10SM CLR 06/02 A2988 RMK AO2
KAXX 221935Z AUTO 27016G22KT 10SM OVC034 02/M03 A2967 RMK AO2 T00231033
KAYS 221935Z AUTO 12006KT 5SM RA OVC004 13/13 A2992 RMK AO2 T01310130
KAZC 221935Z AUTO 27007KT 10SM CLR 13/03 A3004 RMK AO2 T01340033
KAZE 221935Z AUTO 03003KT 10SM OVC002 11/11 A2990 RMK AO2 T01140114
KAZO 221853Z 12008KT 7SM BKN055 OVC070 03/M02 A2988 RMK AO2 SLP127 T00281022
KBAB 221918Z 31008KT 10SM OVC006 13/13 A3025 RMK $
KBAC 221935Z AUTO 06006KT M1/4SM -RA OVC002 02/02 A2947 RMK AO2
KBAF 221853Z 01007KT 10SM SCT017 OVC047 04/01 A3028 RMK AO2 SLP259 T00390006
KBAK 221850Z 16010KT 10SM BKN037 BKN110 09/05 A2982
KBAN 221852Z AUTO 00000KT CLR 09/M03 A3032 RMK AO2 SLP254 T00891033 $
KBAX 221935Z AUTO 10006KT 10SM SCT016 01/M02 A2999 RMK AO2 T00051020
KBAZ 221851Z 22009KT 10SM CLR 20/12 A2967 RMK AO2 SLP040 T02000122
KBBB 221934Z AUTO 15011G17KT 4SM UP OVC005 03/02 A2948 RMK AO2
KBBD 221935Z AUTO 31018KT 10SM CLR 22/03 A2964 RMK
KBBF 221935Z AUTO 24015KT 6SM HZ SCT013 22/18 A2970 RMK A01
KBBG 221945Z 16008KT 10SM BKN009 BKN014 OVC018 09/08 A2952
KBBP 221935Z AUTO 04004KT 4SM BR OVC005 07/07 A3003 RMK AO2
KBBW 221853Z AUTO 33024G36KT 10SM SCT046 07/M01 A2948 RMK AO2 PK WND 34036/1847 SLP992 T00721011
KBCB 221935Z AUTO 08006KT 1 3/4SM BR OVC003 01/00 A3006 RMK AO2 T00090001
KBCE 221919Z AUTO 29013G20KT 10SM -RA BKN032 OVC046 04/01 A2998 RMK AO2 P0001 T00440011
KBCK 221935Z AUTO 11008KT 7SM BKN016 OVC026 04/00 A2968 RMK AO2 T00420002
KBCT 221850Z 17013KT 10SM FEW120 27/20 A2996
KBDE 221853Z AUTO 11008KT 10SM OVC006 02/01 A2960 RMK AO2 SLP039 T00170006 TSNO
KBDG 221935Z AUTO 00000KT 10SM SCT033 BKN041 OVC055 05/04 A2992 RMK AO1 T00530040
KBDH 221935Z AUTO 12013KT 3SM -RA OVC006 03/02 A2951 RMK AO2
KBDL 221851Z 01005KT 10SM FEW020 BKN049 BKN200 05/01 A3027 RMK AO2 SLP252 T00500006
KBDN 221935Z AUTO 14003KT 10SM BKN021 OVC025 06/03 A3033 RMK AO2
KBDR 221940Z 07010KT 10SM BKN013 OVC020 07/03 A3024 RMK AO2 T00670028
KBDU 221935Z AUTO 09004KT 7SM -SN SCT018 BKN029 OVC050 02/M02 A2970 RMK AO2
KBEA 221935Z AUTO 19008KT 10SM CLR 21/15 A2968 RMK AO2 T02130152
KBED 221856Z 01006KT 8SM OVC014 04/02 A3032 RMK AO2 RAB13E25 SLP282 P0000 T00440017
KBEH 221853Z AUTO 11011KT 3SM UP BR SCT047 BKN060 OVC080 01/M01 A2983 RMK AO2 UPB1755 SLP108 P0000 T00111011
KBFD 221853Z AUTO 13007KT 9SM BKN031 00/M04 A3004 RMK AO2 SLP197 T00001044
KBFF 221853Z AUTO 31019G28KT 10SM CLR 04/M04 A2963 RMK AO2 PK WND 32030/1833 SLP042 T00441044
KBFI 221853Z COR 00000KT 10SM SCT031 BKN150 10/04 A3037 RMK AO2 SLP284 T01000039
KBFL 221854Z 33010KT 10SM OVC019 16/12 A3025 RMK AO2 SLP240 T01610117
KBFM 221853Z 17008KT 10SM BKN017 20/17 A2978 RMK AO2 SLP085 T02000172
KBFW 221934Z AUTO 05003KT 1SM -DZ OVC001 02/01 A2968 RMK AO2
KBGD 221851Z AUTO 35014KT 10SM OVC075 10/M04 A2970 RMK AO2 SLP049 T01001039
KBGE 221935Z AUTO 02007KT 10SM OVC004 16/15 A2987 RMK AO2
KBGF 221935Z AUTO 12008KT 10SM OVC012 09/08 A2982 RMK
KBGM 221853Z 15009KT 10SM SCT016 01/M03 A3013 RMK AO2 SLP222 T00111028
KBGR 221853Z 00000KT 10SM BKN050 02/M03 A3040 RMK AO2 SLP296 T00171028
KBHB 221935Z AUTO 04003KT 10SM FEW029 OVC042 03/01 A3040 RMK AO1
KBHC 221935Z AUTO 08005KT 10SM VCTS BKN002 OVC016 14/13 A2988 RMK AO2
KBHK 221918Z AUTO 33023G33KT 1SM -SN BR BKN012 OVC018 M02/M03 A2961 RMK AO2 PK WND 34033/1916 P0000 T10221033
KBHM 221945Z 12006KT 7SM -RA BKN009 OVC017 12/11 A2982 RMK AO2 RAB41 CIG 008V012 P0000 T01220106
KBID 221935Z AUTO 07008G14KT 10SM SCT012 OVC047 07/03 A3027 RMK AO1
KBIE 221935Z AUTO 32010G15KT 10SM OVC023 07/05 A2943 RMK AO2 T00650047
KBIF 221858Z VRB06KT 10SM FEW250 17/00 A2985 RMK AO2A SLP067 T01710002 $
KBIH 221856Z AUTO 29013KT 10SM CLR 21/M04 A3019 RMK AO2 SLP193 T02111044
KBIJ 221935Z AUTO 07006KT 1 3/4SM BR OVC003 13/13 A2987 RMK AO2 LTG DSNT W
KBIL 221853Z 29018G23KT 10SM SCT090 SCT110 BKN150 04/M04 A2981 RMK AO2 PK WND 29026/1840 SLP110 SHSN DSNT SE-SW T00391044
KBIS 221852Z 34009KT 9SM OVC009 M01/M02 A2951 RMK AO2 SLP011 T10111022
KBIV 221853Z AUTO 11011KT 9SM BKN047 OVC055 03/M02 A2987 RMK AO2 SLP122 T00281022
KBIX 221941Z AUTO 20007KT 8SM OVC005 19/19 A2975 RMK AO2 RAB1906E1915
KBJC 221904Z 04007KT 30SM VCSH SCT020 BKN040 OVC080 03/00 A2968 RMK VIS LWR N-E
KBJI 221934Z AUTO 13009KT 5SM BR OVC004 02/01 A2956 RMK AO2 T00160012
KBJJ 221856Z AUTO 14006KT 7SM CLR 04/00 A2998 RMK AO2 SLP163 T00390000 TSNO
KBKB 221941Z AUTO 22007KT 170V250 10SM BKN016 BKN022 22/16 A2961 RMK AO2 T02220161 $
KBKD 221935Z AUTO 33006KT 5SM HZ CLR 18/03 A2967 RMK AO2 T01770030
KBKE 221853Z AUTO 30017KT 10SM FEW041 FEW047 06/M01 A3023 RMK AO2 SLP252 T00611006 TSNO
KBKF 221858Z 11007KT 10SM BKN070 OVC120 02/M04 A2968 RMK AO2A SLP051 T00151044
KBKL 221853Z 12006KT 10SM SCT048 06/M01 A2998 RMK AO2 SLP156 T00611011
KBKN 221935Z AUTO 33013G22KT 10SM SCT027 12/06 A2955 RMK AO2
KBKS 221935Z AUTO 18004KT 10SM CLR 22/15 A2969 RMK AO1 T02220150
KBKT 221935Z AUTO 01005KT 4SM OVC005 02/02 A3009 RMK AO1 T00200015
KBKV 221853Z 18010KT 9SM SCT017 BKN024 BKN038 25/21 A2992 RMK AO2 SLP130 T02500206
KBKW 221851Z AUTO 12006KT 10SM OVC012 05/01 A2997 RMK AO2 SLP165 T00500011
KBLF 221852Z AUTO VRB04KT 10SM OVC007 05/01 A2997 RMK AO2 SLP154 T00500011
KBLH 221852Z AUTO 00000KT 10SM CLR 16/07 A3003 RMK AO2 SLP166 T01610067
KBLI 221853Z 00000KT 10SM CLR 08/04 A3035 RMK AO2 SLP284 T00830039
KBLM 221935Z AUTO 34006KT 9SM BKN027 OVC036 06/01 A3022 RMK AO1
KBLU 221852Z AUTO 01003KT 10SM CLR 12/01 A3034 RMK AO2 SLP238 T01170011
KBLV 221949Z AUTO 13007KT 4SM -RA BR OVC007 09/09 A2960 RMK AO2
KBMC 221935Z AUTO 32011G18KT 10SM OVC037 06/00 A3001 RMK AO1 T00581003
KBMG 221853Z 14006KT 10SM OVC021 07/03 A2979 RMK AO2 SLP091 T00670033
KBMI 221913Z 13015KT 2SM -RA BR OVC002 04/04 A2966 RMK AO2 P0002
KBML 221852Z AUTO 00000KT 10SM OVC033 01/M04 A3030 RMK AO2 SLP280 T00061044
KBMQ 221853Z AUTO 26009G15KT 10SM CLR 19/07 A2967 RMK AO2 SLP038 T01940067 TSNO
KBMT 221935Z AUTO 23009G18KT 10SM SCT024 21/17 A2966 RMK AO2 T02110169
KBNA 221853Z 18012KT 10SM OVC017 12/08 A2980 RMK AO2 SLP092 T01220083
KBNL 221955Z AUTO 00000KT OVC005 08/08 A2999 RMK AO2
KBNO 221853Z AUTO 29016KT 10SM FEW035 07/01 A3026 RMK AO2 PK WND 28028/1836 SLP252 T00720011
KBNW 221935Z AUTO 13012KT 2 1/2SM -UP OVC005 04/04 A2947 RMK AO2
KBOI 221903Z 30011KT 10SM SCT055 07/03 A3017 RMK AO2
KBOK 221927Z AUTO 29004KT M1/4SM FG OVC001 14/14 A3037 RMK AO2 CIG 001V004
KBOS 221927Z 04008KT 10SM FEW014 SCT025 BKN034 BKN200 06/04 A3033 RMK AO2 RAB1858E23 P0001
KBOW 221847Z 20008KT 10SM BKN028 26/19 A2994
KBPC 221935Z AUTO 34016G20KT 10SM SCT120 10/M03 A2969 RMK AO2
KBPG 221935Z AUTO 36005KT 10SM CLR 17/00 A2973 RMK AO2 T01670004
KBPI 221946Z AUTO 34017G24KT 3SM -SN FEW010 BKN024 BKN041 M02/M06 A2984 RMK AO2 PK WND 36034/1929 UPE06B27E28SNB28 P0000 T10171061
KBPK 221853Z AUTO 18008KT 7SM BKN008 OVC012 09/09 A2956 RMK AO2 CIG 004V010 SLP008 T00940089
KBPT 221853Z 22013G22KT 10SM -RA SCT021 SCT028 OVC035 22/17 A2968 RMK AO2 SLP049 P0000 T02220172
KBQK 221935Z AUTO 05005KT 1 3/4SM TS OVC002 12/12 A2994 RMK AO1 LTG DSNT SE AND SW
KBQP 221935Z AUTO 15004KT 3SM BR OVC002 15/14 A2964 RMK AO2 T01450136
KBRD 221853Z AUTO 13009KT 4SM -RA BR OVC009 02/01 A2958 RMK AO2 RAE1754B27 CIG 007V013 SLP030 P0000 T00170011
KBRL 221940Z AUTO 14008KT 3SM BR OVC004 04/04 A2957 RMK AO2 RAE06 P0000 T00390039
KBRO 221853Z 21016G23KT 10SM CLR 24/17 A2972 RMK AO2 PK WND 20026/1805 SLP064 T02440172
KBTA 221935Z AUTO 16005KT 7SM -RA OVC004 06/05 A2940 RMK AO2 P0001 T00610051
KBTL 221853Z 11008KT 9SM SCT038 OVC050 03/M02 A2989 RMK AO2 SLP131 T00331022
KBTM 221853Z AUTO 32005KT 10SM SCT060 M02/M06 A2994 RMK AO2 SLP169 T10171056
KBTP 221935Z AUTO 10008KT 10SM CLR 04/M02 A3003 RMK AO1
KBTR 221900Z 18010KT 10SM BKN011 22/18 A2970 RMK AO2 T02220178
KBTV 221854Z 33004KT 5SM BR OVC040 M03/M06 A3031 RMK AO2 SLP269 T10281061
KBUF 221854Z 00000KT 10SM FEW050 FEW150 FEW200 SCT240 04/M03 A3008 RMK AO2 SLP195 T00441033
KBUR 221853Z 00000KT 10SM CLR 21/09 A3004 RMK AO2 SLP162 T02110089
KBUU 221935Z AUTO 08009KT 2 1/2SM UP BKN007 OVC023 01/00 A2974 RMK AO2 P0001 T00070002
KBUY 221922Z AUTO 01007KT 3SM BR OVC004 02/01 A3006 RMK AO2 T00220011
KBVE 221851Z AUTO 20012KT 10SM SCT045 22/19 A2978 RMK AO2 SLP083 T02220194
KBVI 221847Z 11005KT 10SM CLR 05/M01 A3001
KBVN 221935Z AUTO 31017G22KT 10SM OVC023 06/01 A2943 RMK AO2 T00550012
KBVO 221941Z AUTO 28005KT 9SM SCT014 BKN020 OVC038 11/09 A2953 RMK AO2 T01060089
KBVS 221935Z AUTO 00000KT 9SM CLR 08/07 A3037 RMK A01 P000
KBVU 221935Z AUTO 00000KT 10SM CLR 17/06 A3003 RMK AO2
KBVX 221935Z AUTO 17006KT 7SM OVC006 11/09 A2959 RMK AO1
KBVY 221924Z 01005KT 8SM BKN005 BKN022 OVC030 05/03 A3033 RMK AO2 T00500033
KBWD 221935Z AUTO 33013G19KT 10SM CLR 18/04 A2965 RMK AO2
KBWG 221853Z AUTO 16009KT 10SM OVC023 13/07 A2980 RMK AO2 SLP092 T01280067
KBWI 221936Z 07004KT 2 1/2SM -RA OVC042 02/M01 A3019 RMK AO2 P0001
KBWP 221935Z AUTO 12009KT 3SM OVC005 02/01 A2948 RMK AO1
KBXA 221935Z AUTO 20006KT 10SM 22/18 A2973 RMK AO2 T02220179
KBXK 221935Z AUTO 19003KT 9SM CLR 15/08 A3000 RMK AO1
KBYG 221853Z AUTO 34026G36KT 10SM FEW039 SCT090 02/M07 A2972 RMK AO2 PK WND 33038/1805 SLP078 T00221072
KBYH 221853Z 17014G21KT 10SM OVC012 13/11 A2965
KBYI 221936Z AUTO 28019G30KT 10SM SCT018 BKN025 06/01 A3002 RMK AO2 PK WND 27033/1915 T00610011
KBYS 221855Z AUTO 28005KT 10SM CLR 16/05 A3010 RMK AO2 SLP193 T01570054 $
KBYY 221935Z AUTO 22014G19KT 10SM 23/18 A2968 RMK AO2 T02310181
KBZN 221856Z 09007KT 10SM OVC070 01/M04 A2992 RMK AO2 SLP156 T00111039
KC09 221935Z AUTO 12011KT 2SM -RA OVC005 03/03 A2970 RMK AO2 T00280027
KC29 221930Z AUTO 11009KT 1 3/4SM OVC007 02/01 A2971 RMK AO1 T00190011
KC35 221935Z AUTO 11006KT 7SM OVC015 02/00 A2970 RMK AO2 T00200000
KC75 221935Z AUTO 13013G18KT 4SM -RA OVC006 03/03 A2963 RMK AO2 P0001 T00330025
KCAD 221935Z AUTO 11009G15KT 10SM OVC100 00/M04 A2988 RMK AO2 T00001041
KCAE 221856Z 02005KT 9SM OVC005 07/06 A3001 RMK AO2 RAE48 SLP161 P0003 T00720061
KCAG 221853Z AUTO 29013KT 9SM BKN034 BKN050 OVC100 02/M02 A2979 RMK AO2 SNB23E47 SLP096 P0000 T00171022
KCAK 221851Z 17006KT 7SM FEW150 BKN250 06/00 A2999 RMK AO2 SLP167 T00610000
KCAO 221941Z AUTO 33012G15KT 4SM -SN OVC028 03/M03 A2971 RMK AO2 SNB36 P0000 T00331028
KCAR 221925Z AUTO 18003KT 10SM OVC010 M03/M05 A3037 RMK AO2 T10331050
KCAV 221935Z AUTO 13015G20KT 2SM -UP OVC006 03/03 A2950 RMK AO2
KCBE 221942Z AUTO 00000KT 7SM SCT008 SCT014 BKN029 01/M02 A3018 RMK AO1
KCBF 221935Z AUTO 15008KT 5SM -UP OVC005 05/05 A2940 RMK AO2
KCBG 221935Z AUTO 11006KT 2SM RA OVC006 03/M01 A2959 RMK AO2 P0002
KCBK 221935Z AUTO 32021G27KT 10SM CLR 08/M01 A2960 RMK AO2
KCBM 221858Z AUTO 15008KT 10SM OVC004 12/12 A2977 RMK AO2 SLP084 T01230123 $
KCCA 221935Z AUTO 14008KT 2SM BR OVC007 11/10 A2958 RMK AO2
KCCO 221935Z AUTO 10008KT 5SM BR OVC002 08/08 A2989 RMK AO2 T00840084
KCCR 221853Z 00000KT 10SM OVC009 16/12 A3030 RMK AO2 SLP245 T01560122
KCCU 221935Z AUTO 28037G46KT BKN002 BKN008 M10/M13 A2964 RMK AO2 PWINO
KCCY 221935Z AUTO 12010KT 2 1/2SM -SN OVC006 02/02 A2957 RMK AO2
KCDA 221935Z AUTO 06004KT 10SM SCT026 OVC032 00/M04 A3030 RMK AO2 T10041043
KCDC 221853Z AUTO 28012G17KT 10SM BKN080 12/00 A3000 RMK AO2 SLP131 T01170000
KCDD 221928Z AUTO 00000KT 10SM DZ OVC011 01/01 A2968 RMK AO2
KCDH 221935Z AUTO 9SM OVC014 15/11 A2960 RMK AO2
KCDJ 221852Z AUTO 12005KT 06/05 A2951 RMK AO1 SLP999 P0003 T00610050
KCDN 221955Z AUTO 05006KT 1 1/2SM BR OVC003 05/05 A3001 RMK AO2 TSNO
KCDR 221853Z AUTO 32020G36KT 10SM CLR 05/M04 A2959 RMK AO2 PK WND 32036/1849 SLP038 T00501044
KCDS 221853Z AUTO 34015KT 10SM BKN100 14/M01 A2970 RMK AO2 SLP051 T01391011
KCDW 221853Z 06006KT 9SM OVC013 04/M01 A3022 RMK AO2 PRESFR SLP241 T00441006
KCEC 221935Z AUTO 00000KT 3SM BR OVC002 14/14 A3036 RMK AO2 T01390139
KCEF 221858Z 10008KT 10SM SCT022 BKN047 06/01 A3027 RMK AO2A SLP259 WND DATA ESTMD ALSTG/SLP ESTMD RVRNO $
KCEU 221854Z AUTO 09005KT 9SM OVC007 07/04 A3000 RMK AO2 SLP161 T00720044
KCEW 221943Z AUTO VRB05KT 10SM FEW010 BKN029 OVC048 20/17 A2981 RMK AO2 T02000167
KCEY 221935Z AUTO 15007G16KT 110V180 10SM OVC018 12/09 A2969 RMK AO1
KCEZ 221853Z AUTO 28011KT 8SM -RA BKN037 BKN046 OVC055 04/02 A2986 RMK AO2 RAE02B39 SLP099 P0001 T00440017
KCFD 221935Z AUTO 23009G16KT 10SM CLR 22/13 A2963 RMK AO2 T02180128
KCFE 221934Z AUTO 10006KT 3SM -RA OVC007 02/00 A2958 RMK AO2 P0001 T00150003
KCFS 221935Z AUTO 11005KT 10SM CLR 04/M03 A2996 RMK AO2 T00391028
KCFV 221938Z AUTO 26007KT 10SM OVC014 10/09 A2950 RMK AO2 T01000089
KCGC 221935Z AUTO 15003KT 10SM BKN022 BKN029 25/20 A2989 RMK AO2 LTG DSNT N
KCGE 221941Z AUTO 01006KT 4SM OVC034 04/02 A3015 RMK AO1
KCGF 221845Z 16010KT 10SM SCT085 BKN120 06/00 A3000
KCGI 221935Z 15011KT 3SM -RA BR OVC004 10/09 A2963 RMK AO2 RAB35 P0000 T01000094
KCGS 221940Z AUTO 01004KT 4SM SCT009 BKN031 OVC042 02/00 A3018 RMK AO1
KCGZ 221935Z AUTO 10SM CLR 15/05 A2998 RMK AO1
KCHA 221853Z 20006KT 10SM BKN012 OVC020 10/07 A2989 RMK AO2 SLP123 T01000067
KCHD 221847Z 00000KT 25SM SKC 14/06 A3003
KCHK 221935Z AUTO 35014G19KT 10SM CLR 15/06 A2957 RMK AO2
KCHO 221915Z 36004KT 1 3/4SM BR BKN006 OVC016 01/M01 A3014 RMK AO2 T00061006
KCHS 221930Z 34007KT 2SM TSRA BR BKN004 OVC010CB 08/08 A3000 RMK AO2 SFC VIS 3 TSB29 OCNL LTGIC OHD TS OHD MOV NE P0017
KCIC 221947Z 34008KT 40SM SCT006 13/13 A3027
KCID 221914Z 11010KT 2SM -RA BR OVC004 03/03 A2957 RMK AO2 P0001 T00280028
KCIN 221935Z AUTO 14011KT 9SM OVC007 05/05 A2944 RMK AO2
KCIR 221935Z AUTO 13008KT 5SM BR OVC008 12/12 A2964 RMK AO2 T01170117
KCIU 221935Z AUTO 13015G20KT 10SM FEW016 01/M01 A2997 RMK AO1
KCJR 221937Z AUTO 36004KT 1 1/4SM DZ OVC004 02/01 A3016 RMK AO2 P0002
KCKB 221853Z 09005KT 10SM SCT050 OVC060 11/02 A2998 RMK AO2 SLP155 T01060022
KCKC 221934Z AUTO 00000KT M1/4SM DZ OVC002 M01/M02 A2971 RMK AO2
KCKF 221935Z AUTO 10005KT 3SM BR OVC005 12/11 A2993 RMK AO2 T01150106
KCKI 221935Z AUTO 00000KT 7SM +RA 07/07 A2997 RMK AO2 P0010
KCKM 221935Z AUTO 15014G20KT 9SM SCT014 BKN060 OVC075 15/13 A2965 RMK AO1
KCKN 221935Z AUTO 09007KT 5SM UP OVC027 03/02 A2955 RMK AO2 P0005
KCKP 221935Z AUTO 14009KT 10SM OVC008 05/05 A2943 RMK AO2 T00460046
KCKV 221852Z AUTO 15008KT 10SM OVC015 12/08 A2976 RMK AO2 SLP079 T01170083
KCLE 221851Z 12003KT 10SM FEW045 BKN250 06/M01 A3000 RMK AO2 SLP165 T00561006
KCLI 221935Z AUTO 13007KT 5SM -RA OVC010 02/00 A2980 RMK AO2
KCLK 221935Z AUTO 35017G20KT 10SM CLR 14/M02 A2960 RMK AO2
KCLL 221853Z 22014KT 10SM CLR 19/12 A2964 RMK AO2 SLP034 T01940122
KCLM 221853Z AUTO 26008KT 10SM CLR 08/02 A3034 RMK AO2 SLP275 T00830022 TSNO
KCLS 221935Z AUTO 00000KT 10SM CLR 10/08 A3037 RMK AO2
KCLT 221852Z 03006KT 1 1/2SM -DZ BR OVC003 03/02 A3005 RMK AO2 SFC VIS 3 SLP177 P0000 T00330022
KCLW 221935Z AUTO 19010G16KT 10SM CLR 24/21 A2990 RMK AO2
KCMA 221855Z 26006KT 10SM CLR 21/11 A3003 RMK AO2 SLP177 T02110111
KCMD 221935Z AUTO 12010KT 10SM -RA OVC004 10/09 A2981 RMK AO2 P0001 T00950088
KCMH 221851Z 12005KT 10SM FEW065 SCT200 08/01 A2993 RMK AO2 SLP141 T00780006
KCMI 221853Z 13013KT 1 1/2SM -RA BR OVC003 04/04 A2971 RMK AO2 SLP066 P0003 T00440039
KCMX 221853Z AUTO 12008KT 4SM BR OVC012 02/00 A2978 RMK AO2 SLP097 T00170000
KCMY 221935Z AUTO 15010G17KT 10SM BKN018 OVC028 04/00 A2969 RMK AO2 T00410000
KCNB 221933Z AUTO 12009KT 4SM BR OVC007 04/03 A2943 RMK AO2 T00360033
KCNC 221935Z AUTO 13008KT 2SM BR OVC004 05/04 A2948 RMK AO2
KCNI 221935Z AUTO 09011G16KT 020V140 5SM BR OVC005 07/05 A2993 RMK AO2
KCNK 221905Z AUTO 32012G24KT 10SM SCT028 BKN035 09/03 A2948 RMK AO2 T00940033
KCNM 221853Z AUTO 26016KT 10SM CLR 19/M01 A2974 RMK AO2 SLP029 T01941011
KCNO 221853Z VRB03KT 6SM HZ CLR 19/09 A3005 RMK AO2 SLP172 T01890094
KCNU 221929Z AUTO 25010KT 10SM OVC010 09/08 A2949 RMK AO2 RAE12 CIG 005V013 P0002 T00940083
KCNW 221855Z 25012G18KT 10SM SKC 23/05 A2959
KCNY 221853Z AUTO 26004KT 10SM FEW100 06/02 A2983 RMK AO2 SLP106 T00560022
KCOD 221935Z AUTO 07012KT 10SM CLR M01/M03 A2980 RMK AO1
KCOE 221935Z AUTO 24011KT 10SM SCT027 06/M01 A3015 RMK AO1
KCOF 221858Z AUTO 16011KT 10SM CLR 24/20 A2993 RMK AO2 SLP140 T02370199
KCOM 221935Z AUTO 33010G15KT 10SM CLR 18/04 A2967 RMK AO2 T01840040
KCON 221851Z AUTO 00000KT 10SM OVC050 03/M02 A3035 RMK AO2 SLP282 T00281022
KCOQ 221936Z AUTO 11006KT 1/4SM -SN OVC002 01/01 A2964 RMK AO2
KCOS 221854Z 13008KT 10SM SCT008 BKN080 BKN200 02/M01 A2969 RMK AO2 SLP065 VCSH OMTNS W T00171006
KCOT 221853Z AUTO 32005KT 10SM CLR 20/12 A2972 RMK AO2 SLP060 T02000117
KCOU 221854Z 16008KT 4SM -RA BR OVC005 07/07 A2954 RMK AO2 SLP005 P0004 T00720067
KCPC 221935Z AUTO 02003KT 4SM BR OVC004 07/06 A3001 RMK AO2 T00660060
KCPK 221935Z AUTO 02008KT 10SM OVC008 11/11 A3003 RMK AO2
KCPR 221853Z 29013KT 10SM FEW095 SCT110 M01/M05 A2973 RMK AO2 SLP083 T10061050
KCPS 221853Z 14006KT 9SM -RA OVC007 09/08 A2962 RMK AO2 SLP031 P0001 T00890078
KCPT 221935Z AUTO 26010G15KT 10SM CLR 18/04 A2960 RMK AO2
KCPW 221938Z AUTO 1/4SM +SN OVC002 M07/M07 A2973 RMK AO2 P0002
KCQB 221935Z AUTO 31010G14KT 10SM BKN024 14/10 A2955 RMK AO2
KCQC 221853Z AUTO 30035G43KT 10SM CLR 09/M02 A2974 RMK AO2 PK WND 30044/1833 SLP033 T00941017
KCQF 221935Z AUTO 15013G17KT 10SM BKN014 OVC022 22/18 A2977 RMK AO2
KCQM 221935Z AUTO 12003KT 7SM DZ BKN008 OVC013 01/01 A2965 RMK AO2
KCQT 221947Z AUTO 00000KT 9SM CLR 22/09 A2999 RMK AO2 SLP154 T02220094
KCQW 221935Z AUTO 05006KT 3SM BR FEW003 04/04 A3003 RMK AO2
KCQX 221852Z AUTO 09008KT 10SM FEW026 OVC037 07/03 A3033 RMK AO2 SLP271 T00720033
KCRE 221932Z 34004G14KT 10SM -RA OVC005 08/07 A2999 RMK AO1 RAB1855 P0000 T00830067
KCRG 221936Z 12005KT 4SM -RA BR FEW020 BKN035 OVC055 20/18 A2989 RMK AO2 LTG DSNT NW-E TSE1855B02E26 P0023 T02000183
KCRP 221921Z COR 21011KT 10SM FEW015 FEW090 SCT250 22/17 A2969 RMK AO2 T02220167
KCRQ 221853Z AUTO 32003KT 10SM CLR 21/09 A3003 RMK AO2 SLP166 T02060094
KCRS 221853Z AUTO 24013G24KT 10SM CLR 21/08 A2959 RMK AO2 SLP017 T02110083
KCRW 221854Z 08006KT 10SM BKN050 BKN070 11/03 A2994 RMK AO2 SLP142 T01110028
KCRX 221935Z AUTO 15009KT 7SM OVC006 12/10 A2973 RMK AO2
KCSG 221851Z COR 13006KT 5SM -RA BR OVC005 09/09 A2990 RMK AO2 RAB33 PRESRR SLP126 P0000 T00940089
KCSM 221853Z 34019G25KT 10SM CLR 14/01 A2962 RMK AO2 PK WND 34029/1817 SLP024 T01390006
KCSQ 221935Z AUTO 15011KT 4SM -UP OVC005 05/05 A2945 RMK AO2
KCSV 221853Z AUTO VRB05KT 10SM OVC015 11/07 A2985 RMK AO2 SLP104 T01110067
KCTB 221856Z AUTO 30017KT 10SM FEW075 BKN090 OVC110 03/M04 A2989 RMK AO2 SLP145 T00331044
KCTJ 221935Z AUTO 11004KT 2 1/2SM -RA OVC002 07/07 A2992 RMK AO2
KCTY 221853Z AUTO 19011G20KT 23/21 A2987 RMK AO1 SLP113 T02280211
KCTZ 221935Z AUTO 36005KT 4SM BR OVC004 06/06 A3003 RMK AO2 T00600060
KCUB 221935Z AUTO VRB04KT 5SM BR OVC004 07/06 A2999 RMK AO2 RAE1856B21E31 P0000 T00720056
KCUH 221935Z AUTO 29011G14KT 245V305 10SM BKN026 BKN031 12/09 A2954 RMK AO2
KCUL 221935Z AUTO 11012KT 5SM -DZ SCT020 BKN026 OVC075 10/09 A2967 RMK AO2 P0001 T00990090
KCUT 221853Z AUTO 32017G29KT 10SM BKN035 BKN043 00/M08 A2951 RMK AO2 PK WND 28041/1803 SLP003 T00001083 $
KCVB 221935Z AUTO 24006KT 7SM CLR 21/11 A2969 RMK AO2 T02050106
KCVC 221935Z AUTO 07007KT 2SM DZ OVC005 08/07 A2993 RMK AO2
KCVG 221852Z 12008KT 10SM FEW035 BKN160 OVC180 11/02 A2987 RMK AO2 SLP115 T01060022
KCVH 221930Z AUTO 00000KT 10SM SCT018 17/14 A3026 RMK AO1
KCVN 221935Z 03006KT 10SM BKN060 08/M04 A2973 RMK AO1
KCVO 221935Z AUTO 00000KT 3SM BKN015 BKN020 12/09 A3038 RMK AO1
KCVS 221858Z AUTO 06009KT 10SM SCT055 09/M03 A2975 RMK AO2 SLP053 T00851034 $
KCVW 221935Z AUTO 23011KT 10SM SCT013 20/18 A2972 RMK A01
KCVX 221935Z AUTO 11010KT 10SM CLR 03/M04 A2994 RMK AO2 T00271036
KCWA 221945Z 11008KT 5SM BR BKN010 OVC032 01/01 A2974
KCWC 221935Z AUTO 32008KT 10SM CLR 15/05 A2964 RMK AO2 T01510047
KCWF 221945Z 22018G23KT 10SM SCT024 BKN029 23/17 A2967
KCWI 221935Z AUTO 11015G19KT 3SM OVC005 02/01 A2963 RMK AO1 P0001
KCWN 221926Z AUTO 17006KT 5SM -SN BKN004 BKN031 M01/M01 A2964 RMK AO2
KCWV 221935Z AUTO 02004KT 10SM OVC004 09/09 A2995 RMK AO2 LTG DSNT S
KCXE 221935Z AUTO 03006KT 4SM OVC005 03/03 A3008 RMK AO1 T00290029
KCXO 221853Z 22013G24KT 10SM CLR 19/13 A2966 RMK AO2 SLP040 T01940133
KCXP 221935Z AUTO 00000KT 10SM CLR 13/02 A3031 RMK AO2
KCXY 221930Z 35003KT 7SM SCT019 OVC035 02/M03 A3020 RMK AO2 T00171033
KCYS 221853Z 31013G21KT 10SM OVC070 M01/M07 A2967 RMK AO2 SLP064 T10111067
KCZT 221935Z AUTO 34003KT 10SM CLR 19/12 A2969 RMK AO2
KCZZ 221852Z AUTO 20004KT 22/05 A3005 RMK AO1 SLP153 T02170050
KD07 221856Z AUTO 32024G31KT 00/M04 A2949 RMK AO1 PK WND 33036/1838 SLP008 T00001039
KD25 221935Z AUTO 15006KT 1 1/4SM BR OVC003 00/00 A2973 RMK AO2 T00000000
KD39 221932Z AUTO 11009KT 5SM -RA OVC005 01/01 A2953 RMK AO2 T00110007
KD50 221935Z AUTO 33012KT 3SM BR OVC004 M04/M04 A2964 RMK AO2
KD55 221935Z AUTO 04008KT A2955 RMK AO2
KD57 221935Z AUTO 33010KT 2 1/2SM -UP OVC006 M01/M03 A2952 RMK AO2 TSNO
KD60 221935Z AUTO 34014G19KT 2 1/2SM -SN OVC005 M03/M03 A2962 RMK AO2
KD95 221934Z AUTO 13005KT 10SM CLR 03/M02 A2997 RMK AO2 T00261025
KDAA 221948Z AUTO 02005KT 2 1/2SM -RA BR BKN009 OVC013 02/00 A3017 RMK AO2 VIS 2V2 1/2 RAB1908DZE1908 CIG 009V013 BKN V SCT
KDAB 221853Z 17007G15KT 10SM FEW025 FEW055 SCT150 BKN250 24/19 A2993 RMK AO2 SLP133 T02440189
KDAG 221850Z AUTO 28014KT 10SM CLR 16/07 A3013 RMK AO2 SLP193 T01560072
KDAL 221853Z 29009G18KT 10SM FEW044 FEW250 18/06 A2958 RMK AO2 SLP011 T01780056
KDAN 221926Z AUTO 04009KT 2 1/2SM BR OVC006 02/01 A3009 RMK AO2 CIG 004V009 T00220006
KDAW 221928Z AUTO 01004KT 10SM BKN014 BKN043 OVC050 03/M02 A3034 RMK AO2 T00331017
KDAY 221856Z 11007KT 9SM SCT100 BKN180 08/02 A2990 RMK AO2 SLP132 T00780017
KDBN 221935Z AUTO 06004KT 10SM OVC003 08/08 A2997 RMK AO2 LTG DSNT SE
KDBQ 221941Z 08014KT 3SM UP BR OVC007 02/01 A2960 RMK AO2 P0003 T00220011
KDCA 221949Z 03007KT 2 1/2SM -RA SCT012 BKN016 OVC036 03/M01 A3018 RMK AO2 P0001
KDCM 221955Z AUTO 03009KT 1 1/4SM BR OVC003 05/05 A3002 RMK AO2
KDCU 221932Z AUTO 14008KT 10SM OVC008 11/09 A2980 RMK AO2
KDCY 221935Z AUTO 15010KT 10SM -DZ SCT019 BKN031 OVC070 09/06 A2974 RMK AO2 T00910058
KDDC 221852Z AUTO 32022G25KT 10SM FEW055 OVC110 09/M01 A2964 RMK AO2 PK WND 32027/1800 RAB08E20 SLP034 P0000 T00941011
KDDH 221854Z AUTO 13011KT 10SM OVC041 04/M01 A3024 RMK AO2 SLP247 T00391011
KDEC 221854Z 14013KT 3SM -RA BR OVC005 06/06 A2967 RMK AO2 SLP051 P0008 T00610056
KDED 221935Z AUTO 18011KT 10SM FEW050 25/19 A2992 RMK AO1
KDEH 221935Z AUTO 12009G16KT 3SM -UP FEW013 03/02 A2959 RMK AO2
KDEN 221853Z 05006KT 10SM FEW055 BKN075 OVC090 02/M04 A2968 RMK AO2 SLP049 VCSH N AND W T00171039
KDEQ 221853Z AUTO 20006KT 7SM FEW016 BKN022 OVC037 15/12 A2954 RMK AO2 SLP001 T01500117
KDET 221853Z 09010KT 10SM CLR 04/M02 A3000 RMK AO2 SLP165 T00391017
KDEW 221853Z AUTO 23004KT 10SM CLR 04/M01 A3016 RMK AO2 SLP227 T00441011
KDFI 221853Z AUTO 08009KT 5SM HZ OVC100 03/M01 A2991 RMK AO2 SLP137 T00281011 TSNO
KDFW 221853Z 28013KT 10SM SCT250 17/05 A2958 RMK AO2 SLP014 T01720050
KDGW 221853Z AUTO 29015KT 10SM FEW040 02/M04 A2970 RMK AO2 SLP071 T00171039
KDHN 221853Z 11008KT 2SM BR OVC002 12/12 A2989 RMK AO2 SLP119 T01170117
KDHT 221853Z AUTO 34013G18KT 10SM OVC070 08/M03 A2973 RMK AO2 SLP052 T00781033
KDIJ 221856Z AUTO 33009KT 10SM FEW036 SCT100 M01/M06 A2994 RMK AO2 T10111061 UPE00 P0000 SLP143
KDIK 221912Z AUTO 31019KT 1/4SM SN FZFG VV009 M03/M05 A2952 RMK AO2 P0000 T10331050
KDKB 221935Z AUTO 10011KT 1 3/4SM -RA OVC006 01/00 A2970 RMK AO2 P0003 T00080003
KDKK 221853Z AUTO 01003KT 10SM OVC049 04/M02 A3007 RMK AO2 SLP189 T00391022
KDKR 221935Z AUTO 22012G19KT CLR 22/14 A2962 RMK AO2
KDLF 221928Z AUTO 00000KT 10SM SCT008 14/12 A2971 RMK AO2 $
KDLH 221921Z 12012KT 1/4SM R09/1400V4500FT -SN FG VV002 01/00 A2965 RMK AO2 P0000 T00110000
KDLL 221930Z AUTO 12009KT 5SM -DZ SCT028 SCT033 SCT055 02/M01 A2971 RMK AO2 T00211006
KDLN 221853Z AUTO 04004KT 10SM SCT060 OVC075 01/M04 A2995 RMK AO2 SLP157 T00111044
KDLP 221935Z AUTO 22010KT 7SM FEW100 21/21 A2976 RMK A01
KDLS 221853Z AUTO 30013KT 10SM CLR 13/03 A3033 RMK AO2 SLP271 T01280033
KDLZ 221941Z AUTO 12008KT 10SM CLR 08/01 A2992 RMK AO2
KDMA 221858Z AUTO 20003KT 10SM CLR 14/04 A3001 RMK AO2 SLP148 T01380039 $
KDMH 221854Z AUTO 03/M02 A3021 RMK AO1 SLP229 T00281022
KDMN 221853Z AUTO 25017G22KT 10SM CLR 14/01 A2990 RMK AO2 SLP089 T01440011
KDMO 221948Z AUTO 16007KT 3SM BR OVC006 08/07 A2949 RMK AO2 RAE02 CIG 004V009 P0000
KDMW 221940Z AUTO 00000KT 5SM DZ SCT029 SCT038 OVC048 01/M02 A3017 RMK AO2
KDNL 221946Z AUTO 05007KT 3SM -RA BR BKN004 BKN008 OVC015 08/07 A2998 RMK AO2 RAB00 CIG 003V007 P0004 T00830072
KDNN 221935Z AUTO 19006KT 10SM OVC023 11/07 A2988 RMK AO2
KDNS 221935Z AUTO 15010KT 4SM -UP FEW008 SCT013 SCT027 06/06 A2941 RMK AO2
KDNV 221935Z AUTO 13011KT 3SM -RA BKN012 OVC020 05/04 A2970 RMK AO2 T00450038
KDOV 221858Z AUTO 36007KT 10SM BKN045 04/03 A3019 RMK AO2 RAE1841DZB1841E1848 SLP227 P0000 T00430030
KDPA 221919Z 10008KT 3SM -RA BR BKN009 BKN018 OVC035 02/01 A2972 RMK AO2 P0000 T00220006
KDPG 221752Z 00000KT 7SM -RA OVC070 05/05 A3005 RMK SLPNO T00490045
KDPL 221935Z AUTO 02008KT 4SM BR OVC003 06/06 A3002 RMK AO2 T00630060
KDQH 221935Z AUTO 10003KT 10SM VCTS OVC002 12/12 A2992 RMK AO2 LTG DSNT SE
KDRA 221552Z AUTO 00000KT 10SM CLR 07/04 A3013 RMK AO2 SLP192 T00720039
KDRI 221935Z AUTO 20012G18KT 10SM SCT018 SCT025 22/17 A2965 RMK AO2 T02150166
KDRM 221935Z AUTO 14009G17KT 10SM OVC018 01/M02 A3000 RMK AO2 T00131018
KDRO 221853Z AUTO 25023G31KT 10SM SCT014 BKN070 BKN080 04/01 A2976 RMK AO2 PK WND 26032/1828 RAE00 SLP069 P0000 T00440011
KDRT 221853Z AUTO 14003KT 6SM BR OVC005 13/11 A2973 RMK AO2 SLP062 T01280111
KDSM 221854Z 13006KT 3SM -RA BR OVC006 05/03 A2951 RMK AO2 CIG 005V009 SLP997 P0001 T00500033
KDSV 221854Z AUTO 14011KT 10SM CLR 03/M04 A3011 RMK AO2 SLP213 T00331039
KDTA 221935Z AUTO 36005KT 10SM BKN009 BKN015 OVC024 05/05 A3004 RMK AO1 T00530046
KDTL 221935Z AUTO 13011G16KT 1 3/4SM BR OVC004 02/02 A2953 RMK AO2
KDTN 221935Z 16012KT 10SM SCT014 BKN020 BKN038 17/13 A2957 RMK AO2 T01670133
KDTO 221853Z 29010G19KT 10SM CLR 16/07 A2959 RMK AO2 SLP017 T01560072
KDTS 221919Z AUTO VRB03KT 3SM RA BR BKN025 BKN031 OVC049 18/17 A2982 RMK AO2 RAB05 P0008 T01780167 TSNO
KDTW 221853Z 09008G14KT 9SM FEW130 OVC240 04/M01 A2998 RMK AO2 SLP160 T00391011
KDUA 221935Z AUTO 29005KT 10SM CLR 16/08 A2957 RMK AO2
KDUC 221935Z AUTO 36009KT CLR 14/06 A2959 RMK AO2 PWINO
KDUG 221856Z AUTO 00000KT 10SM CLR 14/01 A3001 RMK AO2 SLP136 T01440011
KDUH 221934Z AUTO 10005KT 10SM OVC100 02/M01 A2994 RMK AO2
KDUJ 221853Z AUTO 12009KT 7SM OVC033 01/M04 A3005 RMK AO2 SLP197 T00061039
KDUX 221935Z AUTO 35009G20KT 10SM CLR 08/M05 A2971 RMK AO2 T00781050
KDVK 221935Z AUTO 16009KT 10SM OVC110 12/05 A2984 RMK AO2
KDVL 221935Z AUTO 05009KT 1SM OVC003 01/00 A2952 RMK AO1
KDVN 221912Z AUTO 12012KT 4SM -RA BR OVC005 02/01 A2961 RMK AO2 P0001 I1000 T00220006
KDVO 221935Z AUTO 13003KT 1/2SM FG OVC001 13/13 A3028 RMK AO2
KDVP 221936Z AUTO 13012KT 7SM OVC004 03/03 A2943 RMK AO2 T00270027
KDVT 221853Z 17003KT 10SM CLR 14/05 A3000 RMK AO2 SLP149 T01390050
KDWH 221853Z 23014G21KT 10SM CLR 21/14 A2966 RMK AO2 SLP043 T02060139
KDWU 221935Z AUTO 00000KT 10SM CLR 08/03 A2988 RMK AO1
KDWX 221935Z AUTO 30016G23KT 10SM BKN029 BKN034 OVC075 01/M03 A2979 RMK AO2 T00101035
KDXR 221853Z 09006KT 10SM SCT017 OVC038 06/01 A3025 RMK AO2 SLP247 T00560011
KDXX 221933Z AUTO 13013KT 4SM -RA CLR 05/04 A2944 RMK AO2
KDYA 221935Z AUTO 12006KT 10SM -RA OVC007 14/ A2978 RMK AO2 T0137
KDYB 221955Z AUTO 36004KT 10SM RA SCT004 BKN014 OVC019 07/07 A2999 RMK AO1 LTG DSNT E AND SE
KDYL 221901Z AUTO VRB03KT 10SM BKN019 OVC100 05/01 A3021 RMK AO2 T00500011
KDYR 221935Z 15011G17KT 10SM OVC016 13/06 A2966 RMK AO1
KDYS 221858Z AUTO 01013G17KT 10SM CLR 17/03 A2968 RMK AO2 SLP032 T01720026 $
KDYT 221933Z AUTO 00000KT 4SM DZ OVC011 02/01 A2970 RMK AO2
KDZB 221935Z AUTO 28006G14KT 10SM CLR 23/04 A2964 RMK AO2 T02270041
KE11 221935Z AUTO 02005KT 10SM CLR 15/01 A2974 RMK AO2 T01500013
KE16 221935Z AUTO 34007KT 10SM OVC014 15/14 A3027 RMK AO2 PWINO PNO
KE38 221935Z AUTO 24015G20KT 10SM CLR 19/M01 A2987 RMK AO2 T01861008
KE80 221935Z AUTO 28021G26KT 10SM CLR 17/M01 A2978 RMK AO2 T01661013
KEAR 221935Z 29020G25KT 10SM FEW046 OVC050 09/M01 A2948 RMK AO1
KEAT 221855Z AUTO 30020G25KT 10SM CLR 09/M02 A3023 RMK AO2 PK WND 30028/1844 SLP242 T00941017
KEAU 221928Z 12009KT 7SM BKN013 BKN019 OVC035 03/01 A2967 RMK AO2 T00330006
KEBG 221935Z AUTO 23004KT 10SM CLR 22/16 A2972 RMK AO2 T02180156
KEBS 221935Z AUTO 13014G19KT 2 1/2SM -UP OVC005 03/03 A2948 RMK AO2
KECG 221854Z 03013KT 3SM -RA OVC006 13/10 A3000 RMK AO2 SLP157 P0023 T01280100
KECP 221853Z VRB05KT 5SM -RA BR BKN004 OVC022 18/17 A2982 RMK AO2 RAB24 SLP108 P0005 T01830167
KECS 221935Z AUTO 31022G32KT 10SM CLR 01/M03 A2960 RMK AO2
KECU 221930Z AUTO 29011G14KT 10SM CLR 22/03 A2972 RMK AO2
KEDC 221935Z AUTO 19009KT 10SM CLR 21/13 A2964 RMK AO2
KEDE 221935Z AUTO 03008KT 10SM OVC006 11/10 A2999 RMK AO2 T01050101
KEDJ 221930Z AUTO 13008KT 10SM FEW075 05/01 A2989 RMK AO1
KEDN 221935Z AUTO 11007KT 10SM OVC004 12/12 A2982 RMK AO2 LTG DSNT SE
KEDU 221935Z AUTO 31006KT 10SM OVC006 14/12 A3026 RMK AO1
KEDW 221858Z 11003KT 90SM CLR 12/10 A3014 RMK AO2A SLP207 T01170104
KEED 221856Z AUTO 00000KT 10SM CLR 17/06 A3003 RMK AO2 SLP155 T01670056
KEEN 221935Z AUTO 03003KT 10SM FEW029 OVC044 03/01 A3030 RMK AO1
KEEO 221853Z AUTO 24010KT 10SM SCT028 BKN034 BKN043 01/M03 A2981 RMK AO2 UPE15SNB05E06 SLP087 P0000 T00111028
KEET 221936Z AUTO 13005KT 3SM -RA BR OVC004 12/11 A2982 RMK AO2 P0001 T01170111
KEFD 221850Z 22012G22KT 10SM BKN020 BKN250 23/17 A2970
KEFK 221935Z AUTO 00000KT 10SM OVC034 M02/M04 A3030 RMK AO2 T10161043
KEFT 221935Z AUTO 08008KT 2 1/2SM -RA OVC005 01/01 A2967 RMK AO2
KEGE 221850Z 20004KT 4SM -SN BR SCT030 OVC040 01/M02 A2979
KEGI 221855Z 12003KT 10SM SCT015 BKN030 BKN045 19/18 A2981 RMK AO2A SLP097 T01920175 $
KEGV 221935Z AUTO 13006KT 2SM BR OVC004 00/00 A2975 RMK AO2 T00030002
KEHA 221948Z AUTO 34008KT 07/M04 RMK AO1 PK WND 18 000 T00721044
KEHC 221935Z AUTO 23016KT 9SM CLR 25/20 A2972 RMK A01
KEHO 221935Z AUTO 02008KT 4SM BR OVC005 03/03 A3003 RMK AO2 T00340027
KEHR 221935Z AUTO 14011G16KT 10SM BKN025 BKN037 OVC075 10/06 A2971 RMK AO1
KEHY 221935Z AUTO 31010KT 1 1/4SM -TSSN BKN009 BKN013 OVC017 M03/M06 A2969 RMK AO2 VIS 1V2
KEIK 221935Z AUTO 03009KT 10SM 03/M04 A2970 RMK AO2 T00301041
KEIR 221935Z AUTO 20015KT 4SM BR FEW016 SCT043 BKN060 22/21 A2976 RMK A01
KEKM 221850Z 13007KT 5SM -RA BKN041 OVC047 02/M02 A2986 RMK AO2
KEKN 221851Z AUTO 19003KT 8SM -RA SCT033 OVC045 06/03 A3000 RMK AO2 RAB31 SLP181 P0000 T00610033 TSNO
KEKO 221947Z AUTO 29017KT 10SM BKN026 BKN047 08/04 A3015 RMK AO2 T00830039
KEKQ 221856Z AUTO 17013G17KT 10SM FEW031 SCT100 14/07 A2986 RMK AO2 T01440066 SLP116
KELA 221935Z AUTO 22009KT 10SM CLR 20/16 A2966 RMK AO2 T02000155
KELD 221853Z AUTO 15007KT 10SM OVC012 14/12 A2962 RMK AO2 RAB00E40 SLP030 P0000 T01440117
KELK 221935Z AUTO 33023G26KT 10SM CLR A2966 RMK AO2
KELM 221853Z 15005KT 10SM OVC032 02/M04 A3014 RMK AO2 SLP216 T00221039
KELN 221853Z AUTO 30016KT 10SM CLR 08/00 A3028 RMK AO2 SLP260 T00780000
KELO 221933Z AUTO 14006KT 10SM -RA BKN009 OVC025 01/01 A2966 RMK AO2
KELP 221851Z 24010KT 10SM FEW200 FEW230 17/01 A2985 RMK AO2 PRESFR SLP063 T01670006
KELY 221853Z AUTO 30014G23KT 10SM OVC030 08/02 A3013 RMK AO2 SLP164 T00780022
KELZ 221856Z AUTO 15009KT 10SM CLR 02/M04 A3006 RMK AO2 SLP205 T00171044
KEMK 221935Z AUTO 21020KT 9SM SCT019 SCT033 SCT040 23/19 A2972 RMK A01
KEMM 221935Z AUTO 28020G27KT 7SM SCT006 SCT015 M01/M03 A2986 RMK AO2
KEMP 221934Z AUTO 30013KT 10SM BKN017 BKN080 09/06 A2947 RMK AO2 T00940056
KEMT 221945Z 00000KT 10SM CLR 22/09 A3002
KEMV 221935Z AUTO 34006KT 2SM -DZ OVC005 03/03 A3009 RMK AO2
KEND 221855Z 32017KT 10SM FEW030 FEW130 SCT230 12/04 A2957 RMK AO2A SLP015
KENL 221935Z AUTO 14010G15KT 3SM RA OVC007 08/07 A2964 RMK AO2 P0003 T00790066
KENV 221935Z AUTO 34015G24KT 10SM FEW035 SCT050 BKN060 11/02 A3006 RMK AO1 WSHFT 02
KENW 221853Z 11009KT 1 3/4SM -RASN BR BKN008 OVC028 02/01 A2978 RMK AO2 RAB1754SNB14 SLP093 P0001 T00220011
KEOE 221935Z AUTO 04009KT 1SM DZ OVC003 05/ A3003 RMK AO2
KEOK 221935Z AUTO 13007KT 3SM BR OVC004 05/05 A2955 RMK AO2
KEPH 221853Z AUTO 32020G30KT 10SM CLR 10/M03 A3021 RMK AO2 PK WND 32030/1852 SLP234 T01001033
KEQA 221935Z AUTO 32012G20KT 10SM OVC022 10/05 A2951 RMK AO2
KEQY 221912Z AUTO 03006KT 1 3/4SM BR OVC002 04/03 A3003 RMK AO2 T00390028
KERI 221851Z 14005KT 10SM FEW047 05/M03 A3003 RMK AO2 SLP177 T00501033
KERV 221935Z AUTO 32014G17KT 10SM CLR 25/01 A2966 RMK AO2 T02480007
KERY 221935Z AUTO 12007KT 7SM CLR 00/M03 A2993 RMK AO2 T00011027
KESC 221935Z AUTO 14010KT 7SM FEW019 BKN040 BKN065 02/M02 A2987 RMK AO1
KESF 221853Z AUTO 20009KT 10SM OVC005 16/15 A2968 RMK AO2 SLP048 T01610150
KESN 221850Z 04006KT 4SM RA SCT008 BKN014 BKN042 03/03 A3022
KEST 221852Z AUTO 15015KT 4SM BR OVC004 03/03 A2947 RMK AO2 SLP989 T00280028
KETB 221930Z AUTO 12009KT 5SM BR OVC010 02/00 A2978 RMK AO2
KETC 221918Z AUTO 33006KT 2 1/2SM BR OVC004 06/04 A3007 RMK AO2
KETH 221936Z AUTO 11014KT 4SM -RA OVC005 02/02 A2947 RMK AO2
KEUF 221858Z AUTO 09007KT 10SM OVC004 12/11 A2986 RMK AO2 RAB07E45 SLP110 P0005 T01170106
KEUG 221854Z 00000KT 10SM BKN006 OVC012 13/11 A3037 RMK AO2 SLP287 T01280106
KEUL 221935Z AUTO 23019G28KT 10SM CLR 09/00 A3022 RMK AO1
KEVB 221947Z 16006KT 10SM SKC 25/19 A2993
KEVM 221931Z AUTO 13005KT 10SM OVC007 01/01 A2966 RMK AO2
KEVV 221854Z 14008KT 10SM OVC023 11/07 A2976 RMK AO2 RAB08E46 SLP077 P0000 T01060067
KEVW 221853Z AUTO 30019G26KT 10SM FEW026 BKN035 OVC045 01/M03 A2993 RMK AO2 PK WND 29026/1846 SLP128 T00061033
KEWB 221936Z 06006KT 10SM SCT014 BKN028 OVC041 07/04 A3028 RMK AO2 RAB09E20 P0000 T00670044
KEWK 221935Z AUTO 32018G25KT 10SM BKN022 OVC030 09/02 A2953 RMK AO1
KEWN 221854Z 10SM OVC005 11/09 A3001 RMK AO2 SLP162 T01110089 $
KEWR 221851Z 02009KT 9SM FEW008 BKN012 OVC020 06/02 A3022 RMK AO2 PRESFR SLP231 T00560022
KEXX 221935Z AUTO 02005KT 2 1/2SM BR OVC004 03/02 A3004 RMK AO2 T00250020
KEYE 221936Z AUTO 13007KT 10SM SCT026 OVC039 06/02 A2978 RMK AO2 T00610022
KEYF 221935Z AUTO 35003KT 7SM OVC003 07/06 A3003 RMK AO2 T00650063
KEYW 221853Z 16010KT 10SM CLR 26/22 A2996 RMK AO2 SLP144 T02610222
KEZF 221935Z AUTO 02005KT 1 3/4SM RA OVC005 02/02 A3014 RMK AO2 P0001 T00240024
KEZM 221935Z AUTO 05006KT 10SM OVC004 11/11 A2995 RMK AO2 LTG DSNT SE T01090109
KEZS 221935Z AUTO 13008KT 5SM HZ OVC011 03/01 A2981 RMK AO2 T00310005
KF05 221935Z AUTO 33014KT 10SM BKN120 16/M02 A2967 RMK AO1 T01591017
KF44 221935Z AUTO 24008KT 10SM CLR 20/09 A2956 RMK AO2
KF46 221935Z AUTO 29013G17KT 10SM CLR 19/07 A2955 RMK AO2 T01900066
KF70 221935Z AUTO 00000KT 10SM CLR 20/08 A3003 RMK AO1
KFAF 221948Z AUTO 01009KT 8SM OVC005 06/06 A3006 RMK AO2 DZB1902E1914 $
KFAM 221935Z AUTO 12008KT 10SM BKN006 OVC013 09/08 A2959 RMK AO1 P0002
KFAR 221853Z 12008KT 8SM -RA OVC007 05/03 A2949 RMK AO2 SLP995 P0001 T00500033
KFAT 221853Z 00000KT 4SM HZ OVC038 15/12 A3027 RMK AO2 SLP249 T01500122
KFAY 221944Z AUTO 04008KT 3SM BR OVC004 05/04 A3001 RMK AO2 RAB15E30 P0000 T00500044
KFBG 221925Z AUTO 04007KT 5SM BR OVC004 05/04 A3001 RMK AO2
KFBL 221934Z AUTO 12009KT 4SM -RA OVC008 02/01 A2958 RMK AO2 P0001
KFBR 221935Z AUTO 29015G20KT 10SM BKN019 BKN024 OVC032 01/M01 A2990 RMK AO2 T00061010
KFCI 221915Z AUTO 02008KT 3SM OVC005 03/M03 A3010 RMK AO1 P0001
KFCM 221853Z 12011KT 3SM BR OVC008 03/01 A2958 RMK AO2 RAE45 SLP022 P0000 T00280011
KFCS 221947Z AUTO 21008KT 9SM UP SCT012 BKN023 OVC028 02/00 A2966 RMK AO2 UPB47
KFDK 221850Z 03004KT 4SM BR OVC031 02/M03 A3023
KFDR 221853Z AUTO 35015KT 10SM CLR 13/03 A2961 RMK AO2 PK WND 35032/1805 PRESRR SLP021 T01330033
KFDW 221935Z AUTO 04006KT 5SM BR OVC003 05/05 A2998 RMK AO1
KFDY 221853Z AUTO 13008KT 8SM BKN095 04/00 A2992 RMK AO2 SLP135 T00440000
KFEP 221935Z AUTO 09012KT 2SM UP OVC006 01/01 A2968 RMK AO2 P0001 T00120006
KFET 221935Z AUTO 30007KT 10SM DZ SCT007 OVC015 06/05 A2942 RMK AO2 T00640054
KFEW 221856Z AUTO 31015G24KT 10SM BKN050 M01/M06 A2962 RMK AO2 PK WND 29027/15 SNE09SHSNB09E34 SLP052 T10141060 $
KFFA 221935Z AUTO 04005KT 2 1/2SM BR OVC005 13/13 A2995 RMK AO2 T01310131
KFFC 221853Z AUTO 08005KT 6SM BR OVC005 08/07 A2994 RMK AO2 SLP140 T00830072
KFFL 221935Z AUTO 12008KT 3/4SM BR OVC003 04/03 A2955 RMK AO2
KFFM 221934Z AUTO 12012KT 10SM OVC006 03/03 A2952 RMK AO2
KFFO 221858Z 11006KT 10SM FEW050 SCT100 OVC200 09/03 A2990 RMK AO2A SLP134 T00860028
KFFT 221853Z AUTO 13004KT 10SM FEW100 11/04 A2984 RMK AO2 SLP107 T01110044
KFFX 221932Z AUTO 11010KT 10SM OVC060 02/M03 A2987 RMK AO2 T00211030
KFFZ 221858Z VRB06KT 40SM SKC 15/04 A3000 RMK WND ESTIMATED
KFGN 221934Z AUTO 09004KT 5SM BR OVC004 01/00 A2963 RMK AO2
KFGX 221935Z AUTO 10007KT 10SM OVC039 11/05 A2988 RMK AO2 T01090048
KFHB 221935Z AUTO 13008KT 10SM VCTS SCT041 BKN060 OVC085 21/19 A2988 RMK AO1 LTG DSNT ALQS
KFHR 221853Z AUTO 00000KT 10SM CLR 07/04 A3036 RMK AO2 SLP281 T00670039
KFHU 221855Z 28010KT 10SM FEW300 17/01 A3002 RMK SLP140
KFIG 221854Z AUTO 14005KT 10SM SCT022 OVC036 02/M04 A3010 RMK AO2 SLP213 T00171039
KFIN 221850Z 21010G15KT 7SM BKN050 A2992
KFIT 221852Z AUTO 05004KT 10SM OVC016 04/M01 A3033 RMK AO2 SLP276 T00391011
KFKA 221936Z AUTO 13009KT 3SM BR OVC008 02/00 A2960 RMK AO2 T00150004
KFKL 221935Z AUTO 11010KT 10SM OVC043 01/M04 A3003 RMK AO1
KFKN 221935Z AUTO 01006KT 10SM OVC005 07/ A3005 RMK AO1
KFKR 221935Z AUTO 09009KT 5SM BR SCT013 BKN024 BKN038 05/05 A2978 RMK AO2 T00460045
KFKS 221933Z AUTO 13006KT 10SM OVC100 03/M03 A2988 RMK AO2 T00311029
KFLD 221853Z AUTO 13012KT 7SM OVC080 03/M01 A2978 RMK AO2 SLP091 T00331006
KFLG 221857Z VRB05KT 10SM CLR 11/M01 A3006 RMK AO2 SLP118 T01111011
KFLL 221853Z 16011KT 10SM FEW028 27/19 A2995 RMK AO2 SLP141 T02670194
KFLO 221910Z 36007KT 2 1/2SM -RA BR OVC004 06/05 A3003 RMK AO2 P0003 T00610050
KFLP 221935Z 14004KT 10SM OVC018 11/07 A2954 RMK AO1
KFLY 221934Z AUTO 36011G16KT 10SM SCT037 OVC046 00/M04 A2966 RMK AO2 T10041039
KFME 221942Z AUTO 02004KT 3SM SCT032 OVC044 01/00 A3021 RMK AO1
KFMH 221935Z AUTO 11013KT 10SM OVC039 08/03 A3029 RMK AO2
KFMM 221935Z AUTO 30009KT 10SM SCT095 03/M04 A2966 RMK AO2 T00261043
KFMN 221853Z 29020G25KT 10SM SCT044 BKN055 08/03 A2982 RMK AO2 RAE49 PRESFR SLP095 P0000 T00780028
KFMY 221853Z 21010KT 10SM CLR 27/21 A2993 RMK AO2 SLP139 T02670206
KFNB 221853Z AUTO 17008KT 7SM -RA OVC006 07/ A2943 RMK AO2 CIG 005V009 SLP967 P0007 T0072
KFNL 221935Z AUTO 35014KT 10SM CLR 03/M06 A2969 RMK AO1
KFNT 221853Z 10011KT 10SM FEW100 06/M03 A2996 RMK AO2 SLP152 T00561028
KFOA 221935Z AUTO 14010KT 4SM -RA SCT012 08/07 A2968 RMK AO2 P0003 T00780071
KFOD 221935Z AUTO 12010KT 5SM OVC006 03/02 A2949 RMK AO1
KFOE 221928Z 27008KT 9SM SCT012 BKN018 BKN075 10/07 A2944 RMK AO2 T01000072
KFOK 221853Z 09009KT 10SM FEW013 OVC048 07/04 A3026 RMK AO2 SLP248 T00720039
KFOT 221935Z AUTO 29005KT 10SM OVC003 14/14 A3036 RMK AO1
KFOZ 221933Z AUTO 12004KT 10SM -RA BKN006 OVC011 02/01 A2962 RMK AO2 P0001 TSNO
KFPK 221935Z AUTO 12005KT 10SM BKN040 OVC060 02/M02 A2989 RMK AO2 T00221017
KFPR 221853Z 18008KT 10SM CLR 28/17 A2993 RMK AO2 SLP135 T02830172
KFQD 221935Z AUTO 02003KT 5SM BR OVC006 05/04 A3003 RMK AO2 T00480042
KFRG 221853Z 09009KT 10SM OVC016 07/04 A3022 RMK AO2 SLP235 T00720039
KFRI 221858Z AUTO 30005KT 10SM SCT017 BKN034 07/07 A2949 RMK AO2 RAE1819DZB1819E1839 SLP988 P0000 T00730071
KFRM 221935Z AUTO 13013KT 6SM OVC006 03/01 A2949 RMK AO1
KFRR 221935Z AUTO 01003KT 1 3/4SM OVC003 00/00 A3014 RMK AO1 P0001
KFSD 221945Z 08003KT 2SM -DZ BR OVC007 04/03 A2940 RMK AO2 DZB37 CIG 006V011 VIS SW-NW 3 P0000 T00390028
KFSE 221935Z AUTO 12007KT 10SM OVC008 02/02 A2955 RMK AO2
KFSI 221858Z AUTO 36014G20KT 10SM CLR 14/03 A2958 RMK AO2 SLP014 T01440028
KFSM 221921Z 00000KT 10SM BKN026 OVC035 12/10 A2954 RMK AO2 T01170100
KFSO 221935Z AUTO 00000KT 7SM OVC039 M06/M08 A3033 RMK AO2 T10621084
KFST 221853Z AUTO 31015G23KT 10SM CLR 24/M01 A2973 RMK AO2 PK WND 29026/1840 SLP029 T02391011
KFSW 221935Z AUTO 14007KT 1 3/4SM BR OVC003 05/05 A2957 RMK AO2 P0001
KFTG 221555Z 11004KT 10SM BKN120 00/M03 A2973
KFTK 221912Z AUTO 13012KT 10SM OVC022 11/06 A2978 RMK AO2 PRESFR
KFTN 222030Z AUTO 36003KT 10SM CLR 22/11 A2969 RMK AO1
KFTW 221853Z 28011KT 10SM CLR 17/06 A2959 RMK AO2 SLP017 T01670061
KFTY 221936Z 08006KT 2 1/2SM BR OVC005 08/06 A2992 RMK AO2 T00780061
KFUL 221853Z 00000KT 7SM CLR 20/10 A3003 RMK AO2 SLP166 T02000100
KFVE 221928Z AUTO 00000KT 10SM OVC009 M06/M07 A3035 RMK AO2 T10561072
KFVX 221935Z AUTO 02009KT 2SM -RA OVC004 03/03 RMK AO2 T00250025
KFWA 221923Z 08007KT 5SM -RA BR SCT016 OVC070 02/00 A2987 RMK AO2 RAB12 P0000 T00220000
KFWB 221935Z AUTO 16004KT 1SM -RA OVC006 09/09 A2951 RMK AO2
KFWC 221935Z AUTO 12009KT 5SM -RA BKN013 BKN043 OVC065 09/08 A2967 RMK AO1 T00870077
KFWN 221853Z AUTO 03006KT 6SM BR OVC008 02/M01 A3022 RMK AO2 PRESFR SLP237 T00171006
KFWS 221851Z 28012G19KT 10SM CLR 18/04 A2962
KFWZ 221935Z AUTO 33010G15KT 3/4SM -SN BKN029 OVC049 M05/M07 RMK AO2
KFXE 221853Z 16009KT 10SM SCT026 SCT250 28/20 A2995 RMK AO2 SLP144 T02780200
KFXY 221935Z AUTO 12010G16KT 3SM RA OVC004 02/01 A2953 RMK AO2
KFYG 221935Z AUTO 13006KT 5SM -RA SCT008 SCT024 BKN049 08/08 A2956 RMK AO2
KFYJ 221935Z AUTO 00000KT 1 1/2SM OVC007 06/04 A3013 RMK AO2 P0004 T00550040
KFYM 221935Z AUTO 9SM OVC006 09/08 A2979 RMK
KFYV 221948Z 19007KT 4SM -RA BR SCT008 OVC019 09/09 A2952 RMK AO2 RAE21B42 P0001
KFZG 221935Z AUTO 04003KT 1 1/4SM BR OVC003 13/11 A2992 RMK AO2 LTG DSNT SE T01250110
KFZY 221854Z AUTO VRB05KT 10SM CLR 03/M03 A3017 RMK AO2 SLP222 T00331028
KGAD 221935Z 10009KT 10SM OVC013 11/08 A2984 RMK AO1
KGAG 221853Z AUTO 32011G22KT 10SM CLR 12/M01 A2964 RMK AO2 PK WND 33027/1813 SLP032 T01171006
KGAI 221935Z 03003KT 5SM BKN030 OVC040 01/M02 A3021 RMK AO1
KGAO 221935Z AUTO 10SM SCT016 SCT031 BKN050 25/20 A2975 RMK AO2 T02500201
KGBD 221935Z AUTO 31022G25KT 10SM SCT044 SCT050 11/01 A2956 RMK AO1
KGBG 221935Z AUTO 13007KT 5SM BR OVC006 04/03 A2959 RMK AO2 T00350030
KGBK 221935Z AUTO 18020KT 10SM SCT016 BKN022 BKN050 24/21 A2977 RMK A01
KGCC 221853Z AUTO 31022G29KT 10SM BKN075 OVC100 02/M04 A2966 RMK AO2 PK WND 31030/1802 SLP057 T00221044 TSNO
KGCD 221935Z AUTO 30014KT 10SM OVC120 07/M02 A3029 RMK AO2 T00741023
KGCK 221854Z 34021G28KT 10SM CLR 09/M02 A2965 RMK AO2 PK WND 34031/1804 SLP044 T00891017
KGCM 221935Z AUTO 24006KT 7SM SCT008 BKN012 10/08 A2955 RMK AO2
KGCN 221854Z 30008G17KT 260V350 10SM CLR 09/01 A3006 RMK AO2 SLP151 T00940011
KGDB 221932Z AUTO 11013G18KT 3SM -RA OVC005 04/03 A2948 RMK AO2 P0001 T00350030
KGDJ 221935Z AUTO 29012G16KT 10SM CLR 18/06 A2961 RMK AO2 T01810055
KGDP 221851Z AUTO 25020KT 10SM CLR 14/00 A2985 RMK AO2 PK WND 25030/1813 SLP066 T01440000
KGDV 221935Z AUTO 33017G24KT 4SM SCT014 SCT020 BKN030 M03/M05 A2967 RMK AO1
KGED 221930Z AUTO 03007KT 5SM BR BKN009 OVC039 05/03 A3018 RMK AO2 RAE26 P0001 T00500028
KGEG 221853Z 25012KT 10SM FEW030 FEW090 SCT200 05/M01 A3017 RMK AO2 SLP230 T00501011
KGEU 221850Z 00000KT 10SM SKC 14/07 A3003
KGEV 221935Z AUTO 16004KT M1/4SM -DZ OVC003 04/04 A2998 RMK AO2 T00400040
KGEY 221904Z AUTO 32015KT 10SM SCT030 BKN070 OVC085 01/M01 A2981 RMK AO2 SNE1857 P0000 T00061006
KGEZ 221853Z AUTO 12007KT 10SM FEW021 07/03 A2981 RMK AO2 SLP100 T00720028
KGFA 221856Z AUTO 27012KT 10SM BKN070 03/M04 A2989 RMK AO2 SLP149 T00341042
KGFK 221948Z 09005KT 2SM -RA BR OVC006 02/02 A2954 RMK AO2 P0001
KGFL 221853Z AUTO 07004KT 9SM OVC042 01/M03 A3028 RMK AO2 SLP262 T00061033
KGGE 221935Z AUTO 33005KT 10SM RA OVC002 A3000 RMK AO2 LTG DSNT SW P0006
KGGG 221900Z 24014G20KT 10SM BKN035 21/11 A2956 RMK AO2 T02060111
KGGI 221935Z AUTO 11012KT 4SM -DZ OVC006 03/03 A2953 RMK AO2 T00310025
KGGP 221935Z AUTO 11009KT 5SM BR OVC006 02/01 A2980 RMK AO2
KGGW 221853Z AUTO 33011KT 10SM OVC019 01/M03 A2971 RMK AO2 SLP084 T00061028
KGHB 221935Z AUTO 21018KT 7SM FEW021 FEW026 SCT035 24/21 A2976 RMK A01
KGHG 221935Z AUTO 09005KT 10SM SCT028 BKN035 07/04 A3033 RMK AO2
KGHW 221933Z AUTO 10011KT 5SM DZ OVC004 02/02 A2951 RMK AO2
KGIC 221935Z AUTO 28010KT 10SM SCT045 BKN065 05/M02 A3021 RMK AO1 T00511020
KGIF 221853Z AUTO 21005KT 10SM BKN031 26/19 A2994 RMK AO2 SLP137 T02610194
KGJT 221853Z 00000KT 8SM OVC050 03/02 A2981 RMK AO2 SLP097 T00330022
KGKJ 221853Z AUTO VRB05KT 6SM HZ BKN045 03/M03 A3001 RMK AO2 SLP175 T00281033 TSNO
KGKT 221935Z AUTO 00000KT 10SM CLR 14/05 A2984 RMK
KGKY 221853Z 29012G17KT 10SM CLR 18/04 A2959 RMK AO2 SLP014 T01830044
KGLD 221853Z AUTO 33021G30KT 10SM CLR 08/M05 A2964 RMK AO2 PK WND 32032/1831 SLP035 T00831050
KGLE 221935Z AUTO 34006KT 10SM CLR 15/07 A2959 RMK AO2 T01510070
KGLH 221908Z AUTO 16014KT 7SM OVC013 16/13 A2966 RMK AO2 T01610128
KGLR 221853Z AUTO 13012KT 10SM SCT065 00/M04 A2993 RMK AO2 SLP153 T00001044
KGLS 221852Z 23017G27KT 10SM SCT026 23/18 A2970 RMK AO1 PK WND 23027/1851 SLP058 T02280178
KGLW 221935Z AUTO 16008G14KT 10SM OVC027 13/06 A2979 RMK AO2 T01260060
KGLY 221955Z AUTO 18006KT 3SM BR OVC004 08/08 A2948 RMK AO2
KGMJ 221935Z AUTO 20004KT 4SM BR SCT008 BKN016 OVC028 11/11 A2952 RMK AO2
KGMU 221919Z 07010KT 3SM BR OVC005 06/04 A3001 RMK AO2 CIG 004V008 T00560039
KGNA 221856Z AUTO 15007KT 03/02 A2976 RMK AO1 SLP084 P0001 T00280017
KGNC 221935Z AUTO 36006KT 10SM CLR 15/01 A2974 RMK AO2 T01480011
KGNF 221935Z AUTO 14006KT 10SM OVC007 14/12 A2971 RMK AO2
KGNR 221856Z AUTO VRB03KT M03/M04 A3030 RMK AO1 SLP283 T10281044
KGNT 221935Z AUTO 28017G25KT 10SM SCT090 12/M01 A2987 RMK AO2 T01161011
KGNV 221853Z 18004KT 10SM OVC017 22/21 A2989 RMK AO2 RAB17E53 SLP120 P0005 T02170206
KGOK 221907Z AUTO 31010G19KT 10SM FEW022 SCT027 12/05 A2957 RMK AO2 T01170050
KGON 221856Z 08009KT 7SM OVC046 08/03 A3026 RMK AO2 SLP246 T00780028
KGOO 221935Z AUTO 36004KT 10SM CLR 15/08 A3026 RMK AO1
KGOP 221935Z AUTO 30009G15KT 10SM CLR 21/04 A2963 RMK AO2 PWINO
KGOV 221935Z AUTO 10008KT 10SM CLR 01/M04 A2993 RMK AO2 T00051042
KGPH 221935Z AUTO 15003KT 2SM -RA OVC004 06/06 A2947 RMK AO2
KGPI 221855Z 00000KT 10SM OVC060 02/00 A3001 RMK AO2 SLP184 T00220000
KGPM 221850Z 26010G18KT 10SM SKC 18/06 A2960
KGPT 221939Z 16008KT 2SM BR OVC004 19/18 A2975 RMK AO2 T01940183
KGPZ 221935Z AUTO 14006KT 2 1/2SM OVC004 01/00 A2961 RMK AO1
KGRB 221853Z 4SM BR BKN013 BKN050 OVC060 02/00 A2982 RMK AO2 SLP107 T00220000
KGRD 221941Z AUTO 04007KT 3SM -RA BR OVC003 06/04 A3001 RMK AO2 RAB19 P0002 T00560044
KGRF 221858Z 15002KT 10SM OVC150 08/07 A3036 RMK AO2A SLP286 WND DATA ESTMD T00750074 $
KGRI 221853Z 31019G25KT 10SM BKN033 OVC050 07/01 A2947 RMK AO2 PK WND 33031/1818 SLP990 T00720006
KGRK 221858Z AUTO 28009KT 10SM CLR 21/07 A2963 RMK AO2 SLP028 T02130073
KGRR 221853Z 11011KT 8SM OVC060 02/M02 A2990 RMK AO2 SLP134 T00221022
KGRY 221935Z AUTO 23020KT 8SM SCT015 23/21 A2979 RMK A01
KGSB 221942Z AUTO 34009KT 3SM UP BR OVC005 06/06 A3002 RMK AO2 $
KGSH 221932Z AUTO 12010KT 4SM -RA BKN010 BKN041 OVC060 03/M01 A2984 RMK AO2 RAB1857 P0000 T00281006
KGSO 221854Z 05011KT 1 1/2SM -DZ BR BKN003 OVC007 02/01 A3006 RMK AO2 SLP183 P0000 T00170011
KGSP 221853Z 05009KT 3SM BR OVC005 05/04 A3000 RMK AO2 SLP161 T00500044
KGTB 221903Z AUTO 16007KT 10SM BKN024 02/M05 A3018 RMK AO2 BKN V SCT
KGTF 221853Z 28010KT 10SM FEW065 OVC085 04/M05 A2987 RMK AO2 SLP144 T00391050
KGTR 221850Z 15010KT 2SM BR OVC003 12/11 A2976
KGTU 221950Z 27009KT 10SM CLR 22/07 A2961
KGUC 221935Z AUTO 31004KT 1 1/2SM BKN009 OVC016 M02/M06 A2973 RMK AO1
KGUL 221935Z AUTO 9SM FEW017 SCT024 OVC040 23/20 A2974 RMK A01
KGUP 221853Z AUTO 23013KT 10SM CLR 09/02 A2993 RMK AO2 SLP097 T00890022
KGUR 221935Z AUTO 31021G28KT 10SM SCT043 07/M03 A2968 RMK AO2 T00681032
KGUS 221858Z 12010KT 10SM OVC007 03/03 A2982 RMK AO2A SLP109 P0000 T00300030 TSNO $
KGUY 221853Z AUTO 34019G25KT 10SM CLR 10/M03 A2966 RMK AO2 SLP033 T01001033
KGVE 221935Z AUTO 03005KT 2SM BR OVC007 01/00 A3013 RMK AO1 T00060000
KGVL 221937Z AUTO 09012KT 1 1/2SM BR OVC004 06/05 A2996 RMK AO2 T00560050
KGVT 221935Z AUTO 24012G18KT 10SM CLR 19/06 A2956 RMK AO2
KGVX 221935Z AUTO 00000KT 10SM FEW027 21/19 A2971 RMK A01
KGWB 221935Z AUTO 09006KT 5SM HZ BKN020 OVC060 02/M01 A2987 RMK AO2
KGWO 221937Z AUTO 15009KT 10SM OVC011 16/13 A2968 RMK AO2 T01560128
KGWR 221935Z AUTO 10010KT 1/2SM OVC002 04/04 A2945 RMK A01 P000
KGWW 221935Z AUTO 36008KT 1 1/2SM BR OVC003 05/05 A3005 RMK AO2 T00480045
KGXA 221855Z AUTO 26006KT 10SM CLR 15/06 A3016 RMK AO2 SLP217 T01460064 TSNO $
KGXF 221856Z 00000KT 10SM CLR 17/05 A3003 RMK AO2A SLP165 T01710051
KGXY 221935Z AUTO 35016G26KT 10SM FEW060 03/M07 A2967 RMK AO1
KGYB 221935Z AUTO 22007KT 10SM CLR 19/13 A2969 RMK AO2 T01860126
KGYH 221947Z 07010KT 2SM BR OVC005 04/04 A3001
KGYI 221935Z AUTO 31003KT 10SM CLR 16/09 A2958 RMK AO2 T01580089
KGYL 221934Z AUTO 11011KT 4SM -RA OVC007 03/02 A2954 RMK AO2 T00260024
KGYR 221947Z 25005KT 10SM SKC 16/06 A2999
KGYY 221945Z 12010KT 4SM BR BKN011 OVC060 04/01 A2975
KGZH 221853Z AUTO 14005KT 10SM OVC005 16/14 A2980 RMK AO2 LTG DSNT N SLP091 T01560139
KGZL 221915Z AUTO 28004KT 9SM OVC029 11/08 A2956 RMK AO2
KH21 221935Z AUTO 14009G14KT 10SM BKN008 OVC012 08/07 A2951 RMK AO2
KHAE 221935Z AUTO 14005KT 3SM BR OVC004 06/05 A2955 RMK AO2
KHAF 221935Z AUTO 01007KT 6SM BR OVC012 16/14 A3027 RMK AO2
KHAI 221935Z AUTO 12008KT 7SM -DZ OVC044 03/M01 A2986 RMK AO2 T00281010
KHAO 221853Z AUTO 11005KT 10SM CLR 10/03 A2988 RMK AO2 SLP123 T01000028
KHBG 221948Z AUTO 14009KT 10SM OVC009 20/17 A2973 RMK AO2 RAB16E28 P0000
KHBI 221935Z AUTO 03007KT 1 3/4SM BR OVC004 02/02 A3006 RMK AO2 T00220022
KHBR 221853Z AUTO 35021G25KT 10SM CLR 14/01 A2961 RMK AO2 PK WND 01026/1843 SLP023 T01440011
KHBV 221935Z AUTO 15004KT 7SM CLR 23/13 A2970 RMK AO2 T02330132 PWINO
KHCD 221933Z AUTO 11011G16KT 4SM -RA OVC006 03/03 A2954 RMK AO2 P0001 T00260025
KHCO 221935Z AUTO 07008KT 3SM BR OVC016 02/01 A2958 RMK AO2
KHDE 221935Z AUTO 32015G25KT 10SM SCT050 09/M01 A2949 RMK AO2 T00851012
KHDN 221915Z AUTO 28018G23KT 10SM FEW030 BKN039 OVC050 00/M04 A2976 RMK AO1
KHDO 221851Z AUTO 25008KT 10SM CLR 19/11 A2973 RMK AO2 SLP058 T01890111
KHEF 221845Z 01007KT 1 1/2SM BR OVC007 02/01 A3019
KHEI 221937Z AUTO 31019G30KT 2SM -SN FEW012 BKN032 OVC045 M03/M06 A2953 RMK AO2 PK WND 31032/1900 P0000 T10281056
KHEQ 221935Z AUTO 32016G24KT 10SM CLR 06/M03 A2962 RMK AO2
KHEY 221853Z AUTO 10006KT 10SM OVC002 12/11 A2987 RMK AO2 RAE06 SLP101 P0000 T01170111
KHEZ 221935Z AUTO 18008KT 10SM BKN010 OVC020 19/16 A2968 RMK AO1
KHFD 221853Z 33007KT 10SM FEW025 OVC046 05/01 A3028 RMK AO2 SLP253 T00500006
KHFF 221859Z AUTO 05006G12KT 3SM BR OVC003 04/04 A3003 RMK AO2 PRESFR
KHFJ 221935Z AUTO 19008KT 2 1/2SM DZ OVC007 08/08 A2949 RMK AO2 VIS 1 1/2V4 P0001
KHGR 221912Z 33004KT 2 1/2SM -RA BKN029 BKN034 OVC050 01/M03 A3017 RMK AO2 UPB1855E1858 P0000 T00111028
KHHF 221935Z AUTO 33017G23KT SCT110 13/M01 A2964 RMK AO2 T01301011 PWINO
KHHG 221935Z AUTO 09004KT 7SM OVC019 02/01 A2984 RMK AO2 T00220009
KHHR 221853Z 00000KT 5SM HZ CLR 20/10 A3004 RMK AO2 SLP171 T02000100
KHHV 221935Z AUTO 22011G19KT 10SM CLR 23/20 A2974 RMK A01
KHHW 221935Z AUTO 29010KT 10SM BKN034 19/09 A2954 RMK AO2 T01900091
KHIB 221933Z AUTO 14008KT 4SM -SN BR OVC003 02/00 A2964 RMK AO2 UPB1858E19SNE1858B19 P0000 T00170000
KHIE 221852Z AUTO 00000KT 10SM OVC037 01/M02 A3030 RMK AO2 SLP277 T00111017
KHIF 221932Z 27010KT 10SM SCT019 BKN026 BKN036 05/03 A2999 RMK AO2A
KHII 221935Z AUTO 20003KT 10SM CLR 16/07 A2999 RMK AO2
KHIO 221900Z 00000KT 10SM BKN007 OVC025 11/09 A3038 RMK AO2 CIG 004V012 T01060089
KHJH 221935Z AUTO 33015G21KT 10SM SCT029 BKN038 OVC049 08/02 A2946 RMK AO2 T00780019
KHJO 221932Z AUTO 32005KT 2 1/2SM BR OVC005 14/13 A3026 RMK AO2 T01390128
KHKA 221944Z AUTO 17016G23KT 10SM SCT014 BKN050 OVC055 14/11 A2963 RMK AO2 T01390111
KHKS 221853Z 12007KT 2SM BR OVC004 15/14 A2972 RMK AO2 SLP056 T01500139
KHKY 221942Z 05007KT 4SM BR OVC004 04/03 A3003 RMK AO2 T00390028
KHLC 221853Z AUTO 31013G23KT 10SM CLR 11/M02 A2957 RMK AO2 PK WND 30029/1758 SLP016 T01061017
KHLG 221853Z 14009KT 10SM CLR 10/00 A2998 RMK AO2 SLP165 T01000000
KHLN 221853Z 29007KT 260V340 10SM OVC050 04/M05 A2992 RMK AO2 SLP163 T00391050
KHLR 221858Z AUTO 28012G19KT 10SM CLR 22/06 A2962 RMK AO2 SLP023 T02190059
KHLX 221935Z AUTO 04004KT 3/4SM BR OVC003 02/02 A3000 RMK AO2 T00200018
KHMN 221858Z AUTO 26008KT 10SM CLR 16/00 A2981 RMK AO2 SLP065 T01610004 $
KHNB 221935Z AUTO 13012KT 10SM BKN029 10/06 A2976 RMK AO1
KHND 221856Z 24007KT 10SM CLR 19/04 A3006 RMK AO2 SLPNO T01890044
KHNR 221935Z AUTO 15008KT 10SM OVC009 06/06 A2945 RMK AO2
KHNZ 221935Z AUTO 01006KT 2SM BR OVC003 02/02 A3007 RMK AO2 T00240016
KHOB 221950Z 36009KT 10SM SKC 14/00 A2973
KHOE 221935Z AUTO 09004KT 10SM VCTS OVC002 13/13 A2991 RMK AO2
KHON 221855Z AUTO 31006KT 6SM BR OVC007 01/M01 A2941 RMK AO2 SLP968 T00111006
KHOP 221950Z AUTO 14009KT 10SM OVC022 12/08 A2972 RMK AO2 CIG 018V025
KHOT 221853Z AUTO 16006KT 3SM BR OVC004 12/11 A2959 RMK AO2 SLP019 T01170106
KHOU 221853Z 23013G21KT 10SM SCT025 BKN250 23/16 A2968 RMK AO2 SLP055 T02280161
KHPN 221856Z 11007KT 10SM BKN015 BKN020 06/02 A3022 RMK AO2 SLP239 T00560017
KHQI 221935Z AUTO 21021KT 10SM OVC039 24/20 A2974 RMK A01
KHQM 221853Z AUTO 00000KT 5SM BR CLR 08/07 A3036 RMK AO2 SLP284 T00830072
KHQU 221935Z AUTO 05006KT 7SM OVC007 09/09 A3002 RMK AO1 T00850085
KHQZ 221850Z 23009G15KT 10SM CLR 19/6 A2957
KHRI 221853Z AUTO 27008KT 10SM CLR 11/04 A3031 RMK AO2 SLP263 T01060039
KHRJ 221935Z AUTO 01004KT 5SM BR OVC005 05/05 A3002 RMK AO2 T00500046
KHRL 221852Z 19015G19KT 10SM CLR 26/18 A2971 RMK AO2 SLP059 T02560183
KHRO 221923Z AUTO 15010KT 9SM BKN005 OVC012 09/08 A2953 RMK AO2 CIG 004V007 T00890083
KHRT 221944Z AUTO 13008KT 10SM BKN022 BKN030 OVC048 19/15 A2980 RMK AO2 RAB1859E1908 CIG 022V030 BKN022 V SCT $
KHRX 221935Z AUTO 00000KT 10SM BKN065 OVC080 11/M01 A2973 RMK AO2 T01051007
KHSA 221850Z 13006KT 3SM BR BKN007 OVC011 19/17 A2976
KHSB 221935Z AUTO 14009KT 5SM -RA OVC013 10/09 A2968 RMK AO2 P0003 T00960094
KHSE 221921Z AUTO 31007KT 8SM BKN020 BKN050 OVC060 14/13 A2994 RMK AO2 T01390133 TSNO $
KHSI 221853Z AUTO 32020G27KT 10SM FEW032 OVC044 08/00 A2948 RMK AO2 PK WND 31027/1853 SLP987 T00780000
KHSP 221935Z AUTO 11005KT M1/4SM -SN OVC001 M01/M01 A2996 RMK AO2 T10081008
KHST 221858Z AUTO 17008KT 10SM FEW027 28/20 A2996 RMK AO2 SLP149 T02800200 $
KHSV 221933Z 13011KT 10SM SCT007 BKN013 OVC033 11/10 A2979 RMK AO2
KHTL 221853Z AUTO 10011KT 10SM CLR 00/M04 A2994 RMK AO2 SLP154 T00001044
KHTS 221851Z 00000KT 10SM CLR 14/03 A2989 RMK AO2 SLP125 T01390033
KHUA 221858Z AUTO 12006KT 10SM OVC007 10/09 A2982 RMK AO2 SLP099 P0004
KHUF 221934Z 14010KT 10SM BKN028 BKN032 OVC039 08/05 A2973 RMK AO2 T00830050
KHUL 221932Z AUTO 11003KT 10SM SCT018 BKN026 OVC044 M01/M04 A3038 RMK AO2 T10111044
KHUM 221847Z 20012G20KT 7SM BKN018 24/20 A2975 RMK RY12/30 CLSD ATIS E ILS RY/18 MS
KHUT 221852Z 32016KT 10SM BKN030 BKN039 BKN046 12/03 A2954 RMK AO2 SLP997 T01170033
KHVN 221934Z 02005KT 10SM BKN020 BKN025 OVC047 08/02 A3025 RMK AO2 T00780022
KHVR 221853Z AUTO 23009KT 10SM CLR 02/M02 A2985 RMK AO2 SLP131 T00171022
KHVS 221935Z AUTO 04006KT 1 3/4SM OVC003 06/06 A3002 RMK AO2
KHWD 221854Z 27006KT 10SM OVC015 15/13 A3028 RMK AO2 SLP264 T01500133
KHWO 221853Z 17009KT 10SM CLR 28/18 A2997 RMK AO2 SLP147 T02830183
KHWV 221856Z AUTO VRB03KT 10SM OVC013 07/04 A3025 RMK AO2 SLP242 T00720039 TSNO
KHWY 221935Z AUTO 03005KT 1 1/4SM RA OVC008 02/02 A3016 RMK AO2 P0002 T00150015
KHXD 221923Z 04003KT 3/4 SM +RA OVC002 10/10 A2997
KHYA 221856Z 10007KT 10SM OVC040 08/03 A3029 RMK AO2 SLP258 T00780033
KHYI 221950Z 22013G16KT 10SM CLR 21/12 A2964
KHYR 221941Z AUTO 15007G15KT 2SM BR OVC006 02/00 A2968 RMK AO2 T00170000
KHYS 221935Z AUTO 33014G25KT 10SM FEW055 12/M03 A2955 RMK AO1
KHYW 221935Z AUTO 33003KT 10SM RA OVC005 07/07 A3003 RMK AO2
KHYX 221935Z AUTO 08007KT 10SM BKN110 03/M02 A2996 RMK AO2
KHZE 221935Z AUTO 01009KT 10SM OVC008 M01/M02 A2955 RMK AO2
KHZL 221935Z AUTO 11006KT 10SM CLR 02/M02 A3017 RMK AO2
KHZR 221935Z AUTO 20006KT 10SM SCT014 OVC022 21/18 A2969 RMK AO2 T02140179
KHZX 221927Z AUTO 12007KT 2 1/2SM OVC005 01/01 A2962 RMK AO2
KHZY 221853Z AUTO 14008KT 10SM CLR 05/M01 A3002 RMK AO2 SLP173 T00501011
KI16 221935Z AUTO 10SM CLR 13/06 A2997 RMK AO2 T01270060
KI35 221935Z AUTO 11007KT 090V160 10SM OVC100 13/05 A2985 RMK AO1
KI39 221935Z AUTO 10005KT 10SM SCT036 OVC100 13/05 A2982 RMK AO2
KI67 221935Z AUTO 11005KT 10SM SCT037 BKN110 09/02 A2984 RMK AO1
KI69 221934Z AUTO 12005KT 10SM CLR 11/03 A2986 RMK AO1
KI75 221935Z AUTO 12008KT 3SM -DZ OVC006 05/04 A2947 RMK AO2 T00510043
KIAB 221933Z AUTO 33011KT 10SM SCT023 BKN030 09/04 A2954 RMK AO2 CIG 023 RWY19
KIAD 221947Z 02005KT 1 1/2SM R01R/4500VP6000FT -RA BR OVC008 01/M01 A3017 RMK AO2 RAE05B38DZB15E38FZDZB05E15 P0004
KIAG 221853Z 15004KT 10SM FEW120 FEW200 03/M04 A3009 RMK AO2 SLP202 T00331039
KIAH 221853Z 22010G17KT 10SM SCT027 BKN250 22/15 A2967 RMK AO2 SLP046 T02220150
KIBM 221935Z AUTO 31015G22KT 10SM CLR 02/M03 A2962 RMK AO2 T00151027
KICL 221935Z AUTO 14006KT 7SM BKN008 OVC012 06/06 A2944 RMK AO2
KICR 221853Z AUTO 29012KT 10SM -RA FEW013 SCT018 OVC025 03/01 A2946 RMK AO2 RAE14B32UPB22E25SNB14E22 SLP987 P0001 T00280011
KICT 221926Z 33013KT 10SM SCT027 OVC035 10/04 A2954 RMK AO2 T01000039
KIDA 221853Z 22010KT 10SM FEW010 BKN110 03/M01 A2996 RMK AO2 SLP160 T00331011
KIDI 221935Z AUTO 14010KT 10SM OVC039 05/M02 A3009 RMK A01
KIDP 221935Z AUTO 26006KT 7SM -RA BKN009 OVC015 09/08 A2950 RMK AO2
KIEN 221852Z AUTO 28021G29KT 10SM BKN075 OVC085 06/M04 A2953 RMK AO2 PK WND 28029/1851 SLP009 T00611044
KIER 221935Z AUTO 19009G15KT 10SM SCT016 BKN023 OVC040 19/16 A2962 RMK AO2 T01930162
KIFA 221935Z AUTO 11012KT 4SM -RA OVC004 03/02 A2953 RMK AO2 T00250017
KIFP 221745Z AUTO 36003KT 10SM CLR 13/07 A3008 RMK AO2
KIGM 221851Z AUTO 36008KT 10SM CLR 17/02 A3007 RMK AO2 SLP149 T01720022
KIGQ 221935Z AUTO 12007KT 4SM DZ BKN010 BKN035 OVC041 03/02 A2975 RMK AO2 T00310020
KIGX 221856Z AUTO 03007KT 3SM BR OVC005 03/02 A3006 RMK AO2 SLP182 T00280017
KIIB 221935Z AUTO 11010KT 2 1/2SM -RA OVC006 02/02 A2957 RMK AO2
KIIY 221935Z AUTO 06004KT 4SM HZ OVC005 07/ A2997 RMK AO2
KIJD 221942Z AUTO 07009KT 10SM BKN022 07/02 A3028 RMK AO2 T00720017
KIJX 221935Z AUTO 15009KT 10SM OVC006 08/06 A2959 RMK AO2 T00750062
KIKK 221935Z AUTO 11011KT 2 1/2SM -RA OVC006 03/03 A2973 RMK AO2 P0004 T00310025
KIKT 221935Z AUTO 23011G16KT 10SM CLR 25/21 A2979 RMK A01
KIKV 221935Z AUTO 13008KT 3SM BR OVC006 04/04 A2950 RMK AO2
KIKW 221934Z AUTO 06009KT 10SM BKN110 02/M02 A2995 RMK AO2 T00211022
KILE 221935Z AUTO 23008KT 10SM CLR 22/08 A2959 RMK AO1
KILG 221851Z 05004KT 8SM OVC040 05/01 A3022 RMK AO2 SLP235 T00500006
KILM 221934Z 32009KT 10SM OVC005 08/07 A3000 RMK AO2 T00830072
KILN 221854Z AUTO 11005KT 10SM CLR 08/03 A2990 RMK AO2 SLP146 T00830028
KIML 221853Z AUTO 31025G31KT 10SM CLR 07/M04 A2960 RMK AO2 PK WND 30032/1831 SLP031 T00721044
KIMM 221935Z AUTO 22006KT 6SM CLR 29/20 A2995 RMK A01 P000
KIMT 221932Z AUTO 13009KT 2SM BR OVC003 01/00 A2981 RMK AO2 T00110000
KIND 221854Z 12008KT 10SM BKN023 BKN028 OVC037 05/02 A2980 RMK AO2 SLP097 T00500017
KINF 221935Z AUTO 18009G15KT 10SM SCT017 BKN038 25/20 A2990 RMK AO2 LTG DSNT N
KINJ 221935Z AUTO 28010G18KT 10SM CLR 21/06 A2958 RMK AO2 T02060057
KINK 221853Z AUTO 28011KT 10SM CLR 23/M02 A2972 RMK AO2 SLP032 T02281017
KINL 221855Z AUTO 12007KT 10SM OVC006 01/01 A2964 RMK AO2 RAE16UPB02E04 SLP050 P0000 T00110006
KINS 221858Z AUTO 34002KT 10SM CLR 15/05 A3011 RMK AO2 SLP175 T01530045
KINT 221904Z 05008G14KT 1 3/4SM BR OVC004 02/01 A3007 RMK AO2 T00220006
KINW 221856Z AUTO 29006KT 10SM CLR 14/03 A2997 RMK AO2 PRESFR SLP130 T01390028
KIOB 221935Z AUTO 11006KT 10SM BKN039 OVC100 12/05 A2987 RMK AO2
KIOW 221941Z AUTO 11006KT 3SM -RA BR OVC006 03/03 A2959 RMK AO2 CIG 005V009 P0001 T00330033
KIPJ 221935Z AUTO 04005KT 1 3/4SM BR OVC004 03/03 A3005 RMK AO2 T00280026
KIPL 221853Z AUTO 00000KT 10SM CLR 19/09 A3002 RMK AO2 SLP164 T01890089
KIPN 221935Z AUTO 23013KT 10SM CLR 24/21 A2981 RMK A01
KIPT 221854Z 00000KT 10SM SCT020 OVC041 02/M04 A3019 RMK AO2 SLP232 T00171039
KIRK 221923Z AUTO 14009KT 2 1/2SM BR OVC004 05/05 A2952 RMK AO2 RAE02 P0000 T00500050
KIRS 221934Z AUTO 13010KT 7SM -DZ SCT060 BKN065 03/M01 A2985 RMK AO2
KISM 221850Z 16008KT 10SM BKN027 25/21 A2994
KISN 221852Z AUTO 34015KT 10SM OVC011 M03/M06 A2962 RMK AO2 SLP055 T10281056
KISO 221856Z AUTO 35005KT 2SM BR OVC006 07/07 A3004 RMK AO2
KISP 221856Z 07008KT 10SM FEW019 BKN025 OVC040 07/03 A3022 RMK AO2 SLP233 T00720033
KISQ 221935Z AUTO 11009KT 7SM OVC044 02/M01 A2992 RMK AO2 T00151007
KISW 221854Z AUTO 13008KT 8SM BKN039 BKN050 OVC060 03/M01 A2975 RMK AO2 SLP085 T00281011
KITH 221856Z 13008KT 10SM FEW019 03/M03 A3015 RMK AO2 T00271027 SLP221
KITR 221853Z AUTO 33017G24KT 10SM CLR 07/M06 A2965 RMK AO2 SLP033 T00721061
KIWA 221847Z 00000KT 35SM FEW200 14/06 A3004
KIWD 221935Z AUTO 13007G15KT 5SM OVC008 01/00 A2969 RMK AO1
KIWI 221853Z AUTO VRB03KT 10SM FEW019 FEW055 05/00 A3038 RMK AO2 SLP289 T00500000
KIXA 221935Z AUTO 02007KT 2 1/2SM RA OVC003 03/03 A3006 RMK AO2
KIXD 221853Z 19007KT 2 1/2SM BR OVC002 07/07 A2948 RMK AO2 RAE02B06E19 SLP983 P0000 T00670067
KIYA 221935Z AUTO 21017G23KT 10SM BKN025 BKN032 24/18 A2970 RMK AO2 T02380177 TSNO
KIZA 221935Z AUTO 35012KT 10SM CLR 23/06 A3006 RMK AO2
KIZG 221854Z AUTO 00000KT 10SM OVC044 01/M04 A3037 RMK AO2 SLP290 T00061039
KJAC 221851Z 25011KT 10SM VCBR FEW027 SCT037 BKN042 M01/M07 A2987
KJAN 221854Z 14004KT 2 1/2SM BR OVC003 15/14 A2972 RMK AO2 SLP062 T01500139
KJAS 221935Z AUTO 19017G24KT 10SM SCT030 22/15 A2963 RMK AO2 T02180148
KJAX 221947Z 10007KT 2SM +RA BR FEW006 BKN014 OVC027 20/20 A2987 RMK AO2 TWR VIS 3 P0010 T02000200
KJBR 221924Z AUTO 18012KT 4SM -RA BR OVC003 11/11 A2962 RMK AO2 RAB13 P0000 T01110111
KJCT 221851Z AUTO 00000KT 10SM CLR 21/06 A2968 RMK AO2 SLP023 T02060056
KJDD 221935Z AUTO 21010G17KT 10SM FEW035 20/09 A2956 RMK AO2
KJDN 221948Z AUTO 32026G32KT 02/M03 A2974 RMK AO1 PK WND 32032/1947 SLP093 T00221028
KJEF 221853Z 14006KT 8SM -RA FEW010 OVC013 09/07 A2955 RMK AO2 SLP997 P0002 T00890072
KJER 221931Z AUTO 25027G37KT 10SM BKN012 06/02 A3007 RMK AO2 PK WND 25038/1918 T00560022
KJES 221935Z AUTO 09006KT 10SM OVC004 12/12 A2993 RMK AO2
KJFK 221851Z 06005KT 10SM FEW010 BKN015 OVC110 08/03 A3023 RMK AO2 SLP235 T00830033 $
KJFX 221935Z AUTO 00000KT 4SM -RA BKN005 12/12 A2979 RMK A02 P-128
KJFZ 221935Z AUTO 11006KT 10SM CLR 10/03 A2990 RMK AO2 T01010028
KJGG 221935Z AUTO 04005KT 1 1/2SM OVC005 07/07 A3010 RMK AO1 P0001
KJHW 221935Z 12007KT 10SM OVC039 02/M04 A3002 RMK AO1
KJKA 221935Z AUTO 13015G20KT 10SM BKN016 BKN022 BKN027 21/18 A2978 RMK AO2 T02140179
KJKJ 221931Z AUTO 12008KT 10SM OVC009 05/05 A2951 RMK AO2
KJKL 221853Z AUTO 00000KT 10SM OVC040 13/04 A2988 RMK AO2 SLP118 T01280039
KJLN 221925Z 21009KT 3SM BR OVC007 09/09 A2950 RMK AO2 RAE22 CIG 005V010 P0000 T00940089
KJMR 221925Z AUTO 11006KT 1 3/4SM OVC004 00/00 A2963 RMK AO2
KJMS 221920Z AUTO 04008KT 1/2SM -SN FG VV003 01/01 A2945 RMK AO2 P0000 T00110006
KJNX 221935Z AUTO 03007KT 3SM BR OVC006 05/05 A3004 RMK AO2
KJOT 221935Z AUTO 11010KT 3SM -RA OVC007 02/02 A2972 RMK AO2 T00230015
KJQF 221855Z 02008KT 2SM BR OVC003 04/03 A3008
KJSO 221935Z AUTO 24009G15KT 10SM SCT031 20/11 A2961 RMK AO2 T02050116
KJST 221949Z AUTO 14004KT 6SM HZ SCT009 OVC070 M01/M05 A3003 RMK AO2
KJSV 221935Z AUTO 00000KT 5SM BR SCT018 BKN024 BKN029 11/10 A2955 RMK AO2
KJVL 221845Z 11010G15KT 3SM -RABR OVC024 02/01 A2973 RMK SNE32RAB32
KJVW 221935Z AUTO 15006KT 7SM OVC006 17/14 A2969 RMK AO2
KJWG 221935Z AUTO 33017G22KT 10SM CLR 13/04 A2959 RMK AO2 T01340037
KJWY 221935Z AUTO 27012G18KT 10SM CLR 19/06 A2958 RMK AO2 T01900060
KJXN 221856Z 12010KT 9SM FEW040 FEW065 OVC095 03/M02 A2993 RMK AO2 SLP144 T00281022
KJYG 221922Z AUTO 12013G18KT 7SM OVC006 04/03 A2951 RMK AO2
KJYL 221935Z AUTO 08005KT 10SM -DZ OVC005 08/08 A2995 RMK AO2 LTG DSNT E AND S T00810081
KJYM 221934Z AUTO 12009KT 10SM SCT060 OVC090 03/M01 A2988 RMK AO2 T00321006
KJYO 221935Z AUTO 03005KT 2 1/2SM UP BKN007 OVC028 01/01 A3018 RMK AO2 P0001
KJYR 221935Z AUTO 32015G22KT 10SM BKN028 OVC034 07/03 A2944 RMK AO2
KJZI 221935Z AUTO 35008KT 1/4SM +TSRA OVC003 04/ A2999 RMK A02 LTG DSNT ALQDS P000
KKLS 221935Z 00000KT 10SM FEW006 11/08 A3040 RMK AO1
KL18 221935Z AUTO 00000KT 10SM CLR 21/10 A3002 RMK AO2
KL35 221935Z AUTO 35012G19KT 10SM CLR 14/M07 A3028 RMK AO2
KL38 221935Z AUTO 21010G15KT 180V250 10SM SCT025 SCT031 SCT043 25/19 A2970 RMK AO2 T02460189
KLAA 221853Z AUTO 10SM CLR 07/M02 A2968 RMK AO2 SLP042 T00671022
KLAF 221932Z 13009KT 5SM BR SCT009 OVC016 04/03 A2976 RMK AO2 T00440033
KLAL 221850Z 18005KT 12SM BKN025 OVC038 25/21 A2993
KLAM 221935Z AUTO 26014G23KT 10SM SCT032 BKN039 OVC055 08/M02 A2976 RMK AO2 T00771018
KLAN 221853Z 11010KT 8SM OVC095 03/M02 A2993 RMK AO2 SLP146 T00331022
KLAR 221948Z AUTO 33017G24KT 1/2SM -SN FZFG VV015 M05/M07 A2966 RMK AO2 PK WND 33029/1929 P0001
KLAS 221856Z VRB03KT 10SM CLR 16/05 A3001 RMK AO2 SLP156 T01560050
KLAW 221853Z 35017G21KT 10SM CLR 15/03 A2959 RMK AO2 SLP018 T01500033
KLAX 221853Z 00000KT 8SM FEW010 SCT180 19/11 A3004 RMK AO2 SLP171 T01940106
KLBB 221853Z 01009KT 10SM FEW070 SCT220 BKN300 14/00 A2973 RMK AO2 SLP040 T01390000
KLBE 221945Z 11009KT 080V140 10SM BKN080 05/M02 A3004
KLBF 221853Z AUTO 30019G26KT 10SM CLR 08/M03 A2954 RMK AO2 PK WND 30030/1831 SLP015 T00831033
KLBL 221935Z AUTO 36015G21KT 10SM FEW042 10/M01 A2967 RMK AO1
KLBT 221854Z AUTO 01011KT 7SM OVC005 07/05 A3004 RMK AO2 SLP171 T00670050
KLBX 221853Z AUTO 23013G20KT 10SM CLR 23/17 A2970 RMK AO2 PK WND 22026/1825 SLP055 T02280167
KLCG 221935Z AUTO 31009KT 3SM DZ BKN007 OVC014 05/04 A2941 RMK AO2 P0002 T00510042
KLCH 221853Z 23010G15KT 10SM FEW026 22/17 A2969 RMK AO2 SLP060 T02220172
KLCI 221935Z AUTO 03005KT 10SM OVC046 02/M03 A3033 RMK AO1
KLCK 221935Z AUTO 09005KT 10SM CLR 09/02 A2992 RMK AO2 T00870021
KLCQ 221935Z AUTO 17005KT 7SM OVC005 20/20 A2987 RMK AO2 LTG DSNT NE
KLDJ 221955Z AUTO 05004KT 10SM OVC012 08/04 A3025 RMK AO2 T00760044
KLDM 221935Z AUTO 11007KT 10SM OVC080 03/M02 A2987 RMK AO2 T00261023
KLEB 221853Z 00000KT 9SM FEW018 OVC038 01/M03 A3032 RMK AO2 SLP276 T00111028
KLEE 221928Z 18008KT 10SM SCT025 SCT030 BKN043 24/19 A2991 RMK AO2 T02390194
KLEW 221935Z AUTO 36003KT 10SM OVC047 01/M03 A3038 RMK AO1
KLEX 221854Z 12005KT 10SM CLR 11/04 A2986 RMK AO2 SLP114 T01110039
KLFI 221947Z AUTO 02009KT 2SM BR OVC004 07/06 A3007 RMK AO2 VIS 2V2 1/2 RAE1932DZB1932 $
KLFK 221853Z AUTO 20016G21KT 10SM FEW026 22/13 A2962 RMK AO2 SLP026 T02170133
KLFT 221853Z 21013KT 10SM SCT025 BKN034 23/18 A2970 RMK AO2 SLP056 T02330178
KLGA 221851Z 04013KT 10SM FEW012 OVC016 05/03 A3023 RMK AO2 SLP235 T00500028
KLGB 221853Z 00000KT 4SM HZ CLR 19/12 A3003 RMK AO2 SLP170 T01940122
KLGC 221935Z AUTO 10007KT 7SM OVC004 11/11 A2987 RMK AO2 LTG DSNT SW T01120105
KLGD 221935Z AUTO 31013KT 10SM FEW033 SCT045 BKN050 07/M02 A3025 RMK AO1
KLGU 221851Z AUTO 33012KT 10SM OVC040 05/01 A2999 RMK AO2 SLP153 T00500006
KLHB 221935Z AUTO 23005KT 10SM CLR 21/10 A2962 RMK AO2 T02070097
KLHM 221935Z AUTO 31007KT 10SM OVC004 06/06 A3024 RMK AO1
KLHQ 221853Z AUTO 11006KT 10SM FEW050 17/02 A2994 RMK AO2 PRESFR SLP141 T01720017
KLHW 221908Z AUTO 13005KT 3SM -RA BR FEW016 BKN023 OVC028 10/09 A2995 RMK AO2 BKN V OVC
KLHX 221853Z AUTO 00000KT 10SM OVC100 07/M04 A2971 RMK AO2 SLP047 T00671044
KLHZ 221935Z AUTO 01007KT 2 1/2SM BR OVC005 02/02 A3006 RMK AO2
KLIC 221855Z AUTO 30007KT 10SM FEW065 FEW100 01/M04 A2968 RMK AO2 SLP055 T00111039
KLIT 221853Z 15006KT 6SM BR OVC010 13/10 A2961 RMK AO2 SLP029 T01280100
KLJF 221933Z AUTO 12012KT 3SM -DZ OVC004 02/02 A2954 RMK AO2
KLKR 221935Z AUTO 02006KT 1 1/2SM RA OVC003 04/04 A3002 RMK AO2
KLKU 221935Z AUTO 01007KT 2SM UP OVC006 01/01 A3011 RMK AO2 P0001
KLKV 221935Z 28007KT 10SM SCT024 OVC032 09/05 A3032 RMK AO1
KLLJ 221855Z AUTO 05005KT 10SM OVC065 02/M03 A3001 RMK AO2 SNE1759 SLP170 P0000 T00221028
KLLQ 221948Z AUTO 16006KT 8SM OVC006 14/12 A2961 RMK AO2
KLMO 221935Z AUTO 07005KT 10SM SCT023 BKN039 OVC065 05/M04 A2971 RMK AO2 T00451040
KLMT 221853Z 27016KT 10SM CLR 11/07 A3031 RMK AO2 SLP251 T01060072
KLNC 221935Z AUTO 29012G15KT 10SM CLR 19/04 A2958 RMK AO2 T01880044
KLND 221853Z AUTO 28004KT 10SM OVC100 01/M06 A2980 RMK AO2 SLP108 T00061056
KLNK 221936Z 32010KT 10SM OVC020 07/04 A2944 RMK AO2 T00720039
KLNL 221935Z AUTO 16006KT 2 1/2SM BR OVC004 01/00 A2976 RMK AO2 T00060002
KLNP 221935Z AUTO 18005KT 10SM SCT080 12/03 A2989 RMK AO2
KLNR 221856Z AUTO 09012KT 5SM -RA BKN018 OVC032 04/00 A2971 RMK AO2 RAE10B29 SLP063 P0000 T00390000
KLNS 221853Z 00000KT 9SM OVC037 03/M02 A3020 RMK AO2 SLP231 T00281017
KLOL 221853Z AUTO 19003KT 10SM BKN060 12/05 A3027 RMK AO2 SLP239 T01220050
KLOM 221935Z AUTO 06004KT 10SM SCT022 SCT090 07/01 A3019 RMK AO1
KLOR 221937Z AUTO 12005KT 10SM OVC005 13/12 A2983 RMK AO2 T01280117 TSNO $
KLOT 221935Z AUTO 11008KT 2 1/2SM -RA OVC008 03/02 A2972 RMK AO2 P0001 T00250022
KLOU 221904Z 15007KT 10SM SCT027 12/06 A2981 RMK AO2 T01170056
KLOZ 221853Z AUTO 14009KT 10SM OVC100 14/06 A2985 RMK AO2 SLP108 T01440056
KLPC 221935Z AUTO 36014G19KT 10SM CLR 22/11 A3011 RMK AO1
KLPR 221853Z AUTO 17008KT 8SM CLR 04/M01 A2998 RMK AO2 SLP160 T00441006 TSNO
KLQK 221955Z AUTO 7SM OVC008 06/06 A2998 RMK AO2 T00580059
KLRD 221855Z VRB04KT 10SM SKC 21/13 A2973
KLRF 221943Z AUTO 15005KT 10SM OVC007 12/12 A2958 RMK AO2
KLRJ 221935Z AUTO 16007KT 4SM BR OVC006 05/05 A2941 RMK AO2
KLRO 221955Z AUTO 35003KT 1 1/4SM +RA OVC002 09/09 A2998 RMK AO2 P0106
KLRU 221935Z AUTO 27016G20KT 10SM CLR 16/00 A2986 RMK AO2 T01600004
KLSB 221935Z AUTO 28011KT 10SM CLR 13/01 A2992 RMK AO2
KLSE 221853Z 13009KT 9SM BKN018 OVC039 05/01 A2967 RMK AO2 SLP055 T00500006
KLSF 221941Z AUTO 05004KT 10SM -RA OVC005 11/10 A2987 RMK AO2 RAB1907DZB1931E1933
KLSV 221858Z AUTO 00000KT 10SM CLR 14/06 A3004 RMK AO2 SLP168 T01410058 $
KLTS 221858Z AUTO 35014KT 10SM FEW120 15/01 A2964 RMK AO2 PK WND 35026/12 SLP035 T01490013 $
KLUA 221935Z AUTO 03005KT 1 1/4SM +DZ OVC004 01/01 A3013 RMK AO2
KLUD 221935Z AUTO 27008G14KT 10SM CLR 14/07 A2960 RMK AO2 T01380070
KLUF 221858Z AUTO 19004KT 10SM CLR 15/06 A3000 RMK AO2 SLP157 T01460063 $
KLUK 221853Z 13005KT 10SM CLR 11/03 A2989 RMK AO2 SLP123 T01060028
KLUM 221935Z AUTO 10008KT 4SM BR OVC016 04/02 A2966 RMK AO2 T00360017
KLUX 221935Z AUTO 03006KT 1SM BR OVC003 04/04 A3001 RMK AO2
KLVJ 221853Z AUTO 22013G23KT 10SM CLR 23/16 A2969 RMK AO2 SLP055 T02330156
KLVK 221853Z 05007KT 10SM OVC013 16/12 A3028 RMK AO2 SLP252 T01610122
KLVL 221935Z AUTO 00000KT 2 1/2SM OVC004 03/03 A3007 RMK AO1 T00300028
KLVM 221853Z AUTO 25017G26KT 10SM OVC060 02/M06 A2987 RMK AO2 PK WND 24026/1817 SLP132 T00171061
KLVN 221924Z AUTO 12009KT 2 1/2SM -RA OVC008 01/01 A2959 RMK AO2 P0001
KLVS 221853Z AUTO 30022G34KT 10SM CLR 12/M06 A2969 RMK AO2 PK WND 30042/1804 SLP996 T01171061
KLWA 221935Z AUTO 11010KT 5SM -DZ BKN042 BKN050 OVC070 03/00 A2982 RMK AO2 T00251005
KLWB 221935Z AUTO 08003KT 7SM OVC008 03/01 A3002 RMK AO2 T00310013
KLWC 221852Z AUTO 22007KT 5SM -RA BR OVC007 08/07 A2947 RMK AO2 SLP982 P0002 T00780067
KLWD 221944Z AUTO 15009KT 6SM -RA BR OVC005 05/04 A2946 RMK AO2 P0002 T00500044
KLWM 221854Z 03006KT 10SM OVC012 04/02 A3036 RMK AO2 RAE37 SLP281 P0000 T00440017
KLWS 221856Z AUTO 29018G23KT 10SM CLR 09/M01 A3021 RMK AO2 PK WND 29027/1826 RAE35 SLP233 P0000 T00891006
KLWT 221854Z AUTO 30016G26KT 10SM FEW070 OVC080 03/M06 A2983 RMK AO2 PK WND 30026/1847 SLP116 T00281056
KLWV 221906Z AUTO 15013KT 6SM -RA BKN024 BKN033 OVC065 10/07 A2974 RMK AO2 RAB00 P0000 T01000072
KLXL 221939Z AUTO 11008KT 2 1/2SM UP OVC007 01/00 A2957 RMK AO2
KLXN 221935Z AUTO 32023G28KT 10SM SCT055 09/M01 A2951 RMK AO2 T00921013
KLXT 221925Z AUTO 19006KT 7SM -RA OVC005 07/06 A2947 RMK AO2 P0002 T00720061 TSNO
KLXV 221947Z AUTO 35017G25KT 1 3/4SM -SN FEW016 BKN029 OVC055 M08/M11 A2967 RMK AO2 PK WND 32028/1909 P0000
KLXY 221935Z AUTO 23011G14KT 10SM CLR 20/10 A2959 RMK AO2 T02040104
KLYH 221929Z 03008KT 1 1/2SM BR OVC004 01/01 A3011 RMK AO2 CIG 003V008 T00060006
KLYV 221934Z AUTO 16010KT 1 3/4SM BR OVC004 05/03 A2941 RMK AO2
KLZU 221845Z 07009G14KT 1SM BR OVC003 07/03 A2993 RMK ATIS A RWY 25 LL
KLZZ 221715Z AUTO 25008KT 10SM CLR 18/10 A2966 RMK AO2 T01830096
KM19 221856Z AUTO 17014KT 8SM OVC005 12/11 A2963 RMK AO2 T01160111 RAE30 P0000 SLP033
KM25 221955Z AUTO 00000KT 10SM OVC018 12/10 A2969 RMK AO2
KM30 221935Z AUTO 12006KT 5SM -DZ OVC011 10/10 A2966 RMK AO2 P0001 T00970097
KM40 221955Z AUTO 15006KT 2 1/2SM HZ OVC003 13/06 A2975 RMK AO2
KM63 221856Z AUTO 21022G27KT 10SM CLR 15/00 A2984 RMK AO2 PK WND 20027/34 SLP066 T01460002
KM91 221935Z AUTO 16007KT 10SM OVC017 11/09 A2976 RMK
KMAE 221853Z AUTO 35004KT 6SM BR OVC012 14/12 A3027 RMK AO2 RAE05 SLP251 P0000 T01440122
KMAF 221908Z 02014KT 10SM CLR 18/01 A2972 RMK AO2 WSHFT 1848 T01830006
KMAI 221853Z AUTO 03005KT 10SM OVC004 16/16 A2985 RMK AO2 SLP107 T01610161 $
KMAN 221935Z AUTO 33017G24KT 10SM CLR 09/02 A3020 RMK AO1
KMAO 221955Z AUTO 04006KT 5SM RA OVC004 06/06 A3000 RMK AO2 P0003
KMBG 221904Z AUTO 34012KT 3SM -SN BR BKN007 OVC013 00/M02 A2942 RMK AO2 P0001 T00001017
KMBL 221935Z AUTO 12009G14KT 10SM OVC090 03/M05 A2988 RMK AO1
KMBS 221853Z 09010KT 10SM CLR 04/M03 A2997 RMK AO2 SLP156 T00391028
KMCB 221853Z AUTO 18006KT 5SM -RA BR OVC006 18/17 A2972 RMK AO2 RAB31 SLP062 P0000 T01780167
KMCC 221935Z AUTO 32009KT 9SM OVC008 14/13 A3026 RMK AO2
KMCD 221936Z AUTO 11007KT 10SM CLR 02/M03 A2996 RMK AO2 T00171026
KMCE 221930Z AUTO 34006KT 3SM BR SCT006 OVC013 14/13 A3025 RMK AO2 T01440128
KMCF 221858Z AUTO 20012KT 10SM BKN190 24/22 A2991 RMK AO2 SLP132 T02440218
KMCI 221932Z 19008KT 2SM -RA BR OVC004 07/07 A2945 RMK AO2 SFC VIS 3 P0002 T00720072 $
KMCJ 221935Z AUTO 20010G18KT 020V030 CLR 22/15 A2962 RMK AO1
KMCK 221853Z AUTO 31024G30KT 10SM FEW085 09/M03 A2957 RMK AO2 PK WND 34030/1849 SLP021 T00941028
KMCN 221930Z 07008KT 3SM BR OVC006 09/09 A2992 RMK AO2 RAE08 P0000
KMCO 221923Z 18009KT 10SM SCT026 BKN034 OVC250 26/20 A2993 RMK AO2 SCT V BKN T02560200
KMCW 221916Z AUTO 12011KT 1 1/2SM -SN BR OVC004 01/01 A2956 RMK AO2 UPE11SNB11 P0000 T00110006
KMCX 221935Z AUTO 12009KT 4SM BR OVC008 03/03 A2977 RMK AO2 T00320025
KMDD 221935Z AUTO 36007KT 10SM CLR 17/01 A2972 RMK AO2 T01720009
KMDH 221907Z 16009KT 4SM -RA BR BKN009 OVC015 10/08 A2965 RMK AO2 P0001 T01000083
KMDJ 221935Z AUTO 21012KT 9SM CLR 23/20 A2980 RMK A01
KMDQ 221935Z AUTO 13007KT 10SM BKN011 OVC018 09/07 A2981 RMK AO2
KMDS 221930Z AUTO 22004KT 10SM BKN006 OVC032 01/01 A2939 RMK AO2
KMDT 221856Z 00000KT 6SM HZ BKN020 OVC036 01/M03 A3021 RMK AO2 SLP234 T00111033
KMDW 221940Z 11008KT 3SM -RA BR BKN012 BKN017 OVC037 04/02 A2974 RMK AO2 P0000 T00390017
KMDZ 221935Z AUTO 12006KT 4SM BR OVC007 01/00 A2971 RMK AO2 T00081002
KMEB 221852Z AUTO 04009KT 6SM BR OVC005 06/04 A3004 RMK AO2 SLP173 T00560044
KMEH 221909Z AUTO VRB04KT 10SM SCT015 OVC023 03/01 A3023 RMK AO2 T00330006
KMEI 221858Z 17005KT 10SM OVC007 15/14 A2977 RMK AO2 SLP079 T01500139
KMEM 221943Z 16013G22KT 10SM OVC014 15/11 A2964 RMK AO2 $
KMER 221945Z 34008KT 3SM BKN006 OVC009 13/13 A3025 BR
KMEV 221935Z AUTO 17003KT 10SM CLR 10/01 A3032 RMK AO2
KMEZ 221935Z AUTO 00000KT 7SM SCT010 BKN025 OVC042 14/12 A2954 RMK AO2
KMFD 221852Z 15006KT 10SM CLR 06/00 A2995 RMK AO2 SLP154 T00560000
KMFE 221853Z VRB06KT 10SM FEW012 21/17 A2973 RMK AO2 SLP067 T02060167
KMFI 221929Z AUTO 12012G18KT 5SM HZ FEW013 BKN030 OVC034 03/00 A2971 RMK AO2 T00280000
KMFR 221853Z 00000KT 10SM OVC038 15/11 A3035 RMK AO2 SLP275 T01500111
KMFV 221935Z AUTO 07013G23KT 5SM -RA BKN007 OVC023 08/06 A3007 RMK AO2
KMGC 221935Z AUTO 12008G14KT 080V150 5SM HZ SCT012 BKN033 OVC060 02/M01 A2978 RMK AO2
KMGE 221933Z 09006KT 1SM -DZ BR OVC002 07/07 A2992 RMK AO2A RVRNO $
KMGG 221935Z AUTO 10007KT 3SM -DZ OVC007 02/02 A2957 RMK AO2 T00220018
KMGJ 221854Z AUTO 02003KT 10SM BKN011 OVC021 03/M01 A3023 RMK AO2 SLP242 T00281006 TSNO
KMGM 221853Z 09007KT 2SM +TSRA BR BKN004 OVC014 12/11 A2986 RMK AO2 LTG DSNT E AND SE TSB29 SLP109 P0022 T01170106
KMGN 221935Z AUTO 09006KT 10SM CLR 02/M03 A2994 RMK AO2 T00231039
KMGR 221935Z AUTO 00000KT 7SM OVC003 14/14 A2987 RMK AO2 LTG DSNT E
KMGW 221853Z VRB06KT 10SM FEW065 OVC080 07/M02 A3001 RMK AO2 SLP172 T00721022
KMGY 221853Z AUTO 10005KT 10SM CLR 09/03 A2988 RMK AO2 SLP124 T00890028
KMHE 221853Z AUTO 31008KT 7SM BKN006 OVC011 03/02 A2942 RMK AO2 RAB1756E13 CIG 004V008 SLP970 P0000 T00280022
KMHK 221947Z 29006KT 10SM SCT019 BKN026 OVC034 08/05 A2948 RMK AO2 RAE1854 P0000
KMHR 221847Z 34008KT 10SM OVC008 14/14 A3027
KMHS 221856Z AUTO 32010G20KT 290V010 10SM CLR 13/06 A3032 RMK AO2 SLP280 T01280056
KMHT 221934Z 01004KT 10SM FEW013 OVC017 03/00 A3032 RMK AO2 RAE20SNE20 P0000 T00280000
KMHV 221935Z AUTO 00000KT 10SM CLR 14/07 A3014 RMK AO1
KMIA 221853Z 15007KT 10SM FEW024 SCT250 27/20 A2996 RMK AO2 SLP146 T02720200
KMIB 221931Z 01009KT 5SM BR OVC008 M02/M02 A2958 RMK AO2A FZDZE1932
KMIC 221853Z 13009KT 2SM -RA BR OVC009 03/01 A2959 RMK AO2 SLP026 P0002 T00280011
KMIE 221929Z 14006KT 9SM SCT014 06/02 A2983 RMK AO2 T00560017
KMIS 221935Z AUTO 22011KT 7SM FEW047 21/19 A2978 RMK A01
KMIV 221854Z AUTO 03004KT 10SM -RA BKN047 BKN055 OVC075 06/02 A3021 RMK AO2 RAB50 SLP229 P0000 T00610022
KMIW 221853Z AUTO 13012KT 3SM -RA BR OVC006 03/02 A2954 RMK AO2 SLP010 P0004 T00280017
KMJQ 221934Z AUTO 14011G14KT 7SM DZ OVC004 03/02 A2947 RMK AO2 P0001
KMJX 221935Z AUTO 04004KT 10SM BKN022 BKN120 07/03 A3022 RMK AO1
KMKC 221854Z 20006KT 3SM -RA BR OVC006 07/06 A2948 RMK AO2 RAB10 SLP983 P0000 T00720061
KMKE 221932Z 11011KT 1 3/4SM -RA BR OVC008 02/00 A2978 RMK AO2 SFC VIS 2 1/2 P0001 T00220000
KMKG 221855Z 11010KT 8SM OVC060 03/M03 A2987 RMK AO2 SLP122 T00281028
KMKJ 221935Z AUTO 09007KT 2SM BR OVC004 03/02 A3000 RMK AO2 T00320021
KMKL 221853Z 17008KT 10SM OVC010 12/09 A2972 RMK AO2 CIG 009V014 SLP065 T01220094
KMKN 221935Z AUTO 32013G19KT 10SM CLR 19/04 A2964 RMK AO2 T01870044
KMKO 221945Z AUTO 18004KT 10SM FEW019 SCT026 OVC034 11/08 A2954 RMK AO2 T01110083
KMKS 221935Z AUTO 35004KT 10SM -RA 08/07 A2999 RMK AO2 LTG DSNT SE THRU SW P0007
KMKT 221935Z AUTO 13016KT 5SM OVC008 02/00 A2953 RMK AO1
KMKY 221935Z AUTO 16012KT 10SM FEW016 26/21 A2995 RMK AO1
KMLB 221853Z 19012KT 10SM CLR 28/19 A2993 RMK AO2 SLP135 T02780189
KMLC 221939Z AUTO 29006KT 10SM -RA SCT025 SCT041 OVC095 12/08 A2954 RMK AO2 RAB17 P0000 T01220078
KMLE 221935Z AUTO 17003KT 7SM -RA OVC005 06/05 A2941 RMK AO2 P0003 T00620051
KMLF 221852Z AUTO 18007KT 10SM BKN070 OVC085 09/02 A2999 RMK AO2 SLP143 T00940022 TSNO
KMLI 221852Z 11011KT 2 1/2SM -RA BR OVC006 02/01 A2962 RMK AO2 SLP036 P0007 T00220011
KMLJ 221935Z AUTO 07003KT 4SM -DZ OVC007 08/08 A2993 RMK AO2 LTG DSNT S
KMLP 221925Z AUTO 33006KT 10SM BKN003 OVC008 M04/M06 A3002 RMK AO2 T10391056
KMLS 221853Z AUTO 33023G31KT 10SM OVC024 02/M03 A2970 RMK AO2 PK WND 31036/1814 SLP074 T00171028
KMLT 221853Z AUTO 00000KT 10SM FEW011 SCT027 OVC044 M01/M03 A3040 RMK AO2 SLP303 T10061028
KMLU 221946Z 14004KT 9SM FEW010 BKN015 OVC022 16/14 A2964 RMK AO2 T01610144
KMMH 221935Z AUTO 33007KT 10SM CLR 13/M03 A3033 RMK AO1
KMMI 221935Z AUTO 27006KT 10SM FEW065 BKN100 12/06 A2988 RMK
KMMK 221853Z AUTO 04007KT 10SM OVC046 05/01 A3027 RMK AO2 SLP251 T00500011 TSNO
KMML 221935Z AUTO 14009KT 10SM OVC006 04/02 A2944 RMK AO1
KMMT 221928Z 08006KT 5SM BR OVC004 07/07 A2999 RMK AO2A
KMMU 221945Z 00000KT 7SM OVC012 05/01 A3023
KMMV 221853Z AUTO 00000KT 10SM OVC006 11/09 A3039 RMK AO2 SLP292 T01110089
KMNE 221935Z AUTO 14007KT 10SM OVC006 15/13 A2960 RMK AO2
KMNH 221934Z AUTO 05006KT 10SM SCT025 BKN036 OVC050 M02/M04 A2965 RMK AO2
KMNI 221955Z AUTO 00000KT 10SM OVC005 07/ A2999 RMK AO2 LTG DSNT S P0003
KMNM 221935Z AUTO 15012KT 5SM BKN014 OVC090 02/M01 A2984 RMK AO1
KMNN 221853Z AUTO 15009KT 6SM HZ CLR 07/01 A2994 RMK AO2 SLP147 T00670011 TSNO
KMNZ 221935Z AUTO 31020G27KT 10SM CLR 20/01 A2962 RMK AO2 T02040014
KMOB 221947Z 00000KT 5SM BR BKN011 BKN016 OVC022 19/19 A2977 RMK AO2 RAB25E44 P0001 T01940189
KMOD 221853Z 31007KT 10SM OVC007 14/12 A3026 RMK AO2 CIG 007V010 SLP249 T01440122
KMOP 221935Z AUTO 08007KT 10SM OVC100 03/M04 A2993 RMK AO2 T00251036
KMOR 221935Z AUTO 10006KT 10SM CLR 16/07 A2986 RMK
KMOT 221854Z 35008KT 6SM BR BKN007 OVC010 M02/M03 A2956 RMK AO2 CIG 005V009 SLP032 T10171033
KMOX 221933Z AUTO 12015KT 4SM -RA OVC004 03/03 A2946 RMK AO2 P0001
KMPO 221949Z AUTO 13006KT 1/4SM FG VV002 00/M01 A3014 RMK AO2 I1000
KMPV 221913Z AUTO 04003KT 7SM SCT015 OVC034 M01/M04 A3031 RMK AO2 T10111039
KMPZ 221935Z AUTO 13009KT 1 3/4SM BR OVC003 03/03 A2956 RMK AO2 T00310031
KMQB 221935Z AUTO 15008KT 2SM BR OVC004 04/04 A2961 RMK AO2 T00410041
KMQE 221854Z AUTO 04007KT 04/03 A3028 RMK AO1 SLP272 T00440033
KMQI 221935Z AUTO 01003KT 10SM -RA BKN003 BKN013 OVC017 13/13 A2995 RMK AO2 T01300128
KMQJ 221935Z AUTO 13006KT 10SM BKN023 BKN028 BKN039 06/00 A2981 RMK AO1
KMQS 221935Z AUTO 08007KT 10SM OVC033 04/00 A3018 RMK AO2
KMQY 221856Z 16011KT 10SM OVC019 12/08 A2981 RMK AO2 T01220083 SLP107
KMRB 221946Z 01004KT 1 3/4SM -FZRA BR SCT005 BKN010 OVC031 00/M02 A3016 RMK AO2 RAE33UPB29E31FZRAB33E43B46 P0002 I1001 T00001022
KMRC 221935Z AUTO 14004KT 8SM OVC011 A2976 RMK
KMRF 221935Z AUTO 28020G25KT 10SM CLR 17/M01 A2986 RMK AO1
KMRH 221931Z AUTO 34008KT 9SM OVC003 11/10 A2996 RMK AO2 I1000 T01060100 TSNO
KMRJ 221935Z AUTO 09010KT 2 1/2SM -RA OVC005 02/01 A2965 RMK AO2
KMRN 221935Z AUTO 00000KT 10SM BKN007 OVC013 05/04 A3007 RMK AO2 T00510044
KMRT 221934Z AUTO 13003KT 10SM CLR 08/00 A2990 RMK AO2 T00790000
KMRY 221854Z 06004KT 10SM FEW016 17/12 A3025 RMK AO2 SLP256 T01720122
KMSL 221853Z AUTO 14010KT 9SM OVC009 12/09 A2980 RMK AO2 RAE33 CIG 005V013 SLP091 P0000 T01170094
KMSN 221910Z 12010KT 3SM -RASN BR BKN014 BKN019 OVC033 02/00 A2973 RMK AO2 P0000 T00170000
KMSO 221853Z 31010KT 10SM OVC055 03/M03 A3005 RMK AO2 SLP194 T00331028
KMSP 221934Z 12011KT 4SM -RA BR OVC007 02/01 A2960 RMK AO2 P0001 T00220006
KMSS 221853Z AUTO 06014KT 7SM OVC031 M05/M08 A3030 RMK AO2 SLP268 T10501078
KMSV 221935Z AUTO 08006KT 5SM OVC003 00/M01 A3019 RMK AO1
KMSY 221944Z 20017KT 10SM SCT023 SCT075 25/19 A2971 RMK AO2 T02500189
KMTC 221855Z 10008KT 10SM FEW030 BKN200 04/00 A2997 RMK SLP165 T00370000
KMTH 221853Z AUTO 18005KT 10SM SCT020 27/23 A2995 RMK AO2 SLP143 T02720233
KMTJ 221939Z AUTO 08005KT 10SM SCT010 BKN075 OVC095 04/02 A2979 RMK AO2 T00390022
KMTN 221945Z 01004KT 10SM DZ OVC065 04/01 A3021
KMTO 221853Z AUTO 13009KT 2 1/2SM -RA BR OVC004 06/05 A2970 RMK AO2 SLP060 P0001 T00610050
KMTP 221854Z AUTO 06008KT 08/05 A3028 RMK AO1 SLP252 T00780050
KMTV 221935Z AUTO 04007KT 2 1/2SM BR OVC004 02/02 A3010 RMK AO2 T00190019
KMTW 221856Z AUTO 14011KT 5SM BR OVC011 02/01 A2984 RMK AO2 SLP128 T00220006 FZRANO
KMUI 221950Z AUTO 06005KT 10SM SCT020 OVC036 02/M02 A3020 RMK AO2
KMUO 221943Z AUTO 31024G26KT 10SM FEW024 BKN060 08/03 A3016 RMK AO2
KMUT 221935Z AUTO 12007KT 1 1/2SM BR OVC006 04/03 A2959 RMK AO2
KMVE 221934Z AUTO 16013KT 5SM -DZ OVC007 03/03 A2947 RMK AO2
KMVH 221940Z AUTO 32022G30KT 10SM FEW027 FEW040 SCT060 02/M07 A2979 RMK A01
KMVL 221854Z AUTO 10003KT 10SM OVC036 00/M04 A3031 RMK AO2 SLP276 T00001044 TSNO
KMVN 221935Z AUTO 12004KT 5SM 08/06 A2966 RMK AO1 P0005
KMVY 221949Z 09008G17KT 10SM SCT027 OVC035 08/03 A3029 RMK AO2
KMWA 221853Z 17010KT 4SM RA OVC008 10/09 A2968
KMWC 221945Z AUTO 11005KT 3SM -DZ BKN009 OVC025 02/00 A2979
KMWH 221852Z 27005KT 10SM FEW200 10/M03 A3026 RMK AO2 SLP300 T01001033
KMWK 221935Z AUTO 06004KT 7SM OVC006 04/02 A3007 RMK AO2 T00360020
KMWL 221853Z AUTO 31006KT 10SM CLR 16/05 A2962 RMK AO2 SLP023 T01560050
KMWM 221933Z AUTO 14010KT 10SM RA OVC006 03/03 A2946 RMK AO2 P0001
KMWN 221848Z COR 23012KT 130SM OVC/// FEW160 SCT180 BKN200 M07/M12 RMK TPS LWR OVC054 INTMT BCFG
KMWO 221935Z AUTO 10005KT 10SM CLR 11/03 A2987 RMK AO2 T01100030
KMWS 221930Z 23500G00KT MM/M04
KMWT 221653Z AUTO VRB03KT 4SM BR OVC005 11/10 A2962 RMK AO2 SLP029 T01110100
KMXF 221948Z AUTO 07007KT 1SM R15/P6000FT +RA BR OVC005 11/11 A2982 RMK AO2 VIS 1V4 OVC V BKN PRESFR
KMXO 221935Z AUTO 09009G15KT 2 1/2SM BR OVC007 03/03 A2958 RMK AO2
KMYF 221853Z 35005KT 10SM CLR 22/11 A3004 RMK AO2 SLP169 T02170106
KMYL 221851Z AUTO 27007KT 10SM FEW010 BKN038 BKN049 00/M03 A3011 RMK AO2 SNB12E45 SLP218 P0000 T00001028
KMYP 221932Z AUTO M09/M11 A2977 RMK AO2 PWINO
KMYR 221945Z 36013KT 6SM -RA BR OVC005 08/06 A3001
KMYV 221853Z AUTO 31008KT 10SM OVC005 13/12 A3028 RMK AO2 SLP257 T01330122
KMYZ 221935Z AUTO 31008KT 10SM BKN014 OVC024 07/05 A2944 RMK AO2
KMZG 221935Z AUTO 24017G22KT 9SM BKN014 21/18 A2971 RMK A01
KMZH 221933Z AUTO 13005KT 1 3/4SM -RA OVC003 01/00 A2963 RMK AO2
KMZZ 221935Z AUTO 11007KT 7SM BKN009 OVC015 04/01 A2982 RMK AO2 T00380006
KN03 221935Z AUTO 15008KT 118V178 10SM CLR 02/M01 A3015 RMK AO2
KN38 221935Z AUTO 16012KT 10SM OVC011 M02/M04 A3012 RMK AO2
KN60 221852Z AUTO 03008KT M02/M03 A2953 RMK AO1 SLP023 T10171028
KNAK 221854Z AUTO 02007KT 4SM -RA BR OVC050 02/M01 A3020 RMK AO2 SLP227 P0002 T00171006
KNBC 221910Z 00000KT 5SM -TSRA BR OVC005 09/08 A2998 RMK AO2 P0003 T00890083
KNBG 221855Z 20018G23KT 7SM BKN025 BKN031 OVC038 24/19 A2975 RMK AO2 SLP072 T02440194 $
KNBT 221945Z AUTO 31008KT 10SM 12/10 A2996 RMK AO2 RAB06E20 T01220100 PNO $
KNCA 221856Z 34011KT 7SM OVC005 08/08 A3000 RMK AO2 SLP160 T00830078
KNDZ 221856Z 15011KT 10SM FEW006 SCT026 SCT035 BKN140 21/17 A2979 RMK AO2 PRESFR SLP074 T02060167
KNEW 221853Z 20019G25KT 10SM SCT019 BKN031 BKN046 23/18 A2974 RMK AO2 SLP065 T02330183
KNFE 221856Z AUTO 05011G21KT 6SM -RA OVC007 12/09 A3003 RMK AO2 CIG 005V012 SLP170 P0013 T01170089
KNFG 221854Z 00000KT 7SM CLR 19/13 A3003 RMK AO2 SLP169 T01940128 $
KNFL 221856Z 30013KT 10SM FEW050 FEW090 SCT150 SCT220 14/04 A3028 RMK AO2 SLP215 T01390039
KNFW 221852Z 30011KT 10SM FEW200 19/05 A2964 RMK AO2 SLP024 T01890050
KNGP 221922Z 21008KT 10SM FEW017 SCT140 SCT250 21/17 A2969 RMK AO2 T02110167
KNGU 221925Z 03013KT 3SM -RA BR BKN005 OVC014 10/07 A3006 RMK AO2 T01000072
KNHK 221941Z 02012KT 2SM -RA BR SCT012 OVC029 03/01 A3014 RMK AO2 P0000 T00280011
KNID 221856Z VRB03KT 10SM CLR 09/06 A3014 RMK AO2 SLP212 T00940056 $
KNIP 221936Z 16007KT 6SM -RA BKN028 BKN036 OVC045 21/18 A2989 RMK AO2 TSE36 T1 SET P0023 T02110183 $
KNJK 221856Z 00000KT 10SM CLR 19/08 A3002 RMK AO2 SLP180 T01890083
KNJM 221857Z 35008KT 10SM BKN004 OVC011 10/09 A2999 RMK AO2 SLP158 T01000089 $
KNKT 221854Z 32006KT 9SM OVC004 10/09 A2999 RMK AO2 SLP153 T01000089 $
KNKX 221855Z 32005KT 10SM CLR 22/10 A3003 RMK AO2 SLP165 T02170100
KNLC 221946Z 34010KT 6SM BR SCT009 BKN017 OVC025 15/13 A3025 RMK AO2 T01500133 $
KNMM 221937Z 13005KT 3SM BR OVC003 14/13 A2976 RMK AO2 RAE04 P0000 T01390128
KNMT 221858Z AUTO 25009KT 220V310 CLR 23/11 A2967 RMK AO2 SLP106 T02280111 PNO $
KNOG 221856Z AUTO 20010KT 10SM CLR 21/16 A2971 RMK AO2 SLP042 T02110156 $
KNPA 221856Z 13008KT 10SM FEW007 SCT020 BKN050 BKN250 20/17 A2980 RMK SLP093 T02000167
KNQA 221950Z 15012KT 10SM OVC014 14/12 A2964
KNQI 221856Z 24006KT 10SM FEW014 SCT022 SCT250 22/18 A2972 RMK AO2 SLP059 T02220178 $
KNQX 221853Z 16010KT 10SM CLR 27/22 A2995 RMK AO2 SLP142 T02720217
KNRB 221943Z 12006KT 5SM -RA BR SCT025 BKN038 OVC060 19/18 A2989 RMK AO2 TSB10E42 T1 SET P0015 T01890183 $
KNRS 221856Z 34004KT 10SM FEW220 21/09 A3004 RMK AO2 SLP170 T02060094 $
KNSE 221933Z 14011KT 10SM FEW007 BKN025 BKN100 21/17 A2978 RMK AO2 T02110167 $
KNSI 221857Z 30008KT 10SM CLR 19/14 A3006 RMK AO2 SLP175 T01890139 $
KNTD 221856Z 32003KT 10SM CLR 21/12 A3004 RMK AO2 SLP174 T02060122 $
KNTU 221939Z 07017G24KT 4SM -RA BR OVC005 11/09 A3001 RMK AO2 P0004 T01060089
KNUC 221856Z 20005KT 10SM FEW010 20/15 A3003 RMK SLP169 T01950152
KNUI 221906Z AUTO 01008KT 2 1/2SM -RA BR BKN006 BKN012 OVC033 03/02 A3014 RMK AO2 P0001 T00330017
KNUQ 221856Z 32008KT 10SM OVC015 16/13 A3029 RMK AO2 SLP259 T01560128
KNUW 221856Z 17003KT 10SM FEW040 BKN160 OVC230 11/06 A3036 RMK AO2 SLP284 T01060056 VISNO E $
KNXF 221856Z AUTO 21004KT 6SM HZ CLR 17/14 A3003 RMK AO2 SLP254 T01720139 $
KNXP 221856Z 28013KT 10SM CLR 19/06 A3015 RMK AO2 SLP186 T01940056 $
KNY0 221935Z AUTO 10005KT 10SM OVC011 00/M02 A3023 RMK AO2 T00001017
KNYC 221851Z AUTO VRB05KT 9SM OVC010 05/02 A3025 RMK AO2 SLP234 T00500022 $
KNYG 221910Z AUTO 05007KT 2 1/2SM -RA BR OVC008 02/00 A3019 RMK AO2 P0000 T00170000 $
KNYL 221857Z 27004KT 7SM CLR 21/06 A3003 RMK AO2 SLP166 T02060061 $
KNZY 221852Z 32007KT 10SM FEW020 FEW220 19/13 A3003 RMK AO2 SLP169 T01890133 $
KO22 221935Z AUTO 18003KT 10SM CLR 14/09 A3020 RMK AO1
KO54 221935Z AUTO 21007KT 10SM CLR 15/08 A3028 RMK AO1
KO86 221930Z AUTO 00000KT 10SM FEW006 10/08 A3032 RMK AO1
KOAJ 221935Z AUTO 34007KT 5SM OVC005 07/06 A3001 RMK AO1
KOAK 221944Z 28005KT 4SM BR FEW001 SCT006 BKN016 13/13 A3026 RMK AO2 VIS SW 2
KOBE 221935Z AUTO 18009G14KT 10SM CLR 27/18 A2994 RMK AO2
KOCF 221950Z 19014KT 10SM BKN018 24/19 A2989
KOCH 221935Z AUTO 23012G17KT 10SM SCT033 BKN040 21/13 A2959 RMK AO1
KOCQ 221935Z AUTO 14008G14KT 5SM OVC014 02/00 A2984 RMK AO1 T00150001
KOCW 221935Z AUTO 33006KT 5SM -DZ OVC004 08/08 A3002 RMK AO2 T00830076
KODO 221948Z AUTO 02011KT 10SM CLR 19/00 A2971 RMK AO2 WSHFT 1928
KOEB 221935Z AUTO 12009KT 10SM SCT070 BKN090 03/M01 A2987 RMK AO2 T00321015
KOEO 221935Z AUTO 11011KT 2SM -RA OVC007 02/02 A2965 RMK AO2 T00210021
KOFF 221858Z 14006KT 6SM -RA BR OVC006 06/05 A2942 RMK AO2A SLP971 P0003 T00590053
KOFK 221856Z AUTO 31016KT 10SM OVC014 06/03 A2942 RMK AO2 SLP968 T00560028
KOFP 221944Z AUTO VRB05KT 2 1/2SM BR OVC004 02/02 A3011 RMK AO2 RAE20UPB20E30 PRESFR P0003 T00220017
KOGA 221935Z AUTO 31016G23KT 10SM CLR 06/M02 A2958 RMK AO2 T00611021
KOGB 221907Z AUTO 02006KT 10SM BKN006 OVC070 07/06 A2999 RMK AO2 RAE03 P0000 T00720056
KOGD 221913Z AUTO 10SM FEW016 SCT023 OVC046 06/02 A3000 RMK AO2 T00610022 TSNO
KOJA 221935Z AUTO 34012G15KT 10SM CLR 13/01 A2959 RMK AO2
KOJC 221853Z 20007KT 1 1/2SM BR OVC003 07/07 A2947 RMK AO2 RAB02E31 SLP981 P0001 T00670067
KOKB 221852Z AUTO 00000KT 10SM CLR 19/12 A3002 RMK AO2 SLP166 T01940122
KOKC 221852Z COR 31018G24KT 10SM FEW021 SCT110 BKN250 13/04 A2958 RMK AO2 SLP014 T01280044
KOKK 221935Z AUTO 13009KT 7SM BKN010 OVC044 03/01 A2980 RMK AO1
KOKM 221935Z AUTO 26006KT 10SM SCT017 OVC035 12/09 A2954 RMK AO2 T01150086
KOKV 221935Z AUTO 03004KT 1 1/4SM UP OVC005 01/M01 A3015 RMK AO2
KOKZ 221935Z AUTO 09011G15KT 10SM -RA OVC003 08/08 A2993 RMK AO2 T00770075
KOLE 221935Z AUTO 19006KT 10SM CLR 01/M02 A3003 RMK AO2
KOLF 221853Z AUTO 32012KT 3/4SM -SN VV014 M02/M05 A2972 RMK AO2 SLP087 P0000 T10171050
KOLG 221935Z AUTO 15007KT 3SM OVC005 01/00 A2967 RMK AO1
KOLM 221854Z 22003KT 10SM BKN120 08/06 A3036 RMK AO2 SLP283 T00780061
KOLS 221854Z AUTO 00000KT 10SM CLR 16/02 A3003 RMK AO2 SLP139 T01610017
KOLU 221935Z AUTO 32011KT 10SM OVC021 06/02 A2944 RMK AO1
KOLV 221850Z 15012KT 7SM OVC008 12/12 A2969
KOLY 221935Z AUTO 13010KT 5SM -RA OVC014 08/07 A2969 RMK AO2
KOLZ 221935Z AUTO 11015KT 3SM BR BKN007 BKN011 BKN021 03/02 A2957 RMK AO2
KOMA 221852Z 16009KT 4SM -RA BR OVC007 06/05 A2944 RMK AO2 SLP972 P0003 T00610050
KOMH 221935Z AUTO 34007KT 1 1/2SM -DZ OVC006 01/01 A3015 RMK AO2
KOMK 221853Z AUTO VRB03KT 10SM CLR 05/M01 A3024 RMK AO2 SLP252 T00501011
KOMN 221850Z 17010G16KT 10SM SCT070 23/18 A2992
KONA 221934Z AUTO 12008KT 7SM -DZ BKN022 BKN033 OVC040 03/00 A2965 RMK AO2
KONL 221935Z AUTO 30014G20KT 10SM SCT012 BKN020 OVC027 04/03 A2944 RMK AO2 T00370025
KONM 221935Z AUTO 31010G20KT 280V340 10SM CLR 19/00 A2979 RMK AO2 T01871005
KONO 221853Z AUTO 31011KT 10SM CLR 11/02 A3022 RMK AO2 SLP242 T01060022
KONP 221935Z AUTO 06003KT 7SM SCT001 11/10 A3040 RMK AO2
KONT 221853Z 00000KT 10SM CLR 19/08 A3004 RMK AO2 SLP166 T01890078
KONX 221935Z AUTO 04011G17KT 1 3/4SM RA OVC003 11/10 A3000 RMK AO2 P0009 T01070099
KONZ 221934Z AUTO 06007KT 10SM SCT100 04/00 A2993 RMK AO2
KOOA 221935Z AUTO 14012KT 3SM BR OVC005 03/03 A2953 RMK AO2 T00330026
KOPF 221853Z 19009KT 10SM FEW029 27/19 A2996 RMK AO2 SLP146 T02720194
KOPL 221935Z AUTO 21008KT 10SM BKN020 BKN024 22/17 A2967 RMK AO2 T02150173
KOPN 221935Z AUTO 11008KT 4SM BR OVC004 10/09 A2993 RMK AO2
KOQT 221853Z AUTO 00000KT 10SM OVC110 13/04 A2989 RMK AO2 SLP122 T01280044
KOQU 221852Z 03008KT 10SM FEW020 OVC035 06/04 A3029
KORB 221933Z AUTO 13003KT 10SM -SN BKN007 OVC022 01/00 A2962 RMK AO2
KORC 221935Z AUTO 15007KT 7SM DZ OVC005 06/04 A2941 RMK AO2 P0001
KORD 221940Z 08007KT 3SM -RA BR BKN009 OVC033 02/01 A2973 RMK AO2 P0001 T00220006
KORE 221944Z AUTO 07004KT 10SM SCT021 OVC044 04/M01 A3028 RMK AO2 T00441006
KORF 221921Z 03011KT 6SM -RA OVC004 09/07 A3003 RMK AO2 P0001 T00890072
KORG 221935Z AUTO 20012G18KT 10SM SCT024 23/18 A2967 RMK AO2 T02300176
KORH 221854Z 06005KT 10SM OVC013 02/M01 A3028 RMK AO2 SLP266 T00221006
KORL 221912Z 19006KT 10SM OVC030 24/19 A2993 RMK AO2 T02440194
KORS 221935Z AUTO 00000KT 10SM CLR 08/04 A3034 RMK AO2
KOSA 221935Z AUTO 24012KT 10SM SCT038 20/10 A2955 RMK AO1 T02040101
KOSC 221933Z AUTO 15005KT 10SM OVC023 00/M03 A3001 RMK AO2 T00051031
KOSH 221853Z 13009KT 5SM HZ FEW013 BKN080 03/00 A2979 RMK AO2 SLP098 T00280000
KOSU 221853Z 13007KT 10SM CLR 08/01 A2992 RMK AO2 SLP137 T00830006
KOTG 221935Z AUTO 14013KT 10SM OVC006 04/M24 A2943 RMK AO1
KOTH 221935Z 00000KT 10SM OVC006 13/12 A3037 RMK AO1
KOTM 221922Z AUTO 13008KT 2 1/2SM BR OVC004 04/03 A2953 RMK AO2 T00390028
KOUN 221935Z AUTO 31011G17KT 10SM CLR 12/06 A2957 RMK AO2
KOVE 221939Z AUTO 30008KT 10SM BKN006 13/12 A3026 RMK AO2 CIG 005V008 T01330117
KOVL 221933Z AUTO 13012G16KT 5SM -DZ OVC007 03/02 A2949 RMK AO2 P0001
KOVS 221933Z AUTO 09006KT 4SM -RA BR OVC014 03/01 A2967 RMK AO2 P0001 T00280006
KOWA 221935Z AUTO 12012KT 3SM RA SCT008 02/01 A2957 RMK AO2
KOWB 221856Z 15010KT 10SM OVC023 11/07 A2978 RMK AO2 T01110072 OVC V BKN SLP085
KOWD 221853Z 36004KT 10SM BKN013 OVC020 06/03 A3031 RMK AO2 RAE20 SLP265 P0000 T00610033
KOWP 221935Z AUTO 26007KT 7SM SCT013 BKN019 BKN095 13/09 A2954 RMK AO2 T01250092
KOXB 221909Z AUTO 05009KT 7SM -RA BKN016 OVC036 07/06 A3015 RMK AO2 P0000 T00720056 TSNO
KOXC 221850Z 09005KT 10SM SCT020 OVC039 04/M01 A3025
KOXI 221935Z AUTO 12011KT 3SM BKN009 BKN027 OVC048 03/00 A2978 RMK AO1 T00300001
KOXR 221851Z 29004KT 8SM CLR 22/14 A3003 RMK AO2 SLP169 T02170139
KOXV 221935Z AUTO 13010KT 4SM BR OVC005 04/03 A2949 RMK AO2
KOZA 221935Z AUTO 35016G23KT 10SM CLR 23/00 A2970 RMK AO2
KOZR 221918Z AUTO 09004KT 10SM OVC004 13/12 A2985 RMK AO2
KOZW 221934Z AUTO 11008KT 10SM OVC100 03/M02 A2993 RMK AO2 T00311020
KP28 221856Z AUTO 34015G24KT 12/02 A2958 RMK AO1 PK WND 34029/1814 SLP016 T01170022
KP53 221856Z AUTO 17010G16KT 03/M01 A2988 RMK AO1 SLP127 T00281011
KP58 221851Z AUTO 13005KT 01/M04 A3001 RMK AO1 SLP172 T00111039
KP59 221851Z AUTO 03/01 A2981 RMK AO1 SLP105 T00280006 $
KP60 221856Z AUTO 00000KT M06/M10 A2987 RMK AO1 SLP139 T10561100
KP68 221853Z AUTO 28013G19KT 08/03 A3020 RMK AO1 SLP192 T00780028
KP69 221852Z AUTO 01003KT 05/04 A3019 RMK AO1 SLP235 P0001 T00500044
KP92 221853Z AUTO VRB05KT 23/18 A2973 RMK AO1 SLP066 T02280183
KPAE 221853Z 12004KT 10SM CLR 09/04 A3036 RMK AO2 SLP283 T00890039
KPAH 221949Z 14010KT 7SM -RA BKN015 OVC080 11/09 A2964 RMK AO2 RAB1858E07B30 PRESFR P0001
KPAM 221943Z AUTO 11005KT 10SM BKN011 BKN020 22/22 A2982 RMK AO2 CIG 010V024 $
KPAN 221935Z AUTO 24011KT 10SM CLR 13/03 A3000 RMK AO2
KPAO 221915Z 31007KT 7SM BKN015 16/ A3028
KPBF 221907Z AUTO 18014KT 10SM BKN015 OVC023 14/11 A2962 RMK AO2 T01390106
KPBG 221925Z AUTO 01008KT 6SM BR OVC010 M05/M07 A3032 RMK AO2 T10501067
KPBH 221935Z AUTO 13007KT 4SM BR OVC005 00/00 A2970 RMK AO2 T00021002
KPBI 221853Z 15012KT 10SM SCT028 SCT035 BKN250 28/20 A2994 RMK AO2 SLP139 T02780200
KPBX 221935Z AUTO 04005KT 10SM SCT038 OVC095 12/05 A2988 RMK AO2 T01200045
KPCM 221935Z AUTO 19006KT 10SM CLR 28/21 A2993 RMK AO2
KPCW 221932Z AUTO 10009KT 10SM SCT100 04/M01 A2992 RMK AO2 $
KPCZ 221935Z AUTO 10011G15KT 5SM HZ SCT012 OVC038 04/01 A2977 RMK AO2 T00360005
KPDC 221935Z AUTO 09009G17KT 4SM RA BKN014 OVC023 03/00 A2964 RMK AO2 T00270004
KPDK 221923Z VRB04KT 1 1/2SM BR OVC004 07/06 A2993 RMK AO2
KPDT 221853Z 27012KT 10SM CLR 08/04 A3029 RMK AO2 SLP256 T00780039
KPDX 221929Z VRB03KT 3SM FEW008 SCT120 11/09 A3038 RMK AO2 SFC VIS 7 T01110094
KPEA 221935Z AUTO 12007KT 3SM DZ OVC006 04/03 A2953 RMK AO2 T00390032
KPEO 221909Z AUTO VRB06KT 10SM SCT029 03/M04 A3012 RMK AO2 T00281039
KPEQ 221935Z AUTO 26020G28KT 10SM CLR 21/00 A2972 RMK AO2 T02050003
KPEX 221934Z AUTO 07011G15KT 4SM DZ OVC005 00/00 A2953 RMK AO2 P0002 T00020002
KPEZ 221935Z AUTO 22004KT 10SM CLR 20/12 A2970 RMK AO2 T01960124
KPGA 221853Z AUTO 06004KT 10SM CLR 14/02 A2990 RMK AO2 SLP103 T01390022 TSNO
KPGD 221853Z 21015KT 10SM SCT025 27/21 A2995 RMK AO2 SLP142 T02720206
KPGV 221935Z AUTO 35006KT 1 3/4SM -RA OVC005 07/07 A3006 RMK AO2
KPHD 221853Z AUTO 13005KT 10SM BKN055 06/M01 A3000 RMK AO2 SLP166 T00611006
KPHF 221932Z 01008KT 2 1/2SM -RA BR OVC005 08/06 A3007 RMK AO2 P0000 T00780056
KPHL 221854Z 36003KT 8SM FEW020 BKN043 OVC090 07/01 A3022 RMK AO2 SLP234 T00670006
KPHN 221937Z AUTO 12008KT 10SM CLR 03/M01 A2999 RMK AO2
KPHP 221930Z AUTO 34012KT 8SM -SN BKN028 OVC035 02/00 A2950 RMK AO2 RAE10SNB10 P0001 T00170000
KPHT 221935Z AUTO 16009KT 10SM OVC019 12/08 A2970 RMK
KPHX 221851Z 14003KT 10SM CLR 16/06 A3000 RMK AO2 SLP153 T01610056
KPIA 221854Z 15006KT 4SM -RA BR OVC005 05/03 A2964 RMK AO2 SLP042 P0010 T00500028
KPIB 221935Z AUTO 14008KT 10SM BKN008 OVC015 17/15 A2973 RMK AO1
KPIE 221853Z 20013G21KT 10SM CLR 26/21 A2991 RMK AO2 PK WND 19026/1812 SLP128 T02560211
KPIH 221853Z 28011KT 10SM BKN014 03/01 A3000 RMK AO2 SLP170 T00330011
KPIL 221853Z AUTO 21015G25KT 6SM HZ CLR 24/17 A2972 RMK AO2 SLP062 T02440172
KPIR 221853Z AUTO 32027G34KT 10SM FEW019 SCT027 OVC036 02/M02 A2943 RMK AO2 PK WND 32034/1849 RAB37E50 SLP980 P0000 T00221017
KPIT 221851Z 09007KT 8SM FEW055 SCT250 06/M01 A3001 RMK AO2 SLP181 T00611011
KPKB 221853Z 12008KT 10SM SCT055 12/02 A2999 RMK AO2 SLP158 T01220017
KPKD 221853Z AUTO 13008KT 9SM OVC005 03/02 A2954 RMK AO2 SLP018 T00280017
KPKV 221935Z AUTO 22012KT 10SM SCT015 20/17 A2969 RMK AO2 T02020168
KPLN 221854Z AUTO 11012G17KT 10SM CLR 01/M04 A2997 RMK AO2 SLP156 T00111039
KPMD 221853Z AUTO 33008KT 10SM CLR 17/07 A3015 RMK AO2 SLP200 T01720072
KPMP 221853Z 16015KT 10SM CLR 27/20 A2995 RMK AO2 SLP144 T02720200
KPMV 221935Z AUTO 16005KT 7SM -RA BKN005 OVC009 06/05 A2941 RMK AO2 P0003 T00570049
KPNA 221935Z AUTO 29022G31KT 1 3/4SM -SN BKN012 BKN022 OVC050 M03/M05 A2983 RMK AO2 VIS 3/4V5
KPNC 221853Z AUTO 33010KT 6SM HZ SCT016 BKN020 BKN026 12/07 A2955 RMK AO2 SLP002 T01170072
KPNE 221938Z AUTO 05008KT 8SM SCT020 OVC090 07/01 A3022 RMK AO2 T00670011 TSNO
KPNM 221935Z AUTO 10007KT 2SM -RA OVC007 02/01 A2959 RMK AO2 P0001
KPNS 221900Z 12009KT 10SM SCT005 18/17 A2980 RMK AO2 T01830167
KPNT 221935Z AUTO 12013KT 1 3/4SM -RA OVC005 04/03 A2969 RMK AO2 P0004 T00350033
KPOB 221920Z AUTO 06007KT 5SM BR OVC003 05/04 A3002 RMK AO2
KPOC 221747Z 00000KT 10SM CLR 17/09 A3009
KPOE 221906Z 20012G19KT 10SM OVC010 18/16 A2964
KPOF 221935Z AUTO 18008KT 1 3/4SM RA BR OVC004 11/09 A2960 RMK AO2 RAE1855B32 P0001 T01060089
KPOU 221853Z 34003KT 10SM BKN030 OVC043 04/00 A3025 RMK AO2 SLP242 T00390000
KPOV 221933Z AUTO 11006KT 10SM CLR 05/M02 A2998 RMK AO2 T00461017
KPOY 221935Z AUTO 34018G23KT 10SM BKN090 BKN120 00/M05 A2980 RMK AO2
KPPA 221935Z AUTO 34016G24KT 10SM SCT070 OVC095 10/M03 A2968 RMK AO2 T00981032 PNO
KPPF 221910Z AUTO 26009KT 10SM -RA OVC007 09/09 A2952 RMK AO2 CIG 004V011 P0000 T00940089
KPPO 221935Z AUTO 11009KT 4SM -DZ BKN010 BKN015 BKN021 03/02 A2979 RMK AO2 T00330017
KPPQ 221935Z AUTO 15009KT 10SM OVC004 07/06 A2958 RMK AO2 T00700060
KPQI 221935Z AUTO 00000KT 10SM OVC015 M02/M04 A3038 RMK AO1
KPQL 221911Z 16011KT 10SM SCT012 OVC019 21/19 A2977 RMK AO2 RAB1858E07 P0000 T02110189
KPQN 221934Z AUTO 16008KT 1 1/2SM DZ OVC003 03/03 A2940 RMK AO2
KPRB 221907Z AUTO 32005KT 7SM OVC002 13/12 A3023 RMK AO2 T01280122 TSNO
KPRC 221853Z 34010KT 10SM CLR 14/01 A3006 RMK AO2 SLP138 T01440006
KPRG 221935Z AUTO 13009KT 7SM -DZ OVC019 06/06 A2972 RMK AO2 T00630057
KPRN 221856Z AUTO 11005KT 8SM -RA OVC001 13/12 A2981 RMK AO2 TSE12RAB10E39B55 SLP094 P0001 T01280117
KPRO 221935Z AUTO 13012KT 7SM -RA OVC007 05/05 A2947 RMK AO2 T00470045
KPRS 221935Z AUTO 25008KT 10SM CLR 22/M01 A2981 RMK AO2 T02161006
KPRX 221935Z 25013KT 10SM BKN036 19/09 A2955 RMK AO1
KPSC 221853Z 29017G26KT 10SM CLR 11/M01 A3029 RMK AO2 PK WND 28026/1851 SLP259 T01061006
KPSF 221941Z AUTO 00000KT 10SM BKN015 OVC037 02/M01 A3022 RMK AO2 T00221006
KPSK 221935Z AUTO 08006KT 1 3/4SM BR OVC005 02/02 A3004 RMK AO2 T00200018
KPSM 221934Z 02005KT 6SM -DZ BR BKN012 OVC024 04/01 A3034
KPSN 221935Z AUTO 21013G19KT 10SM CLR 21/11 A2959 RMK AO2 T02120110
KPSO 221935Z AUTO 23011G16KT 1 1/4SM -SN OVC006 02/01 A2971 RMK AO2 T00150012
KPSP 221853Z 09006KT 10SM CLR 21/07 A3004 RMK AO2 SLP172 T02110067
KPSX 221853Z AUTO 20012KT 10SM CLR 21/17 A2970 RMK AO2 SLP058 T02060167
KPTB 221935Z AUTO 02007KT 5SM BR OVC004 04/04 A3009 RMK AO2 P0001 T00410035
KPTK 221853Z 12012KT 10SM FEW110 SCT180 OVC250 02/M02 A2996 RMK AO2 SLP155 T00221022
KPTN 221935Z AUTO 23015G20KT 10SM FEW017 SCT023 BKN030 23/19 A2972 RMK AO1
KPTS 221935Z AUTO 23008KT 7SM OVC006 11/11 A2948 RMK AO2 T01050106
KPTT 221935Z AUTO 34016G23KT 10SM SCT045 11/00 A2958 RMK AO2
KPTV 221935Z AUTO 00000KT 10SM OVC026 16/12 A3024 RMK AO1
KPTW 221924Z AUTO VRB04KT 10SM BKN024 OVC090 06/00 A3021 RMK AO2 T00560000
KPUB 221853Z 20009KT 10SM FEW028 SCT034 OVC085 06/M01 A2968 RMK AO2 SLP045 T00561011
KPUC 221853Z AUTO 31011G23KT 10SM FEW050 SCT060 BKN090 07/M02 A2987 RMK AO2 SLP112 T00721022
KPUJ 221935Z AUTO 13010G14KT M1/4SM FG OVC001 08/08 A2989 RMK AO2
KPUW 221853Z AUTO 27015G20KT 10SM CLR 05/01 A3021 RMK AO2 SLP243 T00500006
KPVB 221935Z AUTO 09015KT 3SM OVC005 02/01 A2964 RMK AO1 P0001 T00150008
KPVC 221935Z 11006KT 10SM SCT026 BKN032 07/03 A3032 RMK AO1
KPVD 221928Z 04009KT 10SM SCT016 BKN020 OVC042 06/03 A3030 RMK AO2 T00610028
KPVE 221935Z AUTO 17008KT 10SM OVC010 11/09 A2973 RMK
KPVF 221935Z AUTO 31004KT 10SM CLR 16/08 A3025 RMK AO1
KPVG 221935Z AUTO 04008KT 10SM OVC005 09/07 A3006 RMK AO1 P0001
KPVJ 221935Z AUTO 32011G20KT 10SM CLR 13/07 A2957 RMK AO2 T01340069
KPVU 221851Z 00000KT 10SM -RA BR FEW005 BKN015 OVC032 03/02 A3002
KPVW 221935Z AUTO 01010G14KT 10SM OVC065 11/M01 A2971 RMK AO2 T01131015
KPWA 221853Z 34014KT 10SM CLR 12/04 A2958 RMK AO2 PRESFR SLP014 T01220039
KPWC 221933Z AUTO 11008KT 4SM -DZ OVC005 01/01 A2962 RMK AO2
KPWG 221935Z AUTO 26010KT 10SM CLR 22/07 A2960 RMK AO1
KPWK 221949Z 10004KT 2 1/2SM -RA BR BKN008 BKN020 OVC037 02/00 A2976 RMK AO2 P0001 I1000
KPWM 221851Z 05005KT 10SM OVC014 04/00 A3038 RMK AO2 SLP288 T00440000
KPWT 221935Z AUTO 00000KT 6SM BKN008 OVC014 08/08 A3038 RMK AO1
KPXE 221935Z AUTO 10006KT 7SM OVC004 11/10 A2993 RMK AO2 T01100096
KPYM 221852Z AUTO 08004KT 10SM -RA FEW016 BKN024 OVC030 06/05 A3031 RMK AO2 SLP264 P0001 T00610050
KPYX 221935Z AUTO 33025G29KT 10SM CLR 10/M02 A2965 RMK AO2 T01031017
KPZQ 221934Z AUTO 15012G16KT 10SM BKN019 01/M01 A3001 RMK AO2 T00111015
KQAJ 221855Z 26004KT 9999 FEW120 10/02 A3008 RMK SLP187 T00990023
KQAZ 221945Z AUTO 12008KT 9999 CLR 19/00 A3008 RMK CDP03565 CLR
KQBF 221855Z AUTO 07001KT 2800 HZ CLR 28/00 A2995 RMK AO2 SLP132 T02790001 TSNO $
KQBL 221936Z AUTO 13003KT 10SM FEW019 SCT024 BKN029 BKN036 19/16 A2981 RMK AO2 LTG DSNT N
KQCL 221855Z AUTO 03/M04 A3010 RMK AO2 SLP221 T00271045 PWINO TSNO $
KQEA 221855Z AUTO 00000KT 26/22 A2973 RMK AO2 SLP065 T02600216 PWINO TSNO $
KQEB 221755Z AUTO 19/14 Q1022 RMK AO2 SLP167 T01870135 53019 PWINO TSNO $
KQEI 221940Z AUTO 17001KT 9999 CLR M13/M17 A3032 RMK A02 TSNO
KQEL 221940Z AUTO 01001KT 9999 CLR M14/M17 A3039 RMK A02 TSNO
KQEP 221940Z AUTO 15003KT 6000 HZ CLR M11/M15 A3029 RMK A02 TSNO
KQEQ 221940Z AUTO 05003KT 9999 CLR M11/M15 A3018 RMK A02 TSNO
KQER 221940Z AUTO 08001KT / /CLR M15/M19 A3027 RMK A02 TSNO
KQES 221940Z AUTO 3200 BR CLR M04/M06 A3033 RMK A02 TSNO
KQEV 221940Z AUTO 35001KT 6000 HZ CLR M09/M13 A3034 RMK A02 TSNO
KQEW 221940Z AUTO 13002KT 9999 CLR M05/M09 A3030 RMK A02 TSNO
KQEX 221940Z AUTO 35001KT 9999 CLR M05/M10 A3036 RMK A02 TSNO
KQEY 221940Z AUTO 19001KT 6000 HZ BKN002 M07/M09 A3031 RMK A02 TSNO
KQFG 221855Z AUTO 35002KT 9999 FEW120 BKN170 10/M03 A3012 RMK AO2 SLP207 T00971031
KQFQ 221855Z AUTO VRB02KT 6SM BR CLR M10/M11 A3030 RMK AO2 SLP267 T11041108 $
KQFS 221856Z AUTO VRB01KT 9999 M M03/M09 A3032 RMK AO2 SLPNO T10291087 $
KQFT 221940Z AUTO 11001KT 9000 HZ CLR M12/M16 A3033 RMK A02 TSNO
KQFU 221940Z AUTO 24001KT 2800 HZ CLR M10/M14 A3032 RMK A02 TSNO
KQFV 221940Z AUTO 05002KT 6000 HZ CLR M14/M18 A3028 RMK A02 TSNO
KQFX 221940Z AUTO 11002KT 4800 HZ FEW000 M13/M17 A3036 RMK A02 TSNO
KQGA 221859Z AUTO 05011G15KT 4800 HZ CLR 27/01 A2999 RMK CDP03659 CLR
KQGV 221855Z 27009KT 9999 CLR 10/02 A3009 RMK SLPNO QNH1019 PA +309
KQGX 221858Z AUTO 23002KT 9999 CLR 17/13 A3001 RMK AO2 SLP165 T01710131 $
KQHN 221855Z 22003KT 9999 SKC 08/01 A3000 RMK SLP166 Q1016 DA3315
KQHY 221856Z AUTO 12003KT 10SM BKN027 19/17 A2983 RMK AO2 LTG DSNT E CIG 027V050 SLP108 T01900166
KQIR 221858Z 32006KT 9999 CLR 17/12 A3003 RMK AO2A SLP171 T01730123 $
KQL5 221855Z 23002KT 5000 HZ FEW180 06/00 A3008 RMK SLP199 T00590003
KQLP 221655Z AUTO 16/10 Q1022 RMK AO2 SLP176 T01640103 PWINO PNO TSNO $
KQMR 221855Z AUTO VRB03KT 8000 BR CLR 28/23 A2984 RMK AO2 SLP103 T02830228 $
KQRB 221855Z AUTO 24001KT 9999 CLR 27/24 A2985 RMK AO2 SLP106 T02690243
KQRH 221855Z AUTO 16002KT 9999 CLR 24/18 A3000 RMK AO2 SLP158 T02440176
KQSA 221858Z VRB01KT 9999 BKN080 05/00 A3012 RMK AO2A SLP158 T00450001 401020008 $
KQTC 221855Z AUTO 06006KT 10SM FEW240 RMK AO2 SLPNO $
KQTH 221855Z AUTO 16004KT 9999 CLR 16/00 A3011 RMK AO2 SLP185 T01611003 $
KQTZ 221855Z VRB02KT 8000 HZ CLR 10/04 A3005 RMK SLP176 WND/ALSTG/SLP ESTMD
KQUD 221932Z AUTO 00000KT 8SM BKN150 21/18 A3017 RMK AO2 SLP165 TSNO $
KQVF 221936Z AUTO 11002KT 9999 CLR 26/22 A2991 RMK AO2 SLP126
KQWM 221855Z 29006KT 9999 FEW250 12/03 A3009 RMK SLP191 QNH1019
KQXT 221855Z 31001KT 9999 SCT120 07/03 A3005 RMK SLP188 WND DATA ESTMD ALSTG/SLP ESTMD Q1017
KRAC 221906Z AUTO 12009KT 2 1/2SM -RA BR BKN009 OVC027 02/01 A2981 RMK AO2 P0000 T00220006
KRAL 221853Z 11003KT 10SM CLR 19/08 A3004 RMK AO2 SLP160 T01940083
KRAP 221852Z 33036G44KT 10SM BKN110 07/M06 A2950 RMK AO2 PK WND 33048/1810 SLP000 T00671056
KRAS 221935Z AUTO 18009KT 10SM OVC013 20/17 A2969 RMK AO2 T02030170
KRBD 221853Z 27014G19KT 10SM CLR 20/05 A2957 RMK AO2 SLP008 T02000050
KRBG 221946Z AUTO 36007KT 10SM OVC014 14/12 A3035 RMK AO2 T01390117
KRBL 221854Z AUTO 33009KT 10SM SCT008 14/12 A3029 RMK AO2 SLP255 T01440117
KRBO 221935Z AUTO 21009G14KT 10SM CLR 21/17 A2969 RMK AO2 T02140170
KRBW 221935Z AUTO 07004KT 10SM -VCTSRA OVC004 08/ A2998 RMK AO2 LTG DSNT SE
KRCA 221858Z 34032G45KT 10SM BKN120 06/M05 A2948 RMK AO2A PK WND 34045/18 SLP997 P0000 T00581049 $
KRCE 221935Z AUTO 33015G26KT 10SM CLR 13/08 A2958 RMK AO2
KRCM 221915Z AUTO 16006KT 3SM -DZ OVC005 07/06 A2948 RMK AO2
KRCR 221935Z AUTO 12009KT 3SM BR OVC008 03/02 A2982 RMK AO2
KRCV 221930Z AUTO 28011KT 1 3/4SM -SN BKN015 OVC025 01/M03 A2967 RMK AO2 T00071027
KRCX 221935Z AUTO 11009KT 4SM BR OVC008 02/01 A2971 RMK AO2 T00200006
KRCZ 221935Z AUTO 05005KT 2 1/2SM BR OVC003 04/04 A3003 RMK AO2 T00430039
KRDD 221853Z 34004KT 10SM CLR 15/12 A3028 RMK AO2 SLP253 T01500117
KRDG 221854Z AUTO 16005KT 10SM BKN022 OVC100 05/M01 A3020 RMK AO2 SLP236 T00501006
KRDK 221935Z AUTO 15007G12KT 5SM BR OVC008 06/06 A2942 RMK AO2
KRDM 221856Z 09005KT 10SM CLR 08/03 A3033 RMK AO2 SLP277 T00780028
KRDR 221943Z AUTO 07005KT 1 1/4SM BR OVC003 02/02 A2954 RMK AO2
KRDU 221851Z 04005KT 1 1/2SM -DZ BR OVC005 03/02 A3007 RMK AO2 PRESFR SLP186 CIG 004V007 P0000 T00330017
KREO 221852Z AUTO 30017G23KT 08/02 A3022 RMK AO1 SLP234 T00780022
KRFD 221931Z 09011KT 2 1/2SM -RA BR BKN010 OVC016 02/00 A2971 RMK AO2 P0002 T00170000
KRFI 221935Z AUTO 22008G17KT 10SM SCT036 21/12 A2957 RMK AO2 T02060115
KRGK 221931Z AUTO 13008KT 3SM -RA BKN014 03/02 A2962 RMK AO2
KRHI 221914Z AUTO 13008KT 2 1/2SM BR OVC005 00/M01 A2975 RMK AO2 T00001006
KRHP 221935Z AUTO 16004KT 10SM BKN070 OVC085 14/07 A2987 RMK AO2 T01360068
KRHV 221755Z 28008KT 10SM BKN015 BKN025 16/14 A3029
KRIC 221932Z 02007KT 3SM -RA BR OVC005 04/02 A3010 RMK AO2 P0003
KRIL 221853Z AUTO 27009KT 10SM SCT028 BKN040 OVC100 03/M01 A2981 RMK AO2 UPB07E46RAB20E41SNB09E20 SLP092 P0001 T00281006
KRIV 221858Z AUTO VRB02KT 10SM CLR 17/10 A3006 RMK AO2 SLP176 T01710101
KRIW 221853Z AUTO 23007KT 10SM FEW023 FEW120 M03/M06 A2980 RMK AO2 SLP113 T10331056
KRKD 221935Z AUTO 03004KT 9SM OVC011 02/01 A3039 RMK AO1
KRKP 221853Z AUTO 20008KT 170V240 10SM OVC013 21/16 A2971 RMK AO2 PRESFR SLP062 T02060156
KRKR 221935Z AUTO 23005KT 10SM SCT029 OVC039 14/09 A2954 RMK AO2 T01350090
KRKS 221945Z AUTO 32017G23KT 9SM SCT023 SCT095 M02/M06 A2981 RMK AO2 PK WND 31035/1925 SNE40 P0000 T10171061
KRME 221912Z 12009KT 10SM OVC030 02/M02 A3022 RMK AO2 T00221017
KRMG 221853Z AUTO 11007KT 10SM OVC009 09/07 A2990 RMK AO2 SLP123 T00890067
KRMN 221935Z AUTO 02005KT 1 1/2SM DZ OVC007 01/01 A3020 RMK AO2 T00130013
KRMY 221932Z AUTO 11010G16KT 10SM SCT037 BKN060 OVC065 03/M02 A2988 RMK AO2 T00301019
KRNC 221935Z AUTO 00000KT 10SM OVC021 12/09 A2982 RMK
KRND 221858Z AUTO 21009KT 10SM CLR 19/12 A2969 RMK AO2 SLP051 T01930119
KRNH 221935Z AUTO 12009KT 2SM -RA OVC008 02/02 A2963 RMK AO2 T00170016
KRNM 221853Z 30006KT 10SM CLR 22/09 A3005 RMK AO2 SLP168 T02170089
KRNO 221855Z 17003KT 10SM FEW050 SCT120 SCT160 10/03 A3033 RMK AO2 SLP255 ACSL DSNT E S T01000028
KRNP 221935Z AUTO 12006KT 10SM BKN100 04/M02 A2994 RMK AO2 T00361021
KRNT 221853Z 00000KT 10SM CLR 08/05 A3037 RMK AO2 SLP290 T00830050
KRNV 221935Z AUTO 16011KT 10SM OVC011 15/14 A2965 RMK AO2 T01530137
KROA 221854Z 14004KT 2 1/2SM BR OVC007 02/01 A3010 RMK AO2 SLP201 T00220006
KROC 221854Z 14006KT 10SM FEW250 04/M03 A3012 RMK AO2 SLP209 T00391033
KROG 221857Z 20011KT 7SM -RA OVC006 09/08 A2953 RMK AO2 CIG 004V010 SLP000 P0001 T00940083
KROS 221935Z AUTO 12005KT 5SM -RA OVC005 02/01 A2963 RMK AO2 T00160008
KROW 221851Z 31013KT 10SM CLR 19/M01 A2973 RMK AO2 PK WND 28027/1807 SLP031 T01891011
KROX 221934Z AUTO 08005KT 4SM HZ OVC007 02/M01 A2960 RMK AO2
KRPD 221935Z AUTO 10008KT 3SM BR OVC007 02/00 A2968 RMK AO2 T00160003
KRPH 221930Z AUTO 30013KT 10SM CLR 15/06 A2964 RMK AO2 T01520063
KRPJ 221935Z AUTO 10012G17KT 2 1/2SM RA OVC006 01/01 A2968 RMK AO2 P0001 T00110007
KRQB 221935Z AUTO 11009KT 7SM SCT060 OVC090 01/M02 A2990 RMK AO2 T00111016
KRQE 221853Z AUTO 28015G21KT 10SM CLR 11/01 A2992 RMK AO2 PRESFR SLP078 T01110006 TSNO
KRQO 221935Z AUTO 33017KT CLR 13/02 A2957 RMK AO2 PWINO
KRRL 221935Z AUTO 12006KT 2 1/2SM BR OVC005 01/00 A2974 RMK AO2 T00100003
KRRT 221934Z AUTO 07005KT 3SM BR OVC004 01/M01 A2962 RMK AO2
KRSL 221853Z AUTO 31019KT 10SM FEW042 11/01 A2954 RMK AO2 PK WND 31026/1819 SLP005 T01060011
KRSN 221935Z AUTO 00000KT 7SM OVC015 15/15 A2966 RMK AO2 T01540147
KRST 221941Z 13014KT 2 1/2SM -RA BR OVC010 02/01 A2959 RMK AO2 TWR VIS 3 CIG 006V014 P0000 T00220006
KRSV 221935Z AUTO 15011KT 10SM -DZ OVC021 09/07 A2973 RMK AO2 T00890065
KRSW 221853Z 19013KT 10SM CLR 28/19 A2994 RMK AO2 SLP134 T02780194
KRTN 221937Z AUTO 07009KT 3/4SM -SN BR SCT004 BKN023 OVC030 M01/M02 A2970 RMK AO2 P0002 T10111022
KRTS 221935Z AUTO 31009KT 10SM SCT041 12/03 A3032 RMK AO2
KRUE 221944Z AUTO 00000KT 5SM BR OVC007 11/10 A2955 RMK AO2 RAB01E21 CIG 003V009 P0001 T01060100
KRUG 221935Z AUTO 02006KT 2 1/2SM BR BKN005 OVC012 00/00 A2956 RMK AO2
KRUQ 221935Z AUTO 36004KT 1 1/4SM BR OVC003 02/02 A3005 RMK AO2 T00230021
KRUT 221935Z 12014G19KT 10SM OVC039 02/M02 A3026 RMK AO1
KRVS 221905Z 24005KT 10SM FEW014 BKN018 OVC035 12/09 A2954 RMK AO2 T01170089
KRWF 221853Z AUTO 13015KT 6SM -RA BR OVC007 04/03 A2949 RMK AO2 SLP993 P0001 T00390028
KRWI 221937Z AUTO 02010KT 2SM BR OVC005 05/04 A3005 RMK AO2 PRESFR T00500039
KRWL 221949Z AUTO 33012G25KT 1SM -SN BR BKN012 OVC085 M03/M05 A2975 RMK AO2 WSHFT 1851 P0000
KRWV 221935Z AUTO 20010KT 10SM CLR 19/13 A2966 RMK AO2
KRXE 221853Z AUTO 24006KT 10SM CLR 02/M01 A2995 RMK AO2 SLP160 T00171006
KRYN 221946Z 26005KT 10SM CLR 18/05 A3001
KRYT 221853Z AUTO 04003KT 9SM UP FEW048 OVC060 01/M04 A3015 RMK AO2 UPB37 SLP230 P0000 T00061044 $
KRYV 221935Z AUTO 11009G15KT 5SM -RA BKN015 BKN025 OVC031 02/01 A2974 RMK AO2 T00230014
KRYW 221935Z AUTO 27011G19KT 10SM CLR 24/05 A2965 RMK AO2 T02360050
KRYY 221947Z 11010G16KT 1 1/2SM -DZ BR OVC003 06/06 A2993
KRZL 221935Z AUTO 11010KT 3SM -DZ OVC006 03/03 A2975 RMK AO2
KRZN 221935Z AUTO 12006KT 2 1/2SM BR OVC006 02/01 A2965 RMK AO2 T00150008
KRZR 221935Z AUTO 21005KT 10SM OVC027 11/06 A2987 RMK
KRZT 221934Z AUTO 00000KT 10SM CLR 08/01 A2992 RMK AO2
KS25 221935Z AUTO 33011KT 9SM OVC006 M03/M04 A2959 RMK AO2
KS39 221935Z AUTO 36004KT 10SM SCT110 08/03 A3033 RMK AO2
KSAA 221935Z AUTO 34020G26KT 10SM SCT033 SCT044 SCT060 00/M05 A2974 RMK AO2
KSAC 221853Z AUTO 33009KT 10SM BKN012 16/12 A3028 RMK AO2 SLP251 T01560122 TSNO
KSAD 221851Z AUTO 29008KT 10SM CLR 13/03 A2995 RMK AO2 SLP124 T01280033
KSAF 221853Z 28020G29KT 10SM CLR 11/M02 A2975 RMK AO2 PK WND 27030/1837 SLP023 T01111022
KSAN 221851Z 30006KT 10SM CLR 20/13 A3005 RMK AO2 SLP175 T02000128
KSAR 221943Z AUTO 14006KT 5SM -RA OVC006 A2962 RMK AO2 P0002
KSAT 221851Z 22010KT 10SM BKN250 19/12 A2969 RMK AO2 SLP042 T01940117
KSAV 221925Z 14007KT 3/4SM -RA BR FEW002 BKN022 OVC055 11/10 A2995 RMK AO2 SFC VIS 2 P0018
KSAW 221948Z 16010KT 2 1/2SM BR OVC006 00/M01 A2984
KSAZ 221933Z AUTO 11008KT 7SM DZ OVC009 02/02 A2955 RMK AO2
KSBA 221853Z 24004KT 10SM CLR 24/09 A3004 RMK AO2 SLP172 T02390094
KSBD 221847Z 24004KT 10SM SKC 18/08 A3005
KSBM 221853Z AUTO 13008KT 5SM BR OVC010 02/00 A2982 RMK AO2 SLP104 T00220000
KSBN 221935Z 12013KT 5SM -RA BR BKN012 BKN019 OVC060 02/00 A2982 RMK AO2 RAB18 P0000 T00220000
KSBO 221935Z AUTO 07004KT 10SM OVC003 A2995 RMK AO2 LTG DSNT S
KSBP 221856Z COR VRB06KT 10SM SCT030 20/11 A3018 RMK AO2 SLP217 T02000111
KSBS 221935Z AUTO 26010G14KT 10SM BKN033 OVC041 M01/M05 A2974 RMK AO1 T10071052
KSBY 221936Z 05009KT 3SM -RA BR BKN006 OVC032 07/04 A3014 RMK AO2 P0002 T00670044
KSCD 221935Z AUTO 00000KT 10SM OVC006 11/11 A2984 RMK AO2 LTG DSNT S T01080108
KSCF 221935Z AUTO VRB04KT 6SM HZ FEW022 FEW028 SCT033 23/20 A2972 RMK A01
KSCH 221859Z 07005KT 10SM SCT019 OVC040 02/M02 A3027
KSCK 221855Z 30007KT 10SM BKN007 OVC012 14/13 A3026 RMK AO2 SLP247 T01440128
KSDA 221935Z AUTO 15009G15KT 5SM BR SCT008 SCT017 BKN032 07/06 A2942 RMK AO2
KSDB 221948Z AUTO 34020G27KT 10SM CLR 13/04 A3021 RMK AO2 PK WND 33029/1915 SLP199 T01330044
KSDF 221908Z 16012KT 10SM SCT027 SCT065 OVC110 12/06 A2981 RMK AO2 T01170061
KSDL 221853Z 17003KT 10SM CLR 14/05 A3002 RMK AO2 SLP155 T01390050
KSDM 221853Z 00000KT 10SM CLR 21/09 A3003 RMK AO2 SLP168 T02060094
KSDY 221935Z AUTO 30013G18KT 10SM BKN019 BKN024 BKN040 M03/M06 A2968 RMK AO1
KSEA 221901Z 17005KT 10SM FEW016 SCT025 BKN160 09/04 A3037 RMK AO2
KSEE 221935Z AUTO 00000KT 10SM 24/09 A3002 RMK AO2
KSEG 221853Z AUTO 00000KT 9SM OVC039 02/M03 A3021 RMK AO2 SLP235 T00171033
KSEM 221935Z AUTO 10005KT 3SM VCTS RA OVC005 12/11 A2981 RMK AO2 LTG DSNT E-S
KSEP 221935Z AUTO 32012G19KT 10SM CLR 18/03 A2964 RMK AO2 T01750030
KSET 221928Z AUTO 15008KT 8SM -RA OVC010 08/07 A2959 RMK AO2 P0001 T00830072
KSEZ 221935Z AUTO 21004KT 10SM CLR 15/03 A3000 RMK AO2
KSFB 221853Z 17007KT 10SM BKN041 24/19 A2993 RMK AO2 SLP135 T02440189
KSFF 221853Z 27004KT 10SM CLR 06/M01 A3018 RMK AO2 SLP228 T00561011
KSFM 221935Z AUTO 02006KT 10SM BKN016 OVC050 03/M02 A3036 RMK AO1
KSFO 221938Z 06004KT 1/8SM R28R/1200V2800FT FG VV001 13/13 A3027 RMK AO2
KSFQ 221935Z AUTO 02007KT 7SM OVC005 08/07 A3004 RMK AO2 T00750072
KSFY 221935Z AUTO 09011G17KT 2 1/2SM -RA BKN008 OVC011 03/01 A2963 RMK AO2 P0002 T00250013
KSFZ 221935Z 03006KT 10SM BKN012 OVC022 04/M01 A3028 RMK AO1
KSGF 221852Z 16010KT 4SM BR OVC006 08/07 A2951 RMK AO2 SLP993 T00830072
KSGH 221856Z AUTO 14008KT 7SM CLR 08/03 A2992 RMK AO2 T00770033 SLP138
KSGJ 221858Z 15008KT 10SM BKN050 BKN085 23/19 A2991 RMK AO2 LTG DSNT W-N SLP127 T02330189
KSGR 221853Z 22011G19KT 10SM CLR 22/16 A2967 RMK AO2 PK WND 22026/1814 SLP049 T02170156
KSGS 221930Z AUTO 13007KT 2 1/2SM -RA OVC007 02/01 A2961 RMK AO2 P0002 T00200012
KSGT 221935Z 16008KT 10SM BKN010 OVC021 13/11 A2961 RMK AO1
KSGU 221935Z AUTO 00000KT 10SM CLR 12/03 A2999 RMK AO1
KSHD 221935Z AUTO 01004KT 1 1/4SM -DZ OVC006 01/00 A3013 RMK AO2 T00120000
KSHL 221935Z AUTO 15011KT 2 1/2SM BR OVC005 04/04 A2941 RMK AO2
KSHM 221936Z AUTO 08009KT 10SM -RA BKN008 00/M02 A2967 RMK AO2 RAB36
KSHN 221933Z AUTO 00000KT 6SM BR OVC002 06/05 A3034 RMK AO2 T00560050
KSHR 221853Z AUTO 32026G34KT 10SM OVC110 03/M04 A2975 RMK AO2 PK WND 31034/1817 SLP091 T00281044
KSHV 221940Z 18010KT 10SM FEW016 SCT023 BKN033 18/14 A2956 RMK AO2 T01780144
KSIF 221935Z AUTO 02005KT 1 3/4SM BR OVC004 02/02 A3008 RMK AO2 T00210018
KSIY 221853Z AUTO 24006KT 10SM BKN044 13/08 A3035 RMK AO2 SLP287 T01280083
KSJC 221853Z 29007KT 10SM FEW006 BKN015 OVC027 15/12 A3028 RMK AO2 SLP252 T01500122
KSJN 221854Z AUTO 30012G19KT 10SM CLR 13/02 A2998 RMK AO2 SLP115 T01280017
KSJS 221935Z AUTO 08005KT 10SM SCT048 BKN095 13/05 A2988 RMK AO2 T01300048
KSJT 221851Z 31015G20KT 10SM CLR 23/01 A2969 RMK AO2 SLP040 T02280011
KSJX 221936Z AUTO 12011KT 10SM OVC070 02/M03 A2993 RMK AO2 T00211026
KSKA 221858Z AUTO 25011KT 10SM CLR 04/M01 A3017 RMK AO2 SLP235 T00431007 $
KSKF 221858Z AUTO 21008KT 10SM CLR 20/13 A2969 RMK AO2 SLP050 T02040127 $
KSKX 221935Z AUTO 28026G36KT 10SM SCT110 06/M04 A2966 RMK AO1
KSLB 221935Z AUTO 14012KT 4SM BR OVC005 04/04 A2944 RMK AO2
KSLC 221933Z 03003KT 10SM SCT025 BKN031 BKN039 06/02 A3000 RMK AO2 T00610017
KSLE 221910Z 17004KT 10SM SCT008 BKN013 11/09 A3038 RMK AO2 T01110089
KSLG 221935Z AUTO 22009KT 3SM SCT008 BKN016 OVC024 09/06 A2953 RMK AO1
KSLH 221938Z AUTO 14011G14KT 10SM CLR 01/M02 A2997 RMK AO2 T00121026
KSLI 221858Z VRB01KT 7SM CLR 19/12 A3003 RMK AO2A SLP172 T01940122
KSLK 221851Z AUTO 05005KT 10SM OVC024 M02/M04 A3016 RMK AO2 SLP242 T10171039
KSLN 221853Z 31016KT 10SM FEW027 SCT031 SCT060 11/04 A2952 RMK AO2 SLP997 T01060039
KSLO 221935Z AUTO 14009KT 3SM -RA OVC006 09/08 A2965 RMK AO2 T00870075
KSLR 221935Z AUTO 24015G18KT 10SM CLR 20/09 A2956 RMK AO2 T01970088
KSME 221935Z AUTO 15005KT 10SM BKN110 13/05 A2984 RMK AO2
KSMF 221936Z 30009KT 10SM OVC010 14/12 A3025 RMK AO2 TPS 021
KSMN 221935Z AUTO 00000KT 10SM FEW035 BKN070 BKN110 02/M01 A3003 RMK AO1
KSMO 221851Z 00000KT 7SM CLR 20/09 A3004 RMK AO2 SLP172 T02000094
KSMQ 221853Z AUTO 04003KT 5SM HZ OVC011 04/01 A3022 RMK AO2 SLP236 T00440011
KSMS 221935Z AUTO 05007KT 8SM -DZ OVC006 07/06 A3000 RMK AO2 LTG DSNT S
KSMX 221851Z 01013G23KT 10SM CLR 22/11 A3015 RMK AO2 SLP212 T02220111
KSNA 221853Z 00000KT 4SM HZ FEW300 20/12 A3003 RMK AO2 SLP169 T02000117
KSNC 221935Z AUTO 09006KT 10SM OVC039 07/02 A3025 RMK AO2
KSNH 221935Z AUTO 16008KT 10SM OVC010 11/11 A2974 RMK
KSNK 221935Z AUTO 32010KT 10SM CLR 14/02 A2972 RMK AO2 T01430018
KSNL 221935Z AUTO 31008KT 10SM CLR 15/09 A2957 RMK AO2
KSNS 221853Z 06003KT 10SM CLR 18/13 A3024 RMK AO2 SLP250 T01830133
KSNT 221851Z AUTO 32013G24KT 01/M08 A3003 RMK AO1 SLP153 T00061083
KSNY 221853Z AUTO 32022G30KT 10SM CLR 04/M06 A2963 RMK AO2 PK WND 32030/1845 SLP040 T00391056
KSOA 221935Z AUTO 30006KT 10SM CLR 22/02 A2971 RMK AO2
KSOP 221935Z AUTO 03006KT 4SM OVC003 04/02 A3003 RMK AO1
KSOW 221935Z AUTO 26008KT 10SM CLR 12/M02 A3001 RMK AO2
KSPA 221955Z AUTO 05007KT 7SM OVC005 05/05 A3001 RMK AO2
KSPB 221927Z AUTO 00000KT 10SM SCT005 10/08 A3037 RMK AO2 T01000083
KSPD 221856Z AUTO 35013KT 05/M06 A2970 RMK AO1 SLP042 T00501056
KSPF 221935Z AUTO 31030G40KT 10SM UP BKN044 03/M05 A2957 RMK AO2
KSPG 221853Z 21013KT 10SM FEW041 24/20 A2990 RMK AO2 SLP124 T02390200
KSPI 221856Z 16012KT 3SM -RA BR OVC006 07/06 A2964 RMK AO2 P0000 T00670061
KSPL 221935Z AUTO 07017KT 4SM FEW020 24/18 A2970 RMK AO1
KSPR 221935Z AUTO 21017KT 4SM BR BKN019 BKN030 BKN038 23/21 A2974 RMK A01
KSPS 221852Z 34012KT 10SM FEW050 SCT070 SCT130 14/05 A2961 RMK AO2 SLP022 T01390050
KSPW 221853Z AUTO 14014G21KT 9SM OVC007 04/03 A2946 RMK AO2 SLP982 T00440028 TSNO
KSQE 221935Z AUTO 19011G17KT 8SM SCT016 SCT021 24/21 A2977 RMK A01
KSQI 221935Z 10013KT 2 1/2SM OVC006 02/00 A2963 RMK AO1 P0001
KSQL 221930Z 04004KT 2 1/2SM BR BKN005 14/14 A3029
KSRB 221935Z AUTO 18007KT 10SM OVC022 12/08 A2983 RMK
KSRC 221908Z AUTO 18010KT 8SM OVC006 12/11 A2962 RMK AO2 TSNO
KSRQ 221853Z 18020G27KT 10SM CLR 25/21 A2989 RMK AO2 PK WND 18028/1830 SLP119 T02500206
KSRR 221935Z AUTO 33007G15KT 030V040 10SM BKN055 12/M03 A2984 RMK AO2
KSSC 221943Z 04009KT 5SM BR OVC005 07/06 A2997 RMK AO2A
KSSF 221853Z 23010KT 10SM CLR 19/12 A2969 RMK AO2 SLP049 T01940122
KSSI 221949Z AUTO 35007KT 2 1/2SM VCTS -RA BR OVC002 14/13 A2993 RMK AO2 LTG DSNT S AND SW P0002
KSTC 221934Z 11008KT 2 1/2SM UP BR OVC007 03/01 A2956 RMK AO2 RAB1856E11UPB11 P0000 T00280011
KSTE 221935Z AUTO 12007KT 5SM BR OVC035 01/M01 A2975 RMK AO2 T00051012
KSTF 221935Z AUTO 13005KT 1 3/4SM BR OVC003 12/11 A2974 RMK AO2
KSTJ 221939Z 15008KT 3SM BR OVC007 07/06 A2944 RMK AO2 RAE36 CIG 005V012 P0001 T00720061
KSTK 221930Z AUTO 33016KT 10SM CLR 05/M01 A2964 RMK AO2
KSTL 221937Z 15009KT 4SM -RA BR BKN009 OVC035 09/07 A2959 RMK AO2 P0004
KSTP 221942Z 12011KT 2 1/2SM -RA BR OVC009 02/01 A2962 RMK AO2 RAB1854 CIG 008V012 P0002 T00170011
KSTS 221853Z VRB03KT 10SM CLR 16/13 A3027 RMK AO2 SLP244 T01610133
KSUA 221847Z 15010KT 7SM BKN035 28/18 A2995
KSUE 221935Z AUTO 14011G15KT 8SM OVC075 01/M02 A2986 RMK AO1
KSUN 221947Z 27010G20 10SM SCT040 SCT090 04/M04 A2999
KSUS 221854Z 14004KT 9SM -RA BKN009 OVC037 08/07 A2960 RMK AO2 RAB10 SLP025 P0001 T00830072
KSUT 221935Z AUTO 35011KT 10SM -RA OVC006 09/08 A2998 RMK AO2 T00860076
KSUU 221923Z AUTO 30004KT 10SM OVC007 14/12 A3027 RMK AO2 $
KSUW 221935Z AUTO 09003KT 2 1/2SM DZ OVC010 02/02 A2969 RMK AO2 T00200015
KSUX 221940Z 32004KT 2 1/2SM BR OVC009 06/04 A2941 RMK AO2 RAE08 CIG 004V012 P0001 T00560044
KSVC 221935Z AUTO 31012KT 8SM CLR 13/00 A2991 RMK AO2
KSVH 221935Z AUTO 06008KT 2SM BR OVC003 02/02 A3004 RMK AO2 T00240021
KSVN 221939Z 15003KT 1 1/2SM -RA BR BKN021 11/11 A2993 RMK AO2A VIS 2 RWY10 $
KSWF 221945Z VRB04KT 5SM BR SCT018 OVC030 03/01 A3024
KSWO 221945Z 31011G19KT 10SM FEW027 14/05 A2955 RMK AO2 T01390050
KSWW 221935Z AUTO 33009KT 10SM CLR 16/02 A2973 RMK AO2 T01620016
KSXS 221856Z AUTO 13008KT 6SM BKN002 12/12 A2987 RMK AO2 LTG DSNT W-NW BKN V OVC SLP117 T01200120
KSXT 221856Z AUTO VRB03KT 1/4SM FG VV002 08/08 A3036 RMK AO2 SLP276 T00830083
KSYF 221935Z AUTO 31019G26KT 10SM CLR 07/M07 A2962 RMK AO2 T00711075
KSYI 221935Z AUTO 15007KT 2 1/2SM BKN018 BKN027 OVC043 11/10 A2980 RMK
KSYM 221930Z AUTO 06005KT 10SM OVC040 12/04 A2989 RMK AO2
KSYN 221934Z AUTO 12009KT 3SM DZ OVC009 03/01 A2958 RMK AO2 T00300011
KSYR 221854Z 15014G18KT 10SM SCT027 SCT200 04/M02 A3018 RMK AO2 SLP220 T00391017
KSZL 221858Z 17008KT 4SM -DZ BR OVC004 07/07 A2949 RMK AO2A RAB1808E1839DZE1808B1839 SLP991 P0001 T00710065 $
KSZT 221935Z AUTO 22004KT 10SM SCT047 SCT060 06/M01 A3012 RMK AO2
KT20 221935Z AUTO 23009KT 10SM CLR 21/15 A2966 RMK AO2 T02050145
KT35 221935Z AUTO 23008G14KT 10SM CLR 21/12 A2962 RMK AO2 T02050117
KT65 221935Z AUTO 28006KT 7SM CLR 25/18 A2969 RMK AO2 T02500180
KT82 221935Z AUTO 30010G15KT 10SM CLR 22/02 A2966 RMK AO2 T02200022
KTAD 221942Z AUTO 18008KT 1/2SM SN FZFG VV015 M01/M02 A2970 RMK AO2 P0001 T10111022
KTAN 221923Z AUTO 08004KT 10SM SCT012 BKN019 OVC035 08/04 A3030 RMK AO2 RAE23 P0000 T00780044
KTAZ 221935Z AUTO 14011G16KT 4SM -RA OVC005 06/05 A2963 RMK AO2 P0001
KTBN 221931Z AUTO 15005KT 10SM OVC006 08/08 A2951 RMK AO2
KTBR 221935Z AUTO 07004KT 10SM OVC006 08/08 A2995 RMK AO2 LTG DSNT E AND S T00840084
KTBX 221935Z AUTO 30011KT 10SM SCT110 M05/M06 A2983 RMK AO2
KTCC 221853Z AUTO 02003KT 10SM OVC055 09/M03 A2974 RMK AO2 SLP054 T00891028
KTCL 221853Z 11005KT 10SM OVC013 14/11 A2980 RMK AO2 SLP089 T01390111
KTCM 221858Z AUTO 17003KT 10SM OVC140 08/08 A3037 RMK AO2 SLP289 T00800078
KTCS 221853Z AUTO 24008KT 10SM CLR 17/00 A2984 RMK AO2 SLP051 T01670000 TSNO
KTDF 221935Z AUTO 03005KT 3SM BR OVC004 02/02 A3008 RMK AO2
KTDR 221903Z AUTO 09006KT 10SM BKN010 20/19 A2980 RMK AO2 CIG 010V020 BKN V FEW
KTDZ 221853Z AUTO 07006KT 8SM FEW049 OVC100 04/M02 A2994 RMK AO2 SLP146 T00391017 TSNO
KTEB 221851Z 06004KT 7SM OVC011 06/02 A3022 RMK AO2 SLP234 T00560022
KTEW 221935Z AUTO 11004KT 10SM SCT044 SCT070 OVC100 03/M02 A2991 RMK AO2 T00281020
KTEX 221935Z AUTO 27023G40KT 1/2SM -SN OVC005 M01/M02 A2979 RMK AO2 T10071021
KTFP 221935Z AUTO 21012KT 10SM BKN014 21/15 A2968 RMK AO2 T02060145
KTGI 221938Z AUTO 02010KT 3SM OVC008 06/05 A3009 RMK AO1
KTHA 221935Z AUTO 16009KT 2 1/2SM FEW008 BKN014 OVC022 09/07 A2981 RMK
KTHV 221942Z AUTO 00000KT 5SM HZ SCT015 OVC031 01/M03 A3020 RMK AO2 T00111028
KTIF 221935Z AUTO 32018G33KT 10SM SCT049 BKN055 07/M02 A2949 RMK AO2 T00661023
KTIK 221858Z AUTO 32013G22KT 10SM CLR 12/06 A2957 RMK AO2 SLP019 T01200059
KTIP 221930Z AUTO 14012KT 2SM -RA OVC003 05/05 A2970 RMK AO2 T00520047
KTIW 221932Z 00000KT 10SM FEW005 BKN012 08/06 A3036 RMK AO2 T00830056
KTIX 221947Z 14005KT 7SM BKN035 25/20 A2993
KTKC 221932Z AUTO 15010G15KT 2 1/2SM -RA OVC008 04/03 A2945 RMK AO2 T00400033
KTKI 221853Z 27014KT 10SM CLR 17/07 A2958 RMK AO2 SLP022 T01720067
KTKV 221935Z AUTO 00000KT 1 3/4SM BR OVC005 00/00 A2974 RMK AO2 T00021003
KTLH 221922Z 00000KT 10SM SCT005 BKN009 OVC042 18/15 A2987 RMK AO2 CIG 007V014 T01780150 $
KTMA 221935Z AUTO 07004KT 5SM BR OVC004 13/12 A2988 RMK AO2 LTG DSNT SE T01250122
KTMB 221853Z VRB06KT 10SM SCT030 28/20 A2996 RMK AO2 SLP144 T02780200
KTME 221935Z AUTO 23008KT 10SM CLR 20/15 A2966 RMK AO2
KTMK 221935Z AUTO 00000KT 7SM BKN120 10/10 A3038 RMK AO2
KTNB 221935Z AUTO 10003KT 2 1/2SM BR OVC005 04/04 A2998 RMK AO2 T00370037
KTNU 221935Z AUTO 13011KT 5SM BR OVC006 04/03 A2951 RMK AO2
KTOA 221855Z 00000KT 6SM HZ SKC 22/13 A3004
KTOB 221934Z AUTO 13013KT 2SM -RA OVC009 02/02 A2957 RMK AO2 P0001
KTOC 221935Z AUTO 08005KT 2 1/2SM BR OVC006 07/06 A2999 RMK AO2 T00650059
KTOI 221932Z AUTO 09005KT 10SM -RA OVC004 12/11 A2984 RMK AO2 RAB23 P0000 T01220111
KTOL 221852Z 09009KT 7SM OVC100 03/M02 A2992 RMK AO2 SLP139 T00331017
KTOP 221941Z 25009KT 10SM FEW011 BKN018 BKN055 10/08 A2945 RMK AO2 RAB25E36 P0000 T01000078
KTOR 221853Z AUTO 32025G33KT 10SM FEW050 A2964 RMK AO2 PK WND 32034/1807 SLPNO
KTPA 221853Z 18008KT 10SM FEW013 FEW045 BKN210 23/20 A2992 RMK AO2 SLP130 T02330200
KTPF 221935Z AUTO 22011KT 10SM BKN044 26/22 A2992 RMK AO2
KTPH 221856Z AUTO 33028G34KT 10SM CLR 12/01 A3022 RMK AO2 PK WND 33036/1802 SLP203 T01220006
KTPL 221935Z AUTO 25013KT 10SM CLR 21/07 A2960 RMK AO1
KTQE 221854Z AUTO 15010KT 9SM -RA OVC007 06/05 A2942 RMK AO2 CIG 006V010 SLP963 P0002 T00610050
KTQH 221935Z AUTO 22007KT 7SM SCT012 BKN018 OVC029 10/08 A2954 RMK AO2
KTRI 221853Z COR 09007KT 10SM FEW095 FEW150 16/06 A2989 RMK AO2 SLP111 T01560061
KTRK 221850Z 00000KT 10SM SCT100 SCT150 02/02 A3038 RMK NOSPECI
KTRL 221853Z AUTO 22014G19KT 10SM CLR 21/09 A2957 RMK AO2 SLP008 T02060089
KTRM 221852Z AUTO VRB03KT 10SM CLR 18/08 A3002 RMK AO2 SLP165 T01830078 TSNO
KTSP 221935Z AUTO 32015KT 10SM OVC016 10/08 A3024 RMK AO2
KTTA 221935Z AUTO 01007KT 5SM BR OVC004 04/04 A3004 RMK AO2 T00390039
KTTD 221941Z 00000KT 10SM SCT013 SCT020 12/08 A3037 RMK AO2 T01170083
KTTF 221933Z AUTO 07009KT 10SM BKN100 02/M01 A2991 RMK AO2
KTTN 221853Z 00000KT 4SM HZ OVC009 04/01 A3023 RMK AO2 SLP233 T00440011
KTTS 221943Z AUTO 16005KT 3SM HZ SCT210 25/19 A2993 RMK AO2
KTUL 221930Z 26008KT 10SM SCT016 BKN021 OVC032 12/09 A2952 RMK AO2 T01170089
KTUP 221924Z 19006KT 2SM BR OVC004 12/11 A2974 RMK AO2 T01170106
KTUS 221853Z 00000KT 10SM CLR 15/04 A3003 RMK AO2 SLP152 T01500039
KTVC 221853Z 12008KT 8SM FEW075 SCT100 BKN250 03/M04 A2991 RMK AO2 SLP135 T00331039
KTVF 221935Z AUTO 10007KT 10SM BKN013 BKN027 OVC037 02/02 A2956 RMK AO1
KTVI 221935Z AUTO 19004KT 10SM OVC003 16/16 A2987 RMK AO2 LTG DSNT E
KTVK 221930Z AUTO 12007KT 10SM OVC003 04/04 A2951 RMK AO2
KTVL 221853Z AUTO 06004KT 10SM CLR 11/01 A3037 RMK AO2 SLP266 T01060006
KTVR 221853Z AUTO 15007KT 10SM OVC010 17/15 A2969 RMK AO2 RAB07E18 SLP059 P0000 T01720150
KTWF 221924Z 26024G32KT 10SM BKN019 BKN060 06/02 A3008 RMK AO2 PK WND 26034/1859 T00610017
KTWM 221941Z AUTO 09007KT 1/2SM OVC001 03/00 A2967 RMK AO2
KTXK 221853Z 17007KT 6SM BR OVC005 13/12 A2958 RMK AO2 SLP015 T01330117
KTYQ 221935Z AUTO 13005KT 10SM SCT025 BKN032 OVC039 05/02 A2980 RMK AO2 T00510016
KTYR 221853Z 21017G24KT 10SM FEW036 21/10 A2956 RMK AO2 SLP005 T02060100
KTYS 221853Z 00000KT 10SM FEW085 BKN110 BKN250 14/05 A2986 RMK AO2 SLP109 T01390050
KTZR 221859Z 10005KT 10SM BKN220 08/02 A2992
KU16 221758Z AUTO 31016G22KT 10SM BKN070 OVC100 08/01 A3003 RMK AO2 SLP793 T00780011 10078 20044 53010 $
KU68 221935Z AUTO 32027G37KT 5SM SCT034 BKN046 OVC090 01/M01 A2982 RMK AO2 PWINO
KUAO 221948Z AUTO 00000KT 10SM SCT015 OVC032 11/09 A3038 RMK AO2
KUBE 221935Z AUTO 12007KT 2SM BR OVC004 00/00 A2965 RMK AO2
KUCP 221856Z AUTO 09009KT 10SM 04/M01 A3002 RMK AO2 TSNO T00441011 SLP191 $
KUCY 221935Z AUTO 16013KT 10SM OVC017 12/10 A2965 RMK
KUDG 221935Z AUTO 05008KT 3SM OVC004 07/04 A3004 RMK AO1
KUES 221945Z 11012KT 2SM -RA BR BKN009 OVC014 01/00 A2977
KUGN 221930Z 10007KT 2SM -RA BR OVC007 02/01 A2976 RMK AO2 CIG 004V009 P0002 T00170006
KUIL 221853Z AUTO 08004KT 6SM BR CLR 07/06 A3036 RMK AO2 SLP281 T00670061
KUIN 221929Z AUTO 15006KT 1 3/4SM BR OVC003 06/05 A2956 RMK AO2 T00560050
KUKF 221935Z AUTO 09004KT 1 1/2SM -DZ OVC003 02/02 A3010 RMK AO2 P0001
KUKI 221856Z AUTO 00000KT 10SM CLR 17/12 A3030 RMK AO2 SLP257 T01670117
KUKT 221935Z AUTO 13003KT 10SM SCT019 OVC095 05/00 A3021 RMK AO1
KULM 221933Z AUTO 14012KT 4SM -DZ OVC007 03/03 A2951 RMK AO2
KUNI 221935Z AUTO 07005KT 10SM OVC048 12/03 A2992 RMK AO2 T01190027
KUNO 221853Z AUTO 17010KT 4SM BR OVC004 08/07 A2956 RMK AO2 RAB1758E16 SLP011 P0002 T00830072
KUNU 221935Z AUTO 10011KT 5SM -DZ BKN032 OVC043 02/00 A2976 RMK AO2 T00210001
KUNV 221853Z 00000KT 10SM OVC025 00/M05 A3015
KUOX 221935Z AUTO 14007KT 3SM BR OVC003 11/10 A2971 RMK AO2 PWINO PNO
KUSE 221935Z AUTO 11007KT 9SM BKN095 04/M01 A2992 RMK AO2
KUTA 221935Z AUTO 16015G20KT 10SM OVC016 15/12 A2965 RMK AO2
KUTS 221853Z AUTO 21009G16KT 10SM FEW029 21/13 A2964 RMK AO2 SLP032 T02110128
KUUU 221853Z AUTO 10008KT 6SM -RA BKN016 OVC025 06/03 A3029 RMK AO2 RAB50 SLP256 P0000 T00610033
KUVA 221935Z AUTO 21005KT 10SM CLR 16/10 A2970 RMK AO2 T01570096
KUXL 221935Z AUTO 22016G22KT 10SM CLR 23/18 A2967 RMK AO2 T02310175
KUYF 221935Z AUTO 11007KT 10SM CLR 06/02 A2989 RMK AO2
KUZA 221932Z AUTO 04006KT 2 1/2SM BR OVC004 04/03 A3003 RMK AO2 T00390033
KVAD 221945Z AUTO 11004KT 10SM -RA OVC002 14/14 A2988 RMK AO2
KVAF 221935Z AUTO 25019KT 8SM FEW019 23/19 A2972 RMK A01
KVAY 221940Z AUTO 05006KT 8SM SCT024 BKN090 BKN120 06/02 A3021 RMK AO2 T00610022
KVBG 221855Z 03027G34KT 10SM FEW014 21/11 A3014 RMK AO2 PK WND 03034/1847 SLP196 T02110111 $
KVBT 221935Z AUTO 22008KT 8SM SCT006 BKN013 OVC018 10/08 A2952 RMK AO1 P0001
KVBW 221935Z AUTO 00000KT 1 3/4SM OVC006 00/00 A3012 RMK AO2 T00031003
KVCB 221853Z AUTO 34004KT 10SM OVC006 A3030 RMK AO2 SLPNO PWINO TSNO PNO $
KVCT 221851Z 19012KT 10SM SCT055 22/16 A2970 RMK AO2 SLP055 T02220156
KVCV 221935Z AUTO 23005KT 10SM 15/07 A3015 RMK AO2
KVDF 221935Z AUTO 22012G17KT 10SM SCT023 SCT043 27/21 A2991 RMK AO2
KVDI 221935Z AUTO 04005KT 10SM OVC004 10/10 A2994 RMK AO2 LTG DSNT S
KVEL 221853Z AUTO 00000KT 10SM FEW070 BKN085 OVC110 03/01 A2985 RMK AO2 SLP114 T00330006
KVER 221935Z AUTO 14005KT 3SM DZ OVC006 08/08 A2950 RMK AO2 P0001 T00750075
KVES 221935Z AUTO 12006KT 10SM CLR 05/02 A2984 RMK AO2
KVGT 221853Z AUTO 10004KT 10SM CLR 13/04 A3004 RMK AO2 SLP187 T01330044 TSNO
KVIH 221853Z AUTO 15007KT 5SM RA BR BKN007 BKN015 OVC023 07/06 A2954 RMK AO2 SLP007 P0008 T00720061
KVIS 221935Z AUTO 29006KT 10SM FEW010 OVC017 16/11 A3025 RMK AO1
KVJI 221935Z AUTO 10013KT 10SM CLR 14/06 A2990 RMK AO2 T01390058
KVKY 221935Z AUTO 23019KT 10SM FEW095 24/20 A2978 RMK A01
KVLD 221900Z 13003KT 3SM -RA BR BKN003 OVC034 13/12 A2990 RMK AO2 P0000 T01280122
KVLL 221935Z AUTO 10006KT 10SM CLR 04/M01 A2999 RMK AO2 T00381010
KVNC 221935Z AUTO 18017G23KT 10SM CLR 24/20 A2993 RMK AO2 TSNO
KVNY 221851Z 12005KT 10SM CLR 22/08 A3004 RMK AO2 SLP164 T02170083
KVOA 221935Z AUTO 23019KT 10SM BKN090 25/20 A2979 RMK A01
KVOK 221858Z 11013KT 7SM FEW029 OVC090 03/03 A2971 RMK AO2A SLP072
KVPC 221853Z AUTO 10007KT 10SM OVC008 08/06 A2992 RMK AO2 SLP128 T00780056
KVPS 221933Z 12007KT 10SM -RA FEW015 BKN023 BKN080 19/16 A2981 RMK AO2A LTG DSNT SE $
KVPZ 221926Z AUTO 11011KT 5SM UP BR BKN009 BKN044 OVC055 03/01 A2977 RMK AO2 RAE20UPB00 P0000 T00280011 TSNO
KVQQ 221850Z 15005KT 5SM -RA BR SCT005 BKN020 22/20 A2990
KVQT 221935Z AUTO 23010G18KT 9SM FEW017 FEW055 25/21 A2974 RMK A01
KVRB 221853Z 15009G14KT 10SM CLR 28/19 A2994 RMK AO2 SLP138 T02780189
KVSF 221854Z AUTO 06003KT 10SM OVC016 01/M02 A3032 RMK AO2 SNE1759B07E20 SLP274 P0000 T00061017 TSNO
KVSH 221935Z AUTO 19010G22KT 170V230 10SM FEW019 SCT025 BKN031 23/18 A2973 RMK AO1
KVTA 221854Z AUTO 06003KT 10SM CLR 08/01 A2995 RMK AO2 SLP148 T00830011
KVTI 221935Z AUTO 12010KT 2SM -RA OVC008 03/02 A2957 RMK AO2 T00310020
KVTN 221852Z AUTO 32020G29KT 10SM FEW028 BKN034 OVC045 04/M01 A2948 RMK AO2 PK WND 31030/1808 SLP997 T00391011
KVTP 221928Z AUTO 24005KT 10SM SCT008 BKN024 OVC033 M03/M05 A2965 RMK AO2
KVUJ 221935Z AUTO 02007KT 4SM BR OVC005 03/03 A3008 RMK AO2 T00310031
KVUO 221925Z AUTO VRB03KT 7SM FEW008 SCT013 BKN120 11/08 A3037 RMK AO2 T01060083
KVVG 221935Z AUTO 17010KT 8SM 25/20 A2981 RMK A01
KVVV 221933Z AUTO 12013G17KT 5SM -DZ OVC004 03/02 A2944 RMK AO2
KVWU 221928Z AUTO 11003KT 10SM BKN007 OVC013 02/02 A2959 RMK AO2
KVYS 221935Z AUTO 11014G18KT 2SM RA OVC005 03/02 A2965 RMK AO2 P0003 T00280021
KW13 221935Z AUTO 00000KT 1 1/4SM OVC005 00/00 A3010 RMK AO1 T00001005
KW22 221935Z AUTO 12006KT 9SM OVC031 09/04 A2996 RMK AO2
KW29 221941Z AUTO 02004KT 4SM -RA 02/01 A3019 RMK AO1
KW31 221935Z AUTO 36007KT 4SM OVC004 02/02 A3008 RMK AO1 T00230017
KW63 221935Z AUTO 02005KT 2 1/2SM OVC004 02/02 A3008 RMK AO1
KW75 221935Z AUTO 01005KT 4SM OVC007 05/04 A3010 RMK AO1 T00480039
KW78 221935Z AUTO 01005KT 2 1/2SM OVC006 02/01 A3010 RMK AO1 T00170010
KW81 221935Z AUTO 36003KT 3SM OVC005 02/01 A3010 RMK AO1 T00180010
KW96 221935Z AUTO 02003KT 2SM OVC005 03/03 A3010 RMK AO1 P0004 T00310027
KW99 221935Z AUTO 00000KT 2SM BR SCT004 OVC009 00/00 A3013 RMK AO2 T00001005
KWAL 221854Z AUTO 06018KT 10SM OVC029 07/06 A3013 RMK AO2 RAE40 SLP199 P0001 T00670061
KWDG 221853Z 30022KT 10SM SCT012 BKN120 13/05 A2956
KWHP 221947Z 11004KT 10SM SKC 22/07 A3004
KWJF 221856Z 30009KT 10SM CLR 17/08 A3014 RMK AO2 SLP203 T01720083
KWLD 221854Z AUTO 32012KT 10SM SCT021 BKN025 11/07 A2954 RMK AO2 SLP004 T01060067
KWMC 221914Z AUTO 33009KT 5SM -RA BR FEW012 BKN018 OVC035 08/07 A3025 RMK AO2 RAB1859 P0000 T00830072
KWRB 221928Z AUTO 06005KT 10SM OVC004 09/09 A2992 RMK AO2 RAE1903DZB1903E1909
KWRI 221928Z AUTO 04005KT 10SM FEW012 SCT020 BKN090 06/03 A3020 RMK AO2 CIG 011 RWY24
KWRL 221853Z AUTO 32003KT 10SM FEW049 BKN060 BKN090 01/M02 A2981 RMK AO2 SNE16 SLP122 P0000 T00061022
KWST 221853Z AUTO 06007KT 10SM BKN022 BKN029 OVC034 07/03 A3028 RMK AO2 SLP255 T00720028
KWVI 221853Z AUTO 20005KT 10SM CLR 17/14 A3025 RMK AO2 SLP244 T01720139
KWVL 221935Z 00000KT 10SM OVC050 01/M03 A3036 RMK AO1
KWWD 221935Z AUTO 04007KT 10SM BKN046 OVC055 06/02 A3016 RMK AO1 P0001
KWWR 221935Z AUTO 32014G21KT 10SM SCT048 11/00 A2967 RMK AO2
KXBP 221935Z AUTO 32009KT 10SM CLR 14/08 A2964 RMK AO2 T01410080
KXIH 221935Z AUTO 24015KT 10SM CLR 20/17 A2968 RMK A01
KXLL 221935Z AUTO 06003KT 10SM BKN020 OVC100 05/00 A3022 RMK AO2
KXMR 221858Z AUTO 16011KT 10SM CLR 24/19 A2992 RMK AO2 SLP135 T02390191
KXNA 221853Z 19007KT 8SM BKN006 OVC012 09/09 A2952 RMK AO2 CIG 005V008 SLP997 T00940089
KXPY 221935Z AUTO 20017G23KT 8SM SCT021 BKN030 BKN080 23/20 A2979 RMK A01
KXSA 221935Z AUTO 36005KT 2 1/2SM -RA OVC004 03/02 A3013 RMK AO2 T00320015
KXVG 221936Z AUTO 12004KT 3SM DZ OVC006 02/01 A2958 RMK AO2
KY19 221935Z AUTO 35013KT 3SM BR OVC004 M02/M02 A2951 RMK AO2
KY23 221935Z AUTO 09007KT 4SM BR OVC008 02/01 A2967 RMK AO2 T00160005
KY49 221935Z AUTO 12004KT 10SM -DZ OVC006 01/01 A2957 RMK AO2 T00110005
KY50 221856Z AUTO 11006KT 8SM OVC035 03/00 A2977 RMK AO2 TSNO T00330000 SLP083
KY51 221934Z AUTO 12010KT 3SM OVC010 02/02 A2965 RMK AO1 T00170017
KY63 221934Z AUTO 11011KT 7SM -RA OVC007 02/02 A2948 RMK AO2 T00230020
KY70 221934Z AUTO 10009KT 10SM OVC070 03/M01 A2989 RMK AO2 T00321015
KYIP 221853Z 09009KT 10SM CLR 06/M02 A2997 RMK AO2 SLP153 T00561017
KYKM 221853Z 33010GKTS 10SM CLR 11/M01 A3029 RMK ADS4 OTS. PRACTICE OBS BW
KYKN 221935Z AUTO 32009KT 9SM OVC006 04/02 A2942 RMK AO1
KYNG 221851Z 13011KT 10SM FEW048 BKN250 04/M02 A3000 RMK AO2 SLP170 T00391017
KZPH 221935Z AUTO 20007KT 10SM SCT024 26/20 A2992 RMK AO2 LTG DSNT N
KZZV 221853Z AUTO 15007KT 10SM OVC055 09/01 A2996 RMK AO2 SLP151 T00940011